Provisional Data: Lititz Run near Lititz, PA


Please select a monitoring station.
Please select start date.
Please select start date.

Toggle Unit: C/F Toggle Unit: C/F
Sample Time Temperature (C) Temperature (F) Specific Conductivity (mS/cm) pH   Turbidity (NTU+) DO (mg/L)
5/4/2021 12:00:00 AM 15.31 59.558 0.964 7.89 125.03 7.52
5/4/2021 12:15:00 AM 15.28 59.504 0.965 7.89 133.25 7.53
5/4/2021 12:30:00 AM 15.24 59.432 0.966 7.89 136.52 7.53
5/4/2021 12:45:00 AM 15.2 59.36 0.966 7.89 136.13 7.53
5/4/2021 1:00:00 AM 15.16 59.288 0.966 7.88 133.62 7.56
5/4/2021 1:15:00 AM 15.12 59.216 0.967 7.88 137.42 7.57
5/4/2021 1:30:00 AM 15.09 59.162 0.968 7.88 147.65 7.59
5/4/2021 1:45:00 AM 15.04 59.072 0.967 7.87 143.79 7.6
5/4/2021 2:00:00 AM 15 59 0.962 7.87 146.53 7.61
5/4/2021 2:15:00 AM 14.96 58.928 0.956 7.87 136.61 7.63
5/4/2021 2:30:00 AM 14.92 58.856 0.951 7.87 139.54 7.64
5/4/2021 2:45:00 AM 14.88 58.784 0.941 7.87 126.96 7.65
5/4/2021 3:00:00 AM 14.85 58.73 0.925 7.87 117.51 7.66
5/4/2021 3:15:00 AM 14.82 58.676 0.904 7.87 155.77 7.65
5/4/2021 3:30:00 AM 14.78 58.604 0.881 7.86 119.24 7.65
5/4/2021 3:45:00 AM 14.75 58.55 0.859 7.86 134.44 7.64
5/4/2021 4:00:00 AM 14.72 58.496 0.839 7.85 159.09 7.58
5/4/2021 4:15:00 AM 14.7 58.46 0.822 7.84 115.28 7.51
5/4/2021 4:30:00 AM 14.69 58.442 0.806 7.83 118.24 7.41
5/4/2021 4:45:00 AM 14.69 58.442 0.79 7.81 122.35 7.3
5/4/2021 5:00:00 AM 14.7 58.46 0.774 7.8 135.35 7.21
5/4/2021 5:15:00 AM 14.71 58.478 0.76 7.78 131.81 7.12
5/4/2021 5:30:00 AM 14.73 58.514 0.751 7.77 123.46 7.07
5/4/2021 5:45:00 AM 14.75 58.55 0.744 7.77 140.38 7.03
5/4/2021 6:00:00 AM 14.76 58.568 0.74 7.76 124.27 7.02
5/4/2021 6:15:00 AM 14.77 58.586 0.738 7.76 146.55 7
5/4/2021 6:30:00 AM 14.77 58.586 0.739 7.76 125.29 7.02
5/4/2021 6:45:00 AM 14.77 58.586 0.741 7.76 117.67 7.07
5/4/2021 7:00:00 AM 14.76 58.568 0.743 7.76 119.16 7.14
5/4/2021 7:15:00 AM 14.74 58.532 0.747 7.77 133.91 7.21
5/4/2021 7:30:00 AM 14.72 58.496 0.752 7.78 119.43 7.34
5/4/2021 7:45:00 AM 14.69 58.442 0.759 7.79 120.66 7.44
5/4/2021 8:00:00 AM 14.67 58.406 0.767 7.81 111.84 7.59
5/4/2021 8:15:00 AM 14.66 58.388 0.778 7.83 113.01 7.8
5/4/2021 8:30:00 AM 14.66 58.388 0.79 7.85 114.19 8.07
5/4/2021 8:45:00 AM 14.66 58.388 0.803 7.87 101.79 8.25
5/4/2021 9:00:00 AM 14.67 58.406 0.815 7.89 103.69 8.39
5/4/2021 9:15:00 AM 14.69 58.442 0.827 7.91 109.46 8.56
5/4/2021 9:30:00 AM 14.72 58.496 0.836 7.93 107.59 8.76
5/4/2021 9:45:00 AM 14.76 58.568 0.844 7.95 105.71 8.92
5/4/2021 10:00:00 AM 14.82 58.676 0.848 7.97 112.81 9.17
5/4/2021 10:15:00 AM 14.9 58.82 0.85 7.99 143.72 9.4
5/4/2021 10:30:00 AM 15.02 59.036 0.852 8.02 110.81 9.63
5/4/2021 10:45:00 AM 15.18 59.324 0.855 8.04 115.13 9.87
5/4/2021 11:00:00 AM 15.38 59.684 0.861 8.06 106.88 9.99
5/4/2021 11:15:00 AM 15.62 60.116 0.871 8.08 134.66 10.16
5/4/2021 11:30:00 AM 15.86 60.548 0.885 8.1 118.31 10.3
5/4/2021 11:45:00 AM 16.11 60.998 0.903 8.11 125.5 10.4
5/4/2021 12:00:00 PM 16.39 61.502 0.925 8.13 116.63 10.52
5/4/2021 12:15:00 PM 16.66 61.988 0.948 8.14 169.09 10.6
5/4/2021 12:30:00 PM 16.97 62.546 0.968 8.15 144.29 10.67
5/4/2021 12:45:00 PM 17.27 63.086 0.981 8.16 123.89 10.73
5/4/2021 1:00:00 PM 17.42 63.356 0.988 8.15 131.73 10.49
5/4/2021 1:15:00 PM 17.59 63.662 0.991 8.15 115.44 10.38
5/4/2021 1:30:00 PM 17.79 64.022 0.99 8.17 120.72 10.49
5/4/2021 1:45:00 PM 17.89 64.202 0.987 8.17 143.01 10.42
5/4/2021 2:00:00 PM 18.09 64.562 0.982 8.18 108.75 10.45
5/4/2021 2:15:00 PM 18.34 65.012 0.976 8.2 122.94 10.6
5/4/2021 2:30:00 PM 18.6 65.48 0.97 8.22 129.54 10.75
5/4/2021 2:45:00 PM 18.83 65.894 0.966 8.23 124.45 10.78
5/4/2021 3:00:00 PM 19.03 66.254 0.964 8.24 158.78 10.69
5/4/2021 3:15:00 PM 19.26 66.668 0.962 8.24 124.87 10.66
5/4/2021 3:30:00 PM 19.41 66.938 0.959 8.24 136.02 10.53
5/4/2021 3:45:00 PM 19.47 67.046 0.954 8.22 124.48 10.15
5/4/2021 4:00:00 PM 19.63 67.334 0.946 8.21 117.64 10.08
5/4/2021 4:15:00 PM 19.73 67.514 0.939 8.22 114.78 10.15
5/4/2021 4:30:00 PM 19.78 67.604 0.934 8.21 138.38 10.03
5/4/2021 4:45:00 PM 19.82 67.676 0.931 8.21 118.85 9.83
5/4/2021 5:00:00 PM 19.86 67.748 0.929 8.2 112.76 9.74
5/4/2021 5:15:00 PM 19.82 67.676 0.927 8.19 144.19 9.53
5/4/2021 5:30:00 PM 19.8 67.64 0.924 8.18 117.07 9.37
5/4/2021 5:45:00 PM 19.77 67.586 0.921 8.17 115.59 9.22
5/4/2021 6:00:00 PM 19.68 67.424 0.92 8.16 119.44 9.14
5/4/2021 6:15:00 PM 19.6 67.28 0.918 8.14 118.34 8.95
5/4/2021 6:30:00 PM 19.54 67.172 0.917 8.13 115.77 8.74
5/4/2021 6:45:00 PM 19.49 67.082 0.916 8.11 123.42 8.62
5/4/2021 7:00:00 PM 19.41 66.938 0.915 8.1 119.27 8.49
5/4/2021 7:15:00 PM 19.31 66.758 0.916 8.08 127.9 8.33
5/4/2021 7:30:00 PM 19.21 66.578 0.918 8.07 117.3 8.27
5/4/2021 7:45:00 PM 19.11 66.398 0.919 8.05 118.53 8.15
5/4/2021 8:00:00 PM 19.01 66.218 0.919 8.04 114.86 8.03
5/4/2021 8:15:00 PM 18.92 66.056 0.919 8.02 108.93 7.91
5/4/2021 8:30:00 PM 18.82 65.876 0.919 8.01 135.2 7.82
5/4/2021 8:45:00 PM 18.72 65.696 0.921 8 113.68 7.73
5/4/2021 9:00:00 PM 18.61 65.498 0.923 7.99 118.43 7.64
5/4/2021 9:15:00 PM 18.5 65.3 0.925 7.98 119.15 7.58
5/4/2021 9:30:00 PM 18.38 65.084 0.929 7.97 115.92 7.53
5/4/2021 9:45:00 PM 18.26 64.868 0.934 7.96 125.86 7.46
5/4/2021 10:00:00 PM 18.14 64.652 0.94 7.95 123.19 7.39
5/4/2021 10:15:00 PM 18.01 64.418 0.945 7.94 117.92 7.34
5/4/2021 10:30:00 PM 17.88 64.184 0.949 7.93 119.05 7.28
5/4/2021 10:45:00 PM 17.75 63.95 0.951 7.92 117.16 7.23
5/4/2021 11:00:00 PM 17.62 63.716 0.957 7.91 116.62 7.21
5/4/2021 11:15:00 PM 17.5 63.5 0.96 7.91 121.44 7.18
5/4/2021 11:30:00 PM 17.38 63.284 0.964 7.9 115.68 7.18
5/4/2021 11:45:00 PM 17.26 63.068 0.967 7.89 118.58 7.15
5/5/2021 12:00:00 AM 17.14 62.852 0.971 7.89 121.54 7.16
5/5/2021 12:15:00 AM 17.04 62.672 0.971 7.89 117.46 7.13
5/5/2021 12:30:00 AM 16.94 62.492 0.972 7.89 120.76 7.14
5/5/2021 12:45:00 AM 16.85 62.33 0.975 7.88 121.42 7.12
5/5/2021 1:00:00 AM 16.76 62.168 0.979 7.88 125.21 7.13
5/5/2021 1:15:00 AM 16.68 62.024 0.982 7.88 123.73 7.16
5/5/2021 1:30:00 AM 16.6 61.88 0.984 7.88 123.04 7.15
5/5/2021 1:45:00 AM 16.52 61.736 0.986 7.88 134.1 7.17
5/5/2021 2:00:00 AM 16.45 61.61 0.986 7.88 125.38 7.19
5/5/2021 2:15:00 AM 16.37 61.466 0.986 7.87 127.07 7.2
5/5/2021 2:30:00 AM 16.3 61.34 0.987 7.87 130.19 7.21
5/5/2021 2:45:00 AM 16.23 61.214 0.985 7.87 124.79 7.23
5/5/2021 3:00:00 AM 16.16 61.088 0.981 7.87 125.62 7.25
5/5/2021 3:15:00 AM 16.08 60.944 0.975 7.87 132.05 7.26
5/5/2021 3:30:00 AM 16.01 60.818 0.968 7.87 116.69 7.27
5/5/2021 3:45:00 AM 15.94 60.692 0.961 7.88 121.93 7.3
5/5/2021 4:00:00 AM 15.87 60.566 0.954 7.88 120.32 7.33
5/5/2021 4:15:00 AM 15.81 60.458 0.947 7.88 124.28 7.36
5/5/2021 4:30:00 AM 15.74 60.332 0.939 7.88 157.12 7.38
5/5/2021 4:45:00 AM 15.68 60.224 0.931 7.88 120.39 7.4
5/5/2021 5:00:00 AM 15.62 60.116 0.922 7.88 120.67 7.43
5/5/2021 5:15:00 AM 15.56 60.008 0.913 7.88 125.68 7.46
5/5/2021 5:30:00 AM 15.5 59.9 0.903 7.89 125.76 7.47
5/5/2021 5:45:00 AM 15.45 59.81 0.896 7.89 127.47 7.5
5/5/2021 6:00:00 AM 15.39 59.702 0.889 7.89 129.31 7.51
5/5/2021 6:15:00 AM 15.33 59.594 0.882 7.89 128.6 7.56
5/5/2021 6:30:00 AM 15.27 59.486 0.876 7.89 127.14 7.61
5/5/2021 6:45:00 AM 15.22 59.396 0.87 7.9 128.38 7.67
5/5/2021 7:00:00 AM 15.18 59.324 0.864 7.9 125.45 7.72
5/5/2021 7:15:00 AM 15.14 59.252 0.859 7.9 125.58 7.78
5/5/2021 7:30:00 AM 15.11 59.198 0.854 7.91 124.88 7.83
5/5/2021 7:45:00 AM 15.08 59.144 0.849 7.91 125.68 7.91
5/5/2021 8:00:00 AM 15.06 59.108 0.848 7.91 127.48 7.95
5/5/2021 8:15:00 AM 15.04 59.072 0.847 7.91 121.58 7.95
5/5/2021 8:30:00 AM 15.03 59.054 0.846 7.92 122.43 8.03
5/5/2021 8:45:00 AM 15.02 59.036 0.847 7.92 130.21 8.07
5/5/2021 9:00:00 AM 15.02 59.036 0.849 7.92 123.5 8.12
5/5/2021 9:15:00 AM 15.04 59.072 0.851 7.93 135.91 8.17
5/5/2021 9:30:00 AM 15.06 59.108 0.852 7.93 130.46 8.26
5/5/2021 9:45:00 AM 15.09 59.162 0.853 7.94 130.15 8.41
5/5/2021 10:00:00 AM 15.12 59.216 0.851 7.95 130.38 8.53
5/5/2021 10:15:00 AM 15.16 59.288 0.849 7.96 133.8 8.66
5/5/2021 10:30:00 AM 15.21 59.378 0.847 7.97 126.89 8.75
5/5/2021 10:45:00 AM 15.24 59.432 0.847 7.97 125.9 8.7
5/5/2021 11:00:00 AM 15.29 59.522 0.851 7.97 130.84 8.7
5/5/2021 11:15:00 AM 15.33 59.594 0.86 7.96 133.81 8.61
5/5/2021 11:30:00 AM 15.42 59.756 0.873 7.98 131.69 8.84
5/5/2021 11:45:00 AM 15.54 59.972 0.892 7.99 128.2 9.14
5/5/2021 12:00:00 PM 15.7 60.26 0.91 8.01 126.08 9.35
5/5/2021 12:15:00 PM 15.92 60.656 0.921 8.03 125.5 9.58
5/5/2021 12:30:00 PM 16.16 61.088 0.921 8.05 144.62 9.79
5/5/2021 12:45:00 PM 16.37 61.466 0.915 8.06 128.6 9.84
5/5/2021 1:00:00 PM 16.55 61.79 0.905 8.07 126.36 9.83
5/5/2021 1:15:00 PM 16.78 62.204 0.897 8.07 120.49 9.89
5/5/2021 1:30:00 PM 17.02 62.636 0.888 8.08 124.19 10.05
5/5/2021 1:45:00 PM 17.19 62.942 0.88 8.06 128.47 9.89
5/5/2021 2:00:00 PM 17.38 63.284 0.872 8.05 127.76 9.79
5/5/2021 2:15:00 PM 17.45 63.41 0.865 8.02 130.52 9.54
5/5/2021 2:30:00 PM 17.5 63.5 0.86 8.01 124.69 9.38
5/5/2021 2:45:00 PM 17.57 63.626 0.852 8 136.73 9.3
5/5/2021 3:00:00 PM 17.74 63.932 0.847 8.02 127.21 9.53
5/5/2021 3:15:00 PM 17.96 64.328 0.848 8.03 124.98 9.64
5/5/2021 3:30:00 PM 18.11 64.598 0.834 8.02 125.19 9.51
5/5/2021 3:45:00 PM 18.25 64.85 0.847 8.02 120.37 9.4
5/5/2021 4:00:00 PM 18.38 65.084 0.842 8.03 122.81 9.47
5/5/2021 4:15:00 PM 18.39 65.102 0.837 8.02 120.8 9.27
5/5/2021 4:30:00 PM 18.4 65.12 0.831 8 119.13 9.08
5/5/2021 4:45:00 PM 18.35 65.03 0.83 7.98 103.26 8.79
5/5/2021 5:00:00 PM 18.28 64.904 0.833 7.96 115.51 8.65
5/5/2021 5:15:00 PM 18.25 64.85 0.836 7.96 123.81 8.6
5/5/2021 5:30:00 PM 18.25 64.85 0.842 7.95 113.62 8.54
5/5/2021 5:45:00 PM 18.24 64.832 0.848 7.95 112.65 8.51
5/5/2021 6:00:00 PM 18.21 64.778 0.852 7.94 109.5 8.37
5/5/2021 6:15:00 PM 18.16 64.688 0.854 7.93 114.7 8.24
5/5/2021 6:30:00 PM 18.13 64.634 0.852 7.93 115.07 8.24
5/5/2021 6:45:00 PM 18.06 64.508 0.843 7.92 114.74 8.16
5/5/2021 7:00:00 PM 17.99 64.382 0.83 7.92 108.51 8.04
5/5/2021 7:15:00 PM 17.89 64.202 0.818 7.91 108.98 7.96
5/5/2021 7:30:00 PM 17.74 63.932 0.81 7.91 115.34 7.87
5/5/2021 7:45:00 PM 17.58 63.644 0.805 7.9 113.18 7.81
5/5/2021 8:00:00 PM 17.42 63.356 0.803 7.9 114.19 7.76
5/5/2021 8:15:00 PM 17.27 63.086 0.801 7.89 111.06 7.69
5/5/2021 8:30:00 PM 17.14 62.852 0.797 7.88 110.96 7.62
5/5/2021 8:45:00 PM 17.04 62.672 0.795 7.87 105.24 7.54
5/5/2021 9:00:00 PM 16.96 62.528 0.792 7.86 108.65 7.44
5/5/2021 9:15:00 PM 16.9 62.42 0.792 7.85 109.4 7.34
5/5/2021 9:30:00 PM 16.84 62.312 0.795 7.84 108.83 7.27
5/5/2021 9:45:00 PM 16.78 62.204 0.8 7.83 111.54 7.28
5/5/2021 10:00:00 PM 16.7 62.06 0.811 7.83 109.21 7.25
5/5/2021 10:15:00 PM 16.59 61.862 0.821 7.83 107.24 7.25
5/5/2021 10:30:00 PM 16.46 61.628 0.831 7.83 106.68 7.27
5/5/2021 10:45:00 PM 16.31 61.358 0.841 7.83 101.75 7.3
5/5/2021 11:00:00 PM 16.17 61.106 0.853 7.83 97.66 7.31
5/5/2021 11:15:00 PM 16.02 60.836 0.866 7.84 101.62 7.35
5/5/2021 11:30:00 PM 15.88 60.584 0.881 7.85 101.88 7.38
5/5/2021 11:45:00 PM 15.73 60.314 0.894 7.85 92.46 7.41
5/6/2021 12:00:00 AM 15.6 60.08 0.905 7.86 84.13 7.46
5/6/2021 12:15:00 AM 15.47 59.846 0.913 7.86 100.28 7.5
5/6/2021 12:30:00 AM 15.34 59.612 0.92 7.87 82.89 7.54
5/6/2021 12:45:00 AM 15.24 59.432 0.926 7.87 88.72 7.58
5/6/2021 1:00:00 AM 15.13 59.234 0.931 7.88 88 7.61
5/6/2021 1:15:00 AM 15.04 59.072 0.936 7.88 86.99 7.63
5/6/2021 1:30:00 AM 14.95 58.91 0.942 7.89 98.41 7.65
5/6/2021 1:45:00 AM 14.86 58.748 0.944 7.89 107.02 7.7
5/6/2021 2:00:00 AM 14.76 58.568 0.947 7.89 87.91 7.72
5/6/2021 2:15:00 AM 14.66 58.388 0.949 7.9 89.72 7.74
5/6/2021 2:30:00 AM 14.56 58.208 0.95 7.9 91.48 7.77
5/6/2021 2:45:00 AM 14.47 58.046 0.949 7.9 89.39 7.8
5/6/2021 3:00:00 AM 14.37 57.866 0.947 7.91 122.22 7.84
5/6/2021 3:15:00 AM 14.28 57.704 0.944 7.91 84.43 7.87
5/6/2021 3:30:00 AM 14.2 57.56 0.941 7.91 90.2 7.9
5/6/2021 3:45:00 AM 14.11 57.398 0.937 7.92 88.98 7.92
5/6/2021 4:00:00 AM 14.04 57.272 0.932 7.92 88.68 7.95
5/6/2021 4:15:00 AM 13.95 57.11 0.926 7.92 87 7.99
5/6/2021 4:30:00 AM 13.85 56.93 0.919 7.93 88.19 8.02
5/6/2021 4:45:00 AM 13.76 56.768 0.912 7.93 89.82 8.05
5/6/2021 5:00:00 AM 13.66 56.588 0.905 7.93 90.24 8.1
5/6/2021 5:15:00 AM 13.57 56.426 0.898 7.94 89.58 8.13
5/6/2021 5:30:00 AM 13.48 56.264 0.892 7.94 86.42 8.16
5/6/2021 5:45:00 AM 13.39 56.102 0.885 7.95 114.74 8.21
5/6/2021 6:00:00 AM 13.3 55.94 0.879 7.95 88.64 8.24
5/6/2021 6:15:00 AM 13.22 55.796 0.872 7.95 90.02 8.29
5/6/2021 6:30:00 AM 13.15 55.67 0.868 7.96 87.27 8.35
5/6/2021 6:45:00 AM 13.09 55.562 0.863 7.96 87.5 8.43
5/6/2021 7:00:00 AM 13.05 55.49 0.86 7.97 88.67 8.55
5/6/2021 7:15:00 AM 13.01 55.418 0.859 7.98 88.27 8.64
5/6/2021 7:30:00 AM 12.98 55.364 0.858 7.98 88.74 8.69
5/6/2021 7:45:00 AM 12.97 55.346 0.859 8 115.89 8.84
5/6/2021 8:00:00 AM 12.95 55.31 0.861 8 87.74 8.9
5/6/2021 8:15:00 AM 12.96 55.328 0.861 8.01 88.13 8.99
5/6/2021 8:30:00 AM 12.98 55.364 0.862 8.02 89.41 9.12
5/6/2021 8:45:00 AM 13.01 55.418 0.862 8.03 87.56 9.23
5/6/2021 9:00:00 AM 13.07 55.526 0.865 8.04 88.63 9.4
5/6/2021 9:15:00 AM 13.14 55.652 0.87 8.05 87.48 9.56
5/6/2021 9:30:00 AM 13.21 55.778 0.873 8.06 90.29 9.65
5/6/2021 9:45:00 AM 13.3 55.94 0.874 8.07 85.99 9.76
5/6/2021 10:00:00 AM 13.39 56.102 0.873 8.08 89.74 9.88
5/6/2021 10:15:00 AM 13.52 56.336 0.873 8.1 89.89 10.11
5/6/2021 10:30:00 AM 13.67 56.606 0.872 8.12 91.44 10.27
5/6/2021 10:45:00 AM 13.84 56.912 0.873 8.13 91.3 10.4
5/6/2021 11:00:00 AM 13.97 57.146 0.876 8.14 125.16 10.41
5/6/2021 11:15:00 AM 14.19 57.542 0.882 8.16 89.12 10.62
5/6/2021 11:30:00 AM 14.39 57.902 0.893 8.18 88.65 10.78
5/6/2021 11:45:00 AM 14.65 58.37 0.907 8.19 90.33 10.83
5/6/2021 12:00:00 PM 14.97 58.946 0.921 8.2 90.67 10.9
5/6/2021 12:15:00 PM 15.28 59.504 0.936 8.21 95.17 10.97
5/6/2021 12:30:00 PM 15.6 60.08 0.95 8.22 123.82 11.04
5/6/2021 12:45:00 PM 15.93 60.674 0.961 8.23 93.36 11.08
5/6/2021 1:00:00 PM 16.25 61.25 0.971 8.24 94.83 11.12
5/6/2021 1:15:00 PM 16.54 61.772 0.981 8.25 99.65 11.1
5/6/2021 1:30:00 PM 16.87 62.366 0.991 8.26 99.16 11.17
5/6/2021 1:45:00 PM 17.14 62.852 0.999 8.27 96.07 11.21
5/6/2021 2:00:00 PM 17.39 63.302 1.005 8.28 98.84 11.19
5/6/2021 2:15:00 PM 17.64 63.752 1.008 8.28 97.94 11.16
5/6/2021 2:30:00 PM 17.85 64.13 1.009 8.28 98.34 11.09
5/6/2021 2:45:00 PM 17.99 64.382 1.008 8.28 97.58 10.98
5/6/2021 3:00:00 PM 18.13 64.634 1.007 8.28 100.63 10.93
5/6/2021 3:15:00 PM 18.2 64.76 1.003 8.28 124.34 10.85
5/6/2021 3:30:00 PM 18.28 64.904 1.001 8.28 94.71 10.79
5/6/2021 3:45:00 PM 18.35 65.03 0.997 8.28 89.95 10.69
5/6/2021 4:00:00 PM 18.39 65.102 0.992 8.28 85.7 10.58
5/6/2021 4:15:00 PM 18.41 65.138 0.987 8.27 92.59 10.47
5/6/2021 4:30:00 PM 18.42 65.156 0.982 8.27 88.44 10.42
5/6/2021 4:45:00 PM 18.39 65.102 0.977 8.27 88.77 10.33
5/6/2021 5:00:00 PM 18.33 64.994 0.974 8.26 87.78 10.19
5/6/2021 5:15:00 PM 18.25 64.85 0.972 8.25 90.05 10.08
5/6/2021 5:30:00 PM 18.16 64.688 0.971 8.24 84.55 9.96
5/6/2021 5:45:00 PM 18.05 64.49 0.971 8.23 80.63 9.84
5/6/2021 6:00:00 PM 17.98 64.364 0.972 8.22 80.86 9.79
5/6/2021 6:15:00 PM 17.9 64.22 0.974 8.22 81.81 9.64
5/6/2021 6:30:00 PM 17.82 64.076 0.975 8.2 82.85 9.48
5/6/2021 6:45:00 PM 17.74 63.932 0.975 8.19 83.17 9.37
5/6/2021 7:00:00 PM 17.65 63.77 0.974 8.18 84.07 9.29
5/6/2021 7:15:00 PM 17.55 63.59 0.97 8.16 84.78 9.15
5/6/2021 7:30:00 PM 17.43 63.374 0.966 8.15 80.64 9
5/6/2021 7:45:00 PM 17.3 63.14 0.961 8.13 84.99 8.87
5/6/2021 8:00:00 PM 17.18 62.924 0.957 8.12 86.04 8.74
5/6/2021 8:15:00 PM 17.03 62.654 0.951 8.1 85.85 8.62
5/6/2021 8:30:00 PM 16.88 62.384 0.949 8.09 81.1 8.52
5/6/2021 8:45:00 PM 16.72 62.096 0.947 8.08 80.21 8.43
5/6/2021 9:00:00 PM 16.57 61.826 0.948 8.06 83.06 8.35
5/6/2021 9:15:00 PM 16.43 61.574 0.949 8.05 79.35 8.29
5/6/2021 9:30:00 PM 16.28 61.304 0.947 8.04 82.71 8.22
5/6/2021 9:45:00 PM 16.15 61.07 0.948 8.03 83.13 8.19
5/6/2021 10:00:00 PM 16 60.8 0.951 8.02 80.28 8.14
5/6/2021 10:15:00 PM 15.87 60.566 0.953 8.01 81.73 8.06
5/6/2021 10:30:00 PM 15.73 60.314 0.957 8 90.56 8.03
5/6/2021 10:45:00 PM 15.6 60.08 0.959 7.99 83.24 7.98
5/6/2021 11:00:00 PM 15.47 59.846 0.965 7.98 83.78 7.92
5/6/2021 11:15:00 PM 15.35 59.63 0.97 7.97 83.78 7.9
5/6/2021 11:30:00 PM 15.23 59.414 0.973 7.97 85.34 7.87
5/6/2021 11:45:00 PM 15.11 59.198 0.975 7.96 84.74 7.86
5/7/2021 12:00:00 AM 15 59 0.976 7.96 88.08 7.85
5/7/2021 12:15:00 AM 14.89 58.802 0.978 7.95 86.66 7.85
5/7/2021 12:30:00 AM 14.78 58.604 0.98 7.95 88.59 7.83
5/7/2021 12:45:00 AM 14.67 58.406 0.982 7.95 93 7.84
5/7/2021 1:00:00 AM 14.57 58.226 0.984 7.94 90.33 7.83
5/7/2021 1:15:00 AM 14.47 58.046 0.986 7.94 90.45 7.86
5/7/2021 1:30:00 AM 14.37 57.866 0.987 7.94 91.83 7.86
5/7/2021 1:45:00 AM 14.28 57.704 0.989 7.94 87.45 7.87
5/7/2021 2:00:00 AM 14.19 57.542 0.989 7.94 89.05 7.88
5/7/2021 2:15:00 AM 14.1 57.38 0.988 7.94 88.12 7.91
5/7/2021 2:30:00 AM 14.02 57.236 0.985 7.94 91.79 7.92
5/7/2021 2:45:00 AM 13.93 57.074 0.982 7.94 85.96 7.94
5/7/2021 3:00:00 AM 13.85 56.93 0.98 7.94 88.01 7.97
5/7/2021 3:15:00 AM 13.77 56.786 0.978 7.94 84.77 7.99
5/7/2021 3:30:00 AM 13.69 56.642 0.976 7.94 84.08 8.01
5/7/2021 3:45:00 AM 13.61 56.498 0.971 7.94 83.64 8.02
5/7/2021 4:00:00 AM 13.52 56.336 0.965 7.94 84.18 8.05
5/7/2021 4:15:00 AM 13.43 56.174 0.957 7.94 82.79 8.08
5/7/2021 4:30:00 AM 13.34 56.012 0.95 7.95 80.81 8.12
5/7/2021 4:45:00 AM 13.25 55.85 0.942 7.95 86.53 8.14
5/7/2021 5:00:00 AM 13.15 55.67 0.935 7.95 81.33 8.18
5/7/2021 5:15:00 AM 13.06 55.508 0.927 7.95 81.45 8.21
5/7/2021 5:30:00 AM 12.98 55.364 0.917 7.96 80.55 8.22
5/7/2021 5:45:00 AM 12.89 55.202 0.911 7.96 82.5 8.28
5/7/2021 6:00:00 AM 12.81 55.058 0.902 7.96 83.38 8.32
5/7/2021 6:15:00 AM 12.73 54.914 0.895 7.96 93.79 8.36
5/7/2021 6:30:00 AM 12.66 54.788 0.889 7.97 92.39 8.43
5/7/2021 6:45:00 AM 12.59 54.662 0.884 7.97 83.41 8.49
5/7/2021 7:00:00 AM 12.53 54.554 0.878 7.98 87.46 8.57
5/7/2021 7:15:00 AM 12.48 54.464 0.873 7.99 85.1 8.65
5/7/2021 7:30:00 AM 12.44 54.392 0.869 7.99 87.1 8.74
5/7/2021 7:45:00 AM 12.41 54.338 0.866 8 86.68 8.8
5/7/2021 8:00:00 AM 12.41 54.338 0.864 8.01 86.91 8.94
5/7/2021 8:15:00 AM 12.44 54.392 0.863 8.02 85.02 9.12
5/7/2021 8:30:00 AM 12.51 54.518 0.863 8.04 84.18 9.36
5/7/2021 8:45:00 AM 12.54 54.572 0.864 8.05 83.57 9.43
5/7/2021 9:00:00 AM 12.6 54.68 0.865 8.05 85.3 9.46
5/7/2021 9:15:00 AM 12.66 54.788 0.866 8.07 82.1 9.61
5/7/2021 9:30:00 AM 12.73 54.914 0.87 8.08 84.59 9.76
5/7/2021 9:45:00 AM 12.87 55.166 0.875 8.09 86.21 9.94
5/7/2021 10:00:00 AM 13.02 55.436 0.881 8.11 82.82 10.13
5/7/2021 10:15:00 AM 13.18 55.724 0.888 8.12 87.84 10.26
5/7/2021 10:30:00 AM 13.34 56.012 0.891 8.14 84.35 10.42
5/7/2021 10:45:00 AM 13.47 56.246 0.893 8.15 87.93 10.52
5/7/2021 11:00:00 AM 13.62 56.516 0.892 8.17 86.45 10.6
5/7/2021 11:15:00 AM 13.8 56.84 0.892 8.19 90.41 10.78
5/7/2021 11:30:00 AM 13.92 57.056 0.896 8.2 95.71 10.85
5/7/2021 11:45:00 AM 14.11 57.398 0.905 8.21 98.03 10.9
5/7/2021 12:00:00 PM 14.31 57.758 0.919 8.22 102.92 10.95
5/7/2021 12:15:00 PM 14.48 58.064 0.935 8.22 104.93 10.95
5/7/2021 12:30:00 PM 14.64 58.352 0.947 8.23 105.22 10.94
5/7/2021 12:45:00 PM 14.8 58.64 0.959 8.23 109.87 10.91
5/7/2021 1:00:00 PM 14.99 58.982 0.966 8.25 99.94 11.01
5/7/2021 1:15:00 PM 15.16 59.288 0.971 8.26 98.08 11.06
5/7/2021 1:30:00 PM 15.31 59.558 0.972 8.26 92.03 11.03
5/7/2021 1:45:00 PM 15.43 59.774 0.971 8.26 103.79 10.86
5/7/2021 2:00:00 PM 15.53 59.954 0.969 8.26 103.87 10.79
5/7/2021 2:15:00 PM 15.61 60.098 0.968 8.26 104.79 10.81
5/7/2021 2:30:00 PM 15.69 60.242 0.967 8.27 97.32 10.85
5/7/2021 2:45:00 PM 15.75 60.35 0.966 8.28 100.49 10.81
5/7/2021 3:00:00 PM 15.79 60.422 0.963 8.27 104.75 10.61
5/7/2021 3:15:00 PM 15.83 60.494 0.961 8.25 100.05 10.36
5/7/2021 3:30:00 PM 15.82 60.476 0.959 8.23 99.41 10.14
5/7/2021 3:45:00 PM 15.79 60.422 0.958 8.22 109.6 9.94
5/7/2021 4:00:00 PM 15.74 60.332 0.959 8.2 102.81 9.8
5/7/2021 4:15:00 PM 15.72 60.296 0.958 8.2 105.81 9.77
5/7/2021 4:30:00 PM 15.71 60.278 0.957 8.2 100.09 9.84
5/7/2021 4:45:00 PM 15.72 60.296 0.956 8.21 102.21 9.94
5/7/2021 5:00:00 PM 15.74 60.332 0.955 8.21 101.35 9.93
5/7/2021 5:15:00 PM 15.72 60.296 0.955 8.2 104.1 9.77
5/7/2021 5:30:00 PM 15.7 60.26 0.953 8.18 103.32 9.61
5/7/2021 5:45:00 PM 15.66 60.188 0.95 8.17 103.54 9.54
5/7/2021 6:00:00 PM 15.61 60.098 0.948 8.16 104.13 9.42
5/7/2021 6:15:00 PM 15.56 60.008 0.945 8.15 104.25 9.28
5/7/2021 6:30:00 PM 15.51 59.918 0.945 8.14 105.95 9.18
5/7/2021 6:45:00 PM 15.45 59.81 0.945 8.13 107.17 9.13
5/7/2021 7:00:00 PM 15.39 59.702 0.945 8.12 110.39 9.06
5/7/2021 7:15:00 PM 15.31 59.558 0.944 8.11 102.97 8.95
5/7/2021 7:30:00 PM 15.23 59.414 0.943 8.09 108.07 8.86
5/7/2021 7:45:00 PM 15.15 59.27 0.94 8.08 95.62 8.78
5/7/2021 8:00:00 PM 15.06 59.108 0.936 8.07 96.16 8.68
5/7/2021 8:15:00 PM 14.98 58.964 0.932 8.06 99.23 8.62
5/7/2021 8:30:00 PM 14.9 58.82 0.93 8.05 95.59 8.57
5/7/2021 8:45:00 PM 14.83 58.694 0.929 8.05 99.2 8.53
5/7/2021 9:00:00 PM 14.75 58.55 0.931 8.04 98.88 8.48
5/7/2021 9:15:00 PM 14.66 58.388 0.93 8.03 98.07 8.44
5/7/2021 9:30:00 PM 14.58 58.244 0.932 8.03 96.25 8.41
5/7/2021 9:45:00 PM 14.5 58.1 0.934 8.02 100.31 8.38
5/7/2021 10:00:00 PM 14.43 57.974 0.936 8.01 99.34 8.34
5/7/2021 10:15:00 PM 14.36 57.848 0.895 8.01 100.55 8.32
5/7/2021 10:30:00 PM 14.28 57.704 0.94 8 97.67 8.27
5/7/2021 10:45:00 PM 14.21 57.578 0.885 8 105.15 8.25
5/7/2021 11:00:00 PM 14.15 57.47 0.93 7.99 93.39 8.21
5/7/2021 11:15:00 PM 14.09 57.362 0.949 7.99 97.76 8.19
5/7/2021 11:30:00 PM 14.02 57.236 0.951 7.98 100.89 8.18
5/7/2021 11:45:00 PM 13.96 57.128 0.892 7.98 108.65 8.17
5/8/2021 12:00:00 AM 13.9 57.02 0.955 7.98 92.98 8.15
5/8/2021 12:15:00 AM 13.85 56.93 0.956 7.97 92.59 8.14
5/8/2021 12:30:00 AM 13.79 56.822 0.958 7.97 98.16 8.13
5/8/2021 12:45:00 AM 13.74 56.732 0.749 7.97 93.9 8.14
5/8/2021 1:00:00 AM 13.7 56.66 0.961 7.96 97.85 8.14
5/8/2021 1:15:00 AM 13.64 56.552 0.96 7.96 97.42 8.13
5/8/2021 1:30:00 AM 13.59 56.462 0.91 7.96 94.2 8.15
5/8/2021 1:45:00 AM 13.53 56.354 0.961 7.96 98.61 8.15
5/8/2021 2:00:00 AM 13.48 56.264 0.962 7.96 108.18 8.16
5/8/2021 2:15:00 AM 13.42 56.156 0.963 7.96 97.72 8.15
5/8/2021 2:30:00 AM 13.36 56.048 0.962 7.96 96.06 8.16
5/8/2021 2:45:00 AM 13.3 55.94 0.96 7.96 99.06 8.2
5/8/2021 3:00:00 AM 13.23 55.814 0.957 7.96 110.32 8.19
5/8/2021 3:15:00 AM 13.17 55.706 0.954 7.96 95.32 8.21
5/8/2021 3:30:00 AM 13.11 55.598 0.95 7.96 111.03 8.22
5/8/2021 3:45:00 AM 13.04 55.472 0.946 7.96 108.36 8.24
5/8/2021 4:00:00 AM 12.98 55.364 0.941 7.96 94.75 8.27
5/8/2021 4:15:00 AM 12.91 55.238 0.936 7.96 100.83 8.29
5/8/2021 4:30:00 AM 12.85 55.13 0.931 7.96 98.29 8.3
5/8/2021 4:45:00 AM 12.78 55.004 0.926 7.96 99.16 8.3
5/8/2021 5:00:00 AM 12.71 54.878 0.921 7.96 109.62 8.34
5/8/2021 5:15:00 AM 12.64 54.752 0.915 7.96 95.86 8.36
5/8/2021 5:30:00 AM 12.57 54.626 0.908 7.96 104.58 8.39
5/8/2021 5:45:00 AM 12.49 54.482 0.901 7.96 95 8.4
5/8/2021 6:00:00 AM 12.42 54.356 0.895 7.96 126.24 8.42
5/8/2021 6:15:00 AM 12.34 54.212 0.889 7.96 101.88 8.45
5/8/2021 6:30:00 AM 12.28 54.104 0.883 7.96 95.79 8.49
5/8/2021 6:45:00 AM 12.23 54.014 0.877 7.97 95.12 8.56
5/8/2021 7:00:00 AM 12.18 53.924 0.871 7.97 124.46 8.63
5/8/2021 7:15:00 AM 12.14 53.852 0.867 7.98 94.18 8.72
5/8/2021 7:30:00 AM 12.11 53.798 0.863 7.98 98.23 8.8
5/8/2021 7:45:00 AM 12.09 53.762 0.862 7.99 91.15 8.9
5/8/2021 8:00:00 AM 12.1 53.78 0.86 8 95.66 9.02
5/8/2021 8:15:00 AM 12.14 53.852 0.861 8.01 93.59 9.18
5/8/2021 8:30:00 AM 12.2 53.96 0.862 8.03 96.14 9.41
5/8/2021 8:45:00 AM 12.26 54.068 0.866 8.04 98.16 9.57
5/8/2021 9:00:00 AM 12.33 54.194 0.872 8.06 105.54 9.74
5/8/2021 9:15:00 AM 12.4 54.32 0.878 8.07 112.73 9.89
5/8/2021 9:30:00 AM 12.45 54.41 0.884 8.08 108.76 9.94
5/8/2021 9:45:00 AM 12.51 54.518 0.889 8.09 90.56 10.05
5/8/2021 10:00:00 AM 12.61 54.698 0.89 8.11 92.64 10.26
5/8/2021 10:15:00 AM 12.7 54.86 0.891 8.12 93.52 10.39
5/8/2021 10:30:00 AM 12.81 55.058 0.891 8.13 96.63 10.47
5/8/2021 10:45:00 AM 12.98 55.364 0.891 8.16 104.51 10.66
5/8/2021 11:00:00 AM 13.11 55.598 0.89 8.17 102.15 10.82
5/8/2021 11:15:00 AM 13.23 55.814 0.891 8.18 95.46 10.85
5/8/2021 11:30:00 AM 13.4 56.12 0.896 8.2 100.35 10.96
5/8/2021 11:45:00 AM 13.49 56.282 0.906 8.21 103.42 10.97
5/8/2021 12:00:00 PM 13.58 56.444 0.918 8.21 101.19 10.96
5/8/2021 12:15:00 PM 13.7 56.66 0.927 8.22 95.84 11.02
5/8/2021 12:30:00 PM 13.81 56.858 0.931 8.23 100.45 11.03
5/8/2021 12:45:00 PM 13.91 57.038 0.931 8.24 117.38 11.06
5/8/2021 1:00:00 PM 14 57.2 0.933 8.24 99.59 11.02
5/8/2021 1:15:00 PM 14.08 57.344 0.938 8.24 104.95 10.94
5/8/2021 1:30:00 PM 14.15 57.47 0.943 8.24 100.53 10.83
5/8/2021 1:45:00 PM 14.2 57.56 0.948 8.23 103.63 10.64
5/8/2021 2:00:00 PM 14.37 57.866 0.952 8.24 96.54 10.84
5/8/2021 2:15:00 PM 14.45 58.01 0.956 8.25 96.12 10.9
5/8/2021 2:30:00 PM 14.6 58.28 0.958 8.25 109.4 10.89
5/8/2021 2:45:00 PM 14.68 58.424 0.961 8.25 100.02 10.86
5/8/2021 3:00:00 PM 14.69 58.442 0.964 8.24 94.92 10.64
5/8/2021 3:15:00 PM 14.7 58.46 0.966 8.23 131.74 10.53
5/8/2021 3:30:00 PM 14.73 58.514 0.968 8.24 95.45 10.62
5/8/2021 3:45:00 PM 14.67 58.406 0.97 8.22 99.72 10.37
5/8/2021 4:00:00 PM 14.65 58.37 0.971 8.21 101.9 10.23
5/8/2021 4:15:00 PM 14.69 58.442 0.972 8.22 100.41 10.34
5/8/2021 4:30:00 PM 14.75 58.55 0.973 8.23 95.78 10.49
5/8/2021 4:45:00 PM 14.78 58.604 0.974 8.23 99.03 10.44
5/8/2021 5:00:00 PM 14.83 58.694 0.974 8.22 123.04 10.33
5/8/2021 5:15:00 PM 14.89 58.802 0.974 8.22 97.29 10.29
5/8/2021 5:30:00 PM 14.9 58.82 0.975 8.22 98.29 10.23
5/8/2021 5:45:00 PM 14.84 58.712 0.976 8.2 108.27 10.03
5/8/2021 6:00:00 PM 14.7 58.46 0.972 8.18 103.18 9.73
5/8/2021 6:15:00 PM 14.55 58.19 0.967 8.16 93.71 9.54
5/8/2021 6:30:00 PM 14.42 57.956 0.961 8.15 95.46 9.52
5/8/2021 6:45:00 PM 14.36 57.848 0.958 8.15 95.25 9.58
5/8/2021 7:00:00 PM 14.34 57.812 0.959 8.14 93.01 9.53
5/8/2021 7:15:00 PM 14.34 57.812 0.96 8.14 96.47 9.47
5/8/2021 7:30:00 PM 14.32 57.776 0.96 8.13 91.14 9.39
5/8/2021 7:45:00 PM 14.28 57.704 0.961 8.12 110.8 9.34
5/8/2021 8:00:00 PM 14.22 57.596 0.961 8.11 92.82 9.25
5/8/2021 8:15:00 PM 14.17 57.506 0.963 8.1 93.3 9.16
5/8/2021 8:30:00 PM 14.12 57.416 0.965 8.09 87.85 9.07
5/8/2021 8:45:00 PM 14.06 57.308 0.965 8.07 100.7 9
5/8/2021 9:00:00 PM 13.98 57.164 0.964 8.06 84.55 8.92
5/8/2021 9:15:00 PM 13.86 56.948 0.963 8.04 100.92 8.86
5/8/2021 9:30:00 PM 13.74 56.732 0.963 8.03 94.18 8.79
5/8/2021 9:45:00 PM 13.64 56.552 0.966 8.02 85.44 8.74
5/8/2021 10:00:00 PM 13.56 56.408 0.968 8.01 91.33 8.71
5/8/2021 10:15:00 PM 13.49 56.282 0.952 8 92.06 8.63
5/8/2021 10:30:00 PM 13.42 56.156 0.929 7.99 88.55 8.59
5/8/2021 10:45:00 PM 13.35 56.03 0.938 7.98 89.18 8.53
5/8/2021 11:00:00 PM 13.27 55.886 0.939 7.97 88.61 8.5
5/8/2021 11:15:00 PM 13.18 55.724 0.927 7.97 92.11 8.48
5/8/2021 11:30:00 PM 13.09 55.562 0.915 7.96 95.06 8.47
5/8/2021 11:45:00 PM 13 55.4 0.904 7.96 117.07 8.44
5/9/2021 12:00:00 AM 12.9 55.22 0.894 7.95 88.18 8.41
5/9/2021 12:15:00 AM 12.82 55.076 0.889 7.94 87.75 8.38
5/9/2021 12:30:00 AM 12.74 54.932 0.89 7.93 93.42 8.35
5/9/2021 12:45:00 AM 12.67 54.806 0.896 7.92 95.83 8.3
5/9/2021 1:00:00 AM 12.61 54.698 0.902 7.9 84.12 8.25
5/9/2021 1:15:00 AM 12.56 54.608 0.904 7.89 88.13 8.19
5/9/2021 1:30:00 AM 12.51 54.518 0.903 7.88 86.3 8.15
5/9/2021 1:45:00 AM 12.47 54.446 0.901 7.86 86.01 8.11
5/9/2021 2:00:00 AM 12.43 54.374 0.897 7.86 90.02 8.08
5/9/2021 2:15:00 AM 12.39 54.302 0.895 7.86 88.74 8.08
5/9/2021 2:30:00 AM 12.34 54.212 0.894 7.85 91.03 8.1
5/9/2021 2:45:00 AM 12.29 54.122 0.894 7.85 101.09 8.12
5/9/2021 3:00:00 AM 12.24 54.032 0.895 7.86 93.14 8.14
5/9/2021 3:15:00 AM 12.19 53.942 0.899 7.86 92.87 8.18
5/9/2021 3:30:00 AM 12.13 53.834 0.903 7.87 91.28 8.22
5/9/2021 3:45:00 AM 12.08 53.744 0.907 7.87 89.31 8.27
5/9/2021 4:00:00 AM 12.04 53.672 0.91 7.88 89.04 8.31
5/9/2021 4:15:00 AM 11.99 53.582 0.913 7.89 85.04 8.35
5/9/2021 4:30:00 AM 11.95 53.51 0.914 7.89 80.86 8.38
5/9/2021 4:45:00 AM 11.9 53.42 0.913 7.9 96.67 8.42
5/9/2021 5:00:00 AM 11.86 53.348 0.908 7.9 88.55 8.48
5/9/2021 5:15:00 AM 11.8 53.24 0.705 7.91 89.94 8.51
5/9/2021 5:30:00 AM 11.75 53.15 0.903 7.92 91.94 8.54
5/9/2021 5:45:00 AM 11.7 53.06 0.9 7.92 88.45 8.56
5/9/2021 6:00:00 AM 11.66 52.988 0.898 7.93 89.93 8.61
5/9/2021 6:15:00 AM 11.62 52.916 0.896 7.94 102.16 8.64
5/9/2021 6:30:00 AM 11.6 52.88 0.894 7.94 88.71 8.71
5/9/2021 6:45:00 AM 11.58 52.844 0.89 7.95 88.49 8.81
5/9/2021 7:00:00 AM 11.57 52.826 0.887 7.96 107.3 8.86
5/9/2021 7:15:00 AM 11.57 52.826 0.884 7.97 87.14 8.98
5/9/2021 7:30:00 AM 11.58 52.844 0.881 7.98 94.81 9.07
5/9/2021 7:45:00 AM 11.59 52.862 0.879 7.99 88.34 9.13
5/9/2021 8:00:00 AM 11.6 52.88 0.875 7.99 88.59 9.21
5/9/2021 8:15:00 AM 11.61 52.898 0.872 8 88.91 9.26
5/9/2021 8:30:00 AM 11.63 52.934 0.869 8.01 86.35 9.36
5/9/2021 8:45:00 AM 11.67 53.006 0.868 8.02 86.11 9.53
5/9/2021 9:00:00 AM 11.71 53.078 0.867 8.04 87.86 9.66
5/9/2021 9:15:00 AM 11.77 53.186 0.868 8.05 89.8 9.82
5/9/2021 9:30:00 AM 11.83 53.294 0.868 8.06 89.96 9.88
5/9/2021 9:45:00 AM 11.88 53.384 0.869 8.06 88.72 9.92
5/9/2021 10:00:00 AM 11.92 53.456 0.867 8.07 89.13 9.93
5/9/2021 10:15:00 AM 11.95 53.51 0.866 8.07 89.71 9.92
5/9/2021 10:30:00 AM 11.99 53.582 0.863 8.08 110.13 9.97
5/9/2021 10:45:00 AM 12.06 53.708 0.858 8.09 90.49 10.14
5/9/2021 11:00:00 AM 12.17 53.906 0.854 8.12 90.33 10.47
5/9/2021 11:15:00 AM 12.25 54.05 0.851 8.14 90.13 10.58
5/9/2021 11:30:00 AM 12.33 54.194 0.85 8.14 90.81 10.51
5/9/2021 11:45:00 AM 12.43 54.374 0.852 8.15 91.09 10.57
5/9/2021 12:00:00 PM 12.51 54.518 0.856 8.16 89.57 10.69
5/9/2021 12:15:00 PM 12.58 54.644 0.864 8.17 89.96 10.66
5/9/2021 12:30:00 PM 12.65 54.77 0.875 8.16 90.24 10.6
5/9/2021 12:45:00 PM 12.73 54.914 0.888 8.16 101.95 10.54
5/9/2021 1:00:00 PM 12.78 55.004 0.902 8.15 90.83 10.36
5/9/2021 1:15:00 PM 12.84 55.112 0.916 8.14 91.09 10.25
5/9/2021 1:30:00 PM 12.92 55.256 0.929 8.14 93.84 10.31
5/9/2021 1:45:00 PM 12.98 55.364 0.941 8.15 92.72 10.34
5/9/2021 2:00:00 PM 13.04 55.472 0.952 8.15 92.74 10.32
5/9/2021 2:15:00 PM 13.14 55.652 0.962 8.16 93.83 10.38
5/9/2021 2:30:00 PM 13.24 55.832 0.971 8.17 94.28 10.54
5/9/2021 2:45:00 PM 13.3 55.94 0.978 8.16 94.94 10.34
5/9/2021 3:00:00 PM 13.36 56.048 0.983 8.15 92.39 10.16
5/9/2021 3:15:00 PM 13.44 56.192 0.986 8.16 94.66 10.35
5/9/2021 3:30:00 PM 13.49 56.282 0.987 8.18 93.75 10.5
5/9/2021 3:45:00 PM 13.54 56.372 0.987 8.18 93.15 10.43
5/9/2021 4:00:00 PM 13.6 56.48 0.987 8.19 95.6 10.5
5/9/2021 4:15:00 PM 13.62 56.516 0.988 8.18 94.64 10.42
5/9/2021 4:30:00 PM 13.63 56.534 0.989 8.17 95.05 10.31
5/9/2021 4:45:00 PM 13.64 56.552 0.992 8.17 94.51 10.25
5/9/2021 5:00:00 PM 13.62 56.516 0.995 8.16 94.58 10.14
5/9/2021 5:15:00 PM 13.6 56.48 0.996 8.15 93.71 10.03
5/9/2021 5:30:00 PM 13.59 56.462 0.995 8.14 93.53 9.92
5/9/2021 5:45:00 PM 13.57 56.426 0.994 8.14 98.14 9.84
5/9/2021 6:00:00 PM 13.56 56.408 0.993 8.13 98.91 9.77
5/9/2021 6:15:00 PM 13.56 56.408 0.993 8.13 95.63 9.7
5/9/2021 6:30:00 PM 13.55 56.39 0.993 8.12 95.13 9.64
5/9/2021 6:45:00 PM 13.53 56.354 0.99 8.12 96.17 9.58
5/9/2021 7:00:00 PM 13.51 56.318 0.99 8.11 94.91 9.47
5/9/2021 7:15:00 PM 13.5 56.3 0.991 8.11 95.66 9.47
5/9/2021 7:30:00 PM 13.49 56.282 0.992 8.1 93.62 9.39
5/9/2021 7:45:00 PM 13.46 56.228 0.992 8.09 98.53 9.32
5/9/2021 8:00:00 PM 13.44 56.192 0.99 8.09 95.92 9.24
5/9/2021 8:15:00 PM 13.41 56.138 0.988 8.08 95.13 9.16
5/9/2021 8:30:00 PM 13.37 56.066 0.986 8.07 95.13 9.06
5/9/2021 8:45:00 PM 13.33 55.994 0.985 8.06 100.32 9
5/9/2021 9:00:00 PM 13.29 55.922 0.984 8.05 98.89 8.93
5/9/2021 9:15:00 PM 13.25 55.85 0.983 8.04 98.71 8.86
5/9/2021 9:30:00 PM 13.21 55.778 0.981 8.03 101.71 8.81
5/9/2021 9:45:00 PM 13.17 55.706 0.981 8.03 99.82 8.76
5/9/2021 10:00:00 PM 13.13 55.634 0.98 8.02 99.1 8.71
5/9/2021 10:15:00 PM 13.09 55.562 0.981 8.01 101.99 8.67
5/9/2021 10:30:00 PM 13.06 55.508 0.982 8.01 99.39 8.64
5/9/2021 10:45:00 PM 13.03 55.454 0.982 8 98.44 8.61
5/9/2021 11:00:00 PM 13 55.4 0.983 8 101.27 8.57
5/9/2021 11:15:00 PM 12.98 55.364 0.983 7.99 110.68 8.54
5/9/2021 11:30:00 PM 12.97 55.346 0.985 7.99 113.13 8.51
5/9/2021 11:45:00 PM 12.95 55.31 0.986 7.99 101.06 8.48
5/10/2021 12:00:00 AM 12.94 55.292 0.987 7.98 110.92 8.46
5/10/2021 12:15:00 AM 12.93 55.274 0.988 7.98 100.83 8.4
5/10/2021 12:30:00 AM 12.92 55.256 0.989 7.98 102.13 8.44
5/10/2021 12:45:00 AM 12.91 55.238 0.991 7.97 100.18 8.42
5/10/2021 1:00:00 AM 12.9 55.22 0.993 7.97 124.07 8.4
5/10/2021 1:15:00 AM 12.9 55.22 0.995 7.97 97.44 8.4
5/10/2021 1:30:00 AM 12.89 55.202 0.996 7.97 99.04 8.39
5/10/2021 1:45:00 AM 12.88 55.184 0.995 7.97 102.02 8.39
5/10/2021 2:00:00 AM 12.87 55.166 0.993 7.97 99.4 8.35
5/10/2021 2:15:00 AM 12.85 55.13 0.989 7.97 102.41 8.34
5/10/2021 2:30:00 AM 12.84 55.112 0.987 7.97 106.54 8.39
5/10/2021 2:45:00 AM 12.83 55.094 0.984 7.97 100.35 8.38
5/10/2021 3:00:00 AM 12.82 55.076 0.982 7.97 104.22 8.39
5/10/2021 3:15:00 AM 12.8 55.04 0.979 7.97 102.1 8.39
5/10/2021 3:30:00 AM 12.79 55.022 0.974 7.97 106.11 8.39
5/10/2021 3:45:00 AM 12.76 54.968 0.968 7.97 106.04 8.41
5/10/2021 4:00:00 AM 12.74 54.932 0.962 7.97 102.49 8.41
5/10/2021 4:15:00 AM 12.72 54.896 0.955 7.97 104.96 8.42
5/10/2021 4:30:00 AM 12.69 54.842 0.948 7.97 103.05 8.42
5/10/2021 4:45:00 AM 12.67 54.806 0.941 7.97 117.33 8.43
5/10/2021 5:00:00 AM 12.64 54.752 0.934 7.97 107.57 8.45
5/10/2021 5:15:00 AM 12.61 54.698 0.926 7.98 108.14 8.47
5/10/2021 5:30:00 AM 12.58 54.644 0.917 7.98 106.93 8.5
5/10/2021 5:45:00 AM 12.54 54.572 0.909 7.98 107.22 8.51
5/10/2021 6:00:00 AM 12.5 54.5 0.902 7.98 109.82 8.54
5/10/2021 6:15:00 AM 12.47 54.446 0.895 7.99 112.37 8.57
5/10/2021 6:30:00 AM 12.44 54.392 0.889 7.99 109.81 8.61
5/10/2021 6:45:00 AM 12.43 54.374 0.881 8 105.46 8.69
5/10/2021 7:00:00 AM 12.41 54.338 0.875 8 104.48 8.77
5/10/2021 7:15:00 AM 12.4 54.32 0.869 8.01 106.52 8.87
5/10/2021 7:30:00 AM 12.39 54.302 0.865 8.02 105.99 8.97
5/10/2021 7:45:00 AM 12.4 54.32 0.861 8.03 103.92 9.1
5/10/2021 8:00:00 AM 12.41 54.338 0.86 8.04 109.28 9.25
5/10/2021 8:15:00 AM 12.42 54.356 0.844 8.05 108.23 9.36
5/10/2021 8:30:00 AM 12.45 54.41 0.771 8.06 103.39 9.45
5/10/2021 8:45:00 AM 12.47 54.446 0.84 8.07 103.79 9.57
5/10/2021 9:00:00 AM 12.52 54.536 0.856 8.09 109.95 9.72
5/10/2021 9:15:00 AM 12.58 54.644 0.857 8.1 100.43 9.89
5/10/2021 9:30:00 AM 12.62 54.716 0.86 8.11 103.39 9.97
5/10/2021 9:45:00 AM 12.7 54.86 0.863 8.12 103.36 10.07
5/10/2021 10:00:00 AM 12.79 55.022 0.864 8.13 110.94 10.22
5/10/2021 10:15:00 AM 12.87 55.166 0.866 8.14 107.81 10.3
5/10/2021 10:30:00 AM 12.97 55.346 0.865 8.15 106.18 10.4
5/10/2021 10:45:00 AM 13.11 55.598 0.865 8.17 112.74 10.65
5/10/2021 11:00:00 AM 13.2 55.76 0.867 8.19 150.29 10.75
5/10/2021 11:15:00 AM 13.37 56.066 0.869 8.2 113.3 10.81
5/10/2021 11:30:00 AM 13.57 56.426 0.876 8.22 104.39 10.98
5/10/2021 11:45:00 AM 13.65 56.57 0.883 8.23 105.71 11.02
5/10/2021 12:00:00 PM 13.82 56.876 0.895 8.24 113.23 11.06
5/10/2021 12:15:00 PM 14.15 57.47 0.909 8.26 107.01 11.26
5/10/2021 12:30:00 PM 14.29 57.722 0.922 8.26 111.63 11.24
5/10/2021 12:45:00 PM 14.45 58.01 0.936 8.26 105.8 11.18
5/10/2021 1:00:00 PM 14.6 58.28 0.946 8.27 105.61 11.2
5/10/2021 1:15:00 PM 14.88 58.784 0.954 8.29 96.36 11.36
5/10/2021 1:30:00 PM 15.06 59.108 0.958 8.3 108.18 11.4
5/10/2021 1:45:00 PM 15.35 59.63 0.961 8.31 105.68 11.49
5/10/2021 2:00:00 PM 15.46 59.828 0.961 8.31 108.37 11.33
5/10/2021 2:15:00 PM 15.64 60.152 0.959 8.32 108.61 11.29
5/10/2021 2:30:00 PM 15.78 60.404 0.957 8.33 107.54 11.33
5/10/2021 2:45:00 PM 15.78 60.404 0.955 8.31 105.29 11.08
5/10/2021 3:00:00 PM 15.89 60.602 0.956 8.31 104.24 11.05
5/10/2021 3:15:00 PM 15.91 60.638 0.958 8.31 105.66 10.93
5/10/2021 3:30:00 PM 15.97 60.746 0.959 8.31 126.79 10.88
5/10/2021 3:45:00 PM 16.15 61.07 0.959 8.32 105.63 11.01
5/10/2021 4:00:00 PM 16.32 61.376 0.959 8.33 103.48 11.02
5/10/2021 4:15:00 PM 16.45 61.61 0.959 8.33 104.31 10.96
5/10/2021 4:30:00 PM 16.52 61.736 0.96 8.32 105.62 10.8
5/10/2021 4:45:00 PM 16.55 61.79 0.961 8.31 102.88 10.65
5/10/2021 5:00:00 PM 16.54 61.772 0.961 8.3 107.83 10.41
5/10/2021 5:15:00 PM 16.59 61.862 0.96 8.3 102.86 10.48
5/10/2021 5:30:00 PM 16.6 61.88 0.954 8.3 104.49 10.48
5/10/2021 5:45:00 PM 16.58 61.844 0.883 8.29 107.66 10.32
5/10/2021 6:00:00 PM 16.56 61.808 0.804 8.27 105.33 10.13
5/10/2021 6:15:00 PM 16.54 61.772 0.767 8.26 105.41 9.96
5/10/2021 6:30:00 PM 16.51 61.718 0.945 8.24 104.34 9.82
5/10/2021 6:45:00 PM 16.44 61.592 0.853 8.23 104.08 9.66
5/10/2021 7:00:00 PM 16.38 61.484 0.904 8.21 107.36 9.55
5/10/2021 7:15:00 PM 16.33 61.394 0.94 8.2 106.6 9.46
5/10/2021 7:30:00 PM 16.28 61.304 0.933 8.19 101.45 9.34
5/10/2021 7:45:00 PM 16.23 61.214 0.93 8.17 101.44 9.19
5/10/2021 8:00:00 PM 16.19 61.142 0.932 8.16 102.37 9.04
5/10/2021 8:15:00 PM 16.13 61.034 0.905 8.14 104.29 8.91
5/10/2021 8:30:00 PM 16.06 60.908 0.935 8.13 101.12 8.79
5/10/2021 8:45:00 PM 15.98 60.764 0.934 8.11 101.51 8.73
5/10/2021 9:00:00 PM 15.88 60.584 0.934 8.1 103.02 8.65
5/10/2021 9:15:00 PM 15.77 60.386 0.934 8.09 102.53 8.58
5/10/2021 9:30:00 PM 15.65 60.17 0.935 8.08 102.62 8.51
5/10/2021 9:45:00 PM 15.53 59.954 0.937 8.07 102.75 8.44
5/10/2021 10:00:00 PM 15.4 59.72 0.939 8.05 103.12 8.39
5/10/2021 10:15:00 PM 15.27 59.486 0.941 8.04 101.98 8.33
5/10/2021 10:30:00 PM 15.14 59.252 0.943 8.03 100.15 8.29
5/10/2021 10:45:00 PM 15 59 0.946 8.02 98.97 8.23
5/10/2021 11:00:00 PM 14.88 58.784 0.95 8.01 100.62 8.2
5/10/2021 11:15:00 PM 14.75 58.55 0.954 8 99.84 8.15
5/10/2021 11:30:00 PM 14.62 58.316 0.959 7.99 111.42 8.09
5/10/2021 11:45:00 PM 14.49 58.082 0.963 7.99 102.57 8.09
5/11/2021 12:00:00 AM 14.37 57.866 0.968 7.98 102.79 8.07
5/11/2021 12:15:00 AM 14.25 57.65 0.972 7.97 103.03 8.08
5/11/2021 12:30:00 AM 14.14 57.452 0.975 7.97 103.22 8.07
5/11/2021 12:45:00 AM 14.04 57.272 0.98 7.96 102.56 8.06
5/11/2021 1:00:00 AM 13.94 57.092 0.984 7.96 103.38 8.06
5/11/2021 1:15:00 AM 13.85 56.93 0.988 7.96 103.76 8
5/11/2021 1:30:00 AM 13.76 56.768 0.991 7.96 101.98 8.1
5/11/2021 1:45:00 AM 13.67 56.606 0.993 7.95 100 8.11
5/11/2021 2:00:00 AM 13.6 56.48 0.995 7.95 100.18 8.12
5/11/2021 2:15:00 AM 13.52 56.336 0.996 7.95 99.08 8.12
5/11/2021 2:30:00 AM 13.45 56.21 0.997 7.95 99.31 8.14
5/11/2021 2:45:00 AM 13.38 56.084 0.996 7.95 100.03 8.16
5/11/2021 3:00:00 AM 13.31 55.958 0.995 7.95 99.85 8.17
5/11/2021 3:15:00 AM 13.23 55.814 0.992 7.95 102 8.16
5/11/2021 3:30:00 AM 13.17 55.706 0.99 7.95 101.93 8.19
5/11/2021 3:45:00 AM 13.1 55.58 0.988 7.95 99.96 8.21
5/11/2021 4:00:00 AM 13.03 55.454 0.985 7.95 100.95 8.25
5/11/2021 4:15:00 AM 12.97 55.346 0.98 7.95 101.33 8.25
5/11/2021 4:30:00 AM 12.92 55.256 0.974 7.95 100.74 8.28
5/11/2021 4:45:00 AM 12.85 55.13 0.967 7.95 99.81 8.31
5/11/2021 5:00:00 AM 12.79 55.022 0.958 7.95 101.41 8.31
5/11/2021 5:15:00 AM 12.74 54.932 0.95 7.96 99.61 8.34
5/11/2021 5:30:00 AM 12.68 54.824 0.94 7.96 101.86 8.37
5/11/2021 5:45:00 AM 12.62 54.716 0.932 7.96 99.2 8.39
5/11/2021 6:00:00 AM 12.56 54.608 0.923 7.96 100.74 8.42
5/11/2021 6:15:00 AM 12.5 54.5 0.915 7.97 100.86 8.48
5/11/2021 6:30:00 AM 12.44 54.392 0.907 7.97 101.67 8.54
5/11/2021 6:45:00 AM 12.4 54.32 0.901 7.98 101.62 8.63
5/11/2021 7:00:00 AM 12.35 54.23 0.894 7.98 101.66 8.7
5/11/2021 7:15:00 AM 12.32 54.176 0.881 7.99 101.26 8.76
5/11/2021 7:30:00 AM 12.29 54.122 0.883 7.99 100.58 8.85
5/11/2021 7:45:00 AM 12.28 54.104 0.878 8 98.58 8.96
5/11/2021 8:00:00 AM 12.28 54.104 0.874 8.01 98.87 9.04
5/11/2021 8:15:00 AM 12.32 54.176 0.871 8.02 98.11 9.2
5/11/2021 8:30:00 AM 12.37 54.266 0.87 8.03 98.45 9.33
5/11/2021 8:45:00 AM 12.44 54.392 0.87 8.05 98.12 9.47
5/11/2021 9:00:00 AM 12.51 54.518 0.871 8.06 99.2 9.6
5/11/2021 9:15:00 AM 12.6 54.68 0.873 8.07 98.56 9.73
5/11/2021 9:30:00 AM 12.71 54.878 0.875 8.08 98.74 9.86
5/11/2021 9:45:00 AM 12.84 55.112 0.877 8.09 99.37 10.01
5/11/2021 10:00:00 AM 12.98 55.364 0.878 8.11 94.98 10.17
5/11/2021 10:15:00 AM 13.12 55.616 0.879 8.12 95.71 10.3
5/11/2021 10:30:00 AM 13.28 55.904 0.879 8.14 97.08 10.45
5/11/2021 10:45:00 AM 13.46 56.228 0.88 8.16 97.41 10.6
5/11/2021 11:00:00 AM 13.64 56.552 0.88 8.17 95.92 10.72
5/11/2021 11:15:00 AM 13.85 56.93 0.883 8.19 96.15 10.86
5/11/2021 11:30:00 AM 14.07 57.326 0.888 8.21 98.86 10.96
5/11/2021 11:45:00 AM 14.33 57.794 0.897 8.22 96.94 11.05
5/11/2021 12:00:00 PM 14.62 58.316 0.91 8.23 99.11 11.13
5/11/2021 12:15:00 PM 14.93 58.874 0.924 8.25 98.83 11.23
5/11/2021 12:30:00 PM 15.25 59.45 0.94 8.26 97.55 11.29
5/11/2021 12:45:00 PM 15.5 59.9 0.955 8.27 98.6 11.3
5/11/2021 1:00:00 PM 15.77 60.386 0.968 8.28 96.34 11.29
5/11/2021 1:15:00 PM 16.09 60.962 0.978 8.29 97.99 11.34
5/11/2021 1:30:00 PM 16.2 61.16 0.984 8.28 98.93 11.06
5/11/2021 1:45:00 PM 16.4 61.52 0.989 8.29 98.08 11.14
5/11/2021 2:00:00 PM 16.54 61.772 0.994 8.3 102.14 11.08
5/11/2021 2:15:00 PM 16.61 61.898 1 8.29 101.67 10.88
5/11/2021 2:30:00 PM 16.71 62.078 1.006 8.29 100.94 10.89
5/11/2021 2:45:00 PM 16.75 62.15 1.01 8.29 101.97 10.77
5/11/2021 3:00:00 PM 16.78 62.204 1.013 8.28 101.98 10.62
5/11/2021 3:15:00 PM 16.82 62.276 1.016 8.28 99.82 10.64
5/11/2021 3:30:00 PM 16.83 62.294 1.018 8.28 100.85 10.54
5/11/2021 3:45:00 PM 16.95 62.51 1.02 8.29 99.86 10.64
5/11/2021 4:00:00 PM 17.04 62.672 1.019 8.3 100.98 10.73
5/11/2021 4:15:00 PM 17.12 62.816 1.018 8.3 103.87 10.68
5/11/2021 4:30:00 PM 17.2 62.96 1.016 8.29 103.69 10.55
5/11/2021 4:45:00 PM 17.27 63.086 1.012 8.29 103.5 10.39
5/11/2021 5:00:00 PM 17.26 63.068 1.008 8.27 106.82 10.22
5/11/2021 5:15:00 PM 17.22 62.996 1.002 8.26 102.82 10.12
5/11/2021 5:30:00 PM 17.11 62.798 0.995 8.26 105.24 10.09
5/11/2021 5:45:00 PM 16.93 62.474 0.987 8.24 106.61 9.93
5/11/2021 6:00:00 PM 16.76 62.168 0.978 8.23 105.82 9.79
5/11/2021 6:15:00 PM 16.64 61.952 0.97 8.22 105.95 9.73
5/11/2021 6:30:00 PM 16.54 61.772 0.964 8.21 105.27 9.61
5/11/2021 6:45:00 PM 16.46 61.628 0.962 8.2 102.9 9.51
5/11/2021 7:00:00 PM 16.37 61.466 0.959 8.2 103.5 9.44
5/11/2021 7:15:00 PM 16.26 61.268 0.957 8.18 106.38 9.31
5/11/2021 7:30:00 PM 16.14 61.052 0.956 8.17 104.49 9.19
5/11/2021 7:45:00 PM 16.05 60.89 0.954 8.15 103.69 9.07
5/11/2021 8:00:00 PM 15.96 60.728 0.952 8.14 106.78 8.97
5/11/2021 8:15:00 PM 15.89 60.602 0.951 8.12 106.18 8.84
5/11/2021 8:30:00 PM 15.81 60.458 0.951 8.11 106.6 8.74
5/11/2021 8:45:00 PM 15.72 60.296 0.954 8.1 105.62 8.69
5/11/2021 9:00:00 PM 15.61 60.098 0.959 8.09 108.08 8.62
5/11/2021 9:15:00 PM 15.49 59.882 0.962 8.08 111.18 8.55
5/11/2021 9:30:00 PM 15.36 59.648 0.944 8.07 107.54 8.52
5/11/2021 9:45:00 PM 15.24 59.432 0.957 8.06 109.28 8.45
5/11/2021 10:00:00 PM 15.1 59.18 0.953 8.05 107.64 8.39
5/11/2021 10:15:00 PM 14.97 58.946 0.951 8.04 108.38 8.37
5/11/2021 10:30:00 PM 14.83 58.694 0.951 8.03 107.89 8.34
5/11/2021 10:45:00 PM 14.69 58.442 0.954 8.02 108.37 8.31
5/11/2021 11:00:00 PM 14.55 58.19 0.957 8.01 108.59 8.27
5/11/2021 11:15:00 PM 14.41 57.938 0.961 8 108.31 8.23
5/11/2021 11:30:00 PM 14.29 57.722 0.965 8 104.94 8.22
5/11/2021 11:45:00 PM 14.17 57.506 0.968 7.99 108.53 8.18
5/12/2021 12:00:00 AM 14.06 57.308 0.972 7.98 109.65 8.17
5/12/2021 12:15:00 AM 13.94 57.092 0.977 7.98 108.14 8.16
5/12/2021 12:30:00 AM 13.83 56.894 0.981 7.97 108.7 8.16
5/12/2021 12:45:00 AM 13.72 56.696 0.985 7.97 107.72 8.16
5/12/2021 1:00:00 AM 13.62 56.516 0.989 7.97 106.7 8.16
5/12/2021 1:15:00 AM 13.51 56.318 0.992 7.97 105.73 8.17
5/12/2021 1:30:00 AM 13.41 56.138 0.996 7.96 107.63 8.19
5/12/2021 1:45:00 AM 13.31 55.958 0.998 7.96 107.96 8.2
5/12/2021 2:00:00 AM 13.22 55.796 1.002 7.96 108.34 8.23
5/12/2021 2:15:00 AM 13.12 55.616 1.005 7.96 107.67 8.25
5/12/2021 2:30:00 AM 13.03 55.454 1.007 7.96 108.21 8.27
5/12/2021 2:45:00 AM 12.95 55.31 1.007 7.96 107.02 8.28
5/12/2021 3:00:00 AM 12.86 55.148 1.007 7.96 107.46 8.3
5/12/2021 3:15:00 AM 12.78 55.004 1.006 7.96 104.9 8.32
5/12/2021 3:30:00 AM 12.69 54.842 1.004 7.96 105.4 8.33
5/12/2021 3:45:00 AM 12.61 54.698 1.002 7.96 107.43 8.36
5/12/2021 4:00:00 AM 12.53 54.554 0.997 7.96 103.57 8.38
5/12/2021 4:15:00 AM 12.45 54.41 0.991 7.96 107.59 8.41
5/12/2021 4:30:00 AM 12.36 54.248 0.985 7.97 105.26 8.44
5/12/2021 4:45:00 AM 12.27 54.086 0.979 7.97 106.6 8.47
5/12/2021 5:00:00 AM 12.18 53.924 0.973 7.97 105.09 8.5
5/12/2021 5:15:00 AM 12.1 53.78 0.967 7.97 106.52 8.52
5/12/2021 5:30:00 AM 12.01 53.618 0.959 7.98 105.96 8.57
5/12/2021 5:45:00 AM 11.93 53.474 0.951 7.98 105.65 8.6
5/12/2021 6:00:00 AM 11.85 53.33 0.943 7.98 104.58 8.63
5/12/2021 6:15:00 AM 11.77 53.186 0.934 7.99 108.42 8.69
5/12/2021 6:30:00 AM 11.7 53.06 0.926 7.99 114.42 8.75
5/12/2021 6:45:00 AM 11.64 52.952 0.918 7.99 109 8.81
5/12/2021 7:00:00 AM 11.59 52.862 0.911 8 110.53 8.89
5/12/2021 7:15:00 AM 11.55 52.79 0.906 8.01 116.19 8.97
5/12/2021 7:30:00 AM 11.51 52.718 0.9 8 126.04 9.06
5/12/2021 7:45:00 AM 11.49 52.682 0.893 8.02 119.58 9.16
5/12/2021 8:00:00 AM 11.49 52.682 0.889 8.03 126.45 9.25
5/12/2021 8:15:00 AM 11.51 52.718 0.886 8.04 130.96 9.39
5/12/2021 8:30:00 AM 11.56 52.808 0.883 8.05 127.55 9.53
5/12/2021 8:45:00 AM 11.61 52.898 0.882 8.07 128.37 9.68
5/12/2021 9:00:00 AM 11.68 53.024 0.883 8.08 129.79 9.81
5/12/2021 9:15:00 AM 11.77 53.186 0.885 8.09 129.97 9.93
5/12/2021 9:30:00 AM 11.87 53.366 0.888 8.1 131.96 10.07
5/12/2021 9:45:00 AM 12 53.6 0.89 8.11 131.43 10.21
5/12/2021 10:00:00 AM 12.15 53.87 0.878 8.13 103.31 10.36
5/12/2021 10:15:00 AM 12.31 54.158 0.872 8.14 112.24 10.5
5/12/2021 10:30:00 AM 12.49 54.482 0.84 8.15 109.57 10.63
5/12/2021 10:45:00 AM 12.68 54.824 0.876 8.17 107.87 10.77
5/12/2021 11:00:00 AM 12.88 55.184 0.888 8.19 101.01 10.87
5/12/2021 11:15:00 AM 13.1 55.58 0.888 8.2 91.17 10.98
5/12/2021 11:30:00 AM 13.35 56.03 0.892 8.22 90.19 11.1
5/12/2021 11:45:00 AM 13.63 56.534 0.902 8.23 90.33 11.2
5/12/2021 12:00:00 PM 13.93 57.074 0.916 8.24 89.09 11.27
5/12/2021 12:15:00 PM 14.27 57.686 0.937 8.26 84.9 11.35
5/12/2021 12:30:00 PM 14.63 58.334 0.958 8.26 86.78 11.44
5/12/2021 12:45:00 PM 14.97 58.946 0.977 8.27 79.48 11.47
5/12/2021 1:00:00 PM 15.35 59.63 0.99 8.29 74.67 11.51
5/12/2021 1:15:00 PM 15.72 60.296 1 8.3 86.13 11.55
5/12/2021 1:30:00 PM 16.04 60.872 1.01 8.31 86.55 11.53
5/12/2021 1:45:00 PM 16.28 61.304 1.019 8.31 91.45 11.41
5/12/2021 2:00:00 PM 16.52 61.736 1.026 8.32 92.72 11.38
5/12/2021 2:15:00 PM 16.76 62.168 1.03 8.32 91.49 11.36
5/12/2021 2:30:00 PM 17 62.6 1.034 8.33 93.56 11.4
5/12/2021 2:45:00 PM 17.23 63.014 1.036 8.34 93.72 11.41
5/12/2021 3:00:00 PM 17.4 63.32 1.036 8.33 96.52 11.15
5/12/2021 3:15:00 PM 17.54 63.572 1.035 8.33 93.56 11.06
5/12/2021 3:30:00 PM 17.62 63.716 1.033 8.32 94.92 10.97
5/12/2021 3:45:00 PM 17.72 63.896 1.03 8.33 94.62 10.94
5/12/2021 4:00:00 PM 17.82 64.076 1.027 8.32 92.78 10.83
5/12/2021 4:15:00 PM 17.93 64.274 1.025 8.32 94.7 10.74
5/12/2021 4:30:00 PM 17.99 64.382 1.024 8.31 89.46 10.56
5/12/2021 4:45:00 PM 18 64.4 1.023 8.3 89.36 10.39
5/12/2021 5:00:00 PM 17.96 64.328 1.022 8.29 87.31 10.17
5/12/2021 5:15:00 PM 17.89 64.202 1.017 8.28 83.96 10.08
5/12/2021 5:30:00 PM 17.8 64.04 1.01 8.27 96.8 9.94
5/12/2021 5:45:00 PM 17.74 63.932 1.003 8.26 94.37 9.82
5/12/2021 6:00:00 PM 17.69 63.842 0.996 8.25 100.04 9.66
5/12/2021 6:15:00 PM 17.68 63.824 0.988 8.24 95.11 9.53
5/12/2021 6:30:00 PM 17.66 63.788 0.98 8.23 98.98 9.44
5/12/2021 6:45:00 PM 17.58 63.644 0.973 8.21 98.56 9.28
5/12/2021 7:00:00 PM 17.47 63.446 0.969 8.2 94.56 9.15
5/12/2021 7:15:00 PM 17.33 63.194 0.969 8.18 96.25 9.03
5/12/2021 7:30:00 PM 17.19 62.942 0.974 8.16 89.13 8.89
5/12/2021 7:45:00 PM 17.06 62.708 0.978 8.15 90.53 8.78
5/12/2021 8:00:00 PM 16.93 62.474 0.922 8.13 92.93 8.69
5/12/2021 8:15:00 PM 16.79 62.222 0.955 8.12 90.14 8.59
5/12/2021 8:30:00 PM 16.63 61.934 0.929 8.1 103.66 8.49
5/12/2021 8:45:00 PM 16.46 61.628 0.97 8.09 70.46 8.43
5/12/2021 9:00:00 PM 16.29 61.322 0.971 8.08 94.34 8.37
5/12/2021 9:15:00 PM 16.12 61.016 0.974 8.06 91.5 8.3
5/12/2021 9:30:00 PM 15.96 60.728 0.977 8.05 90.8 8.27
5/12/2021 9:45:00 PM 15.81 60.458 0.979 8.04 91.39 8.23
5/12/2021 10:00:00 PM 15.66 60.188 0.806 8.03 88.1 8.2
5/12/2021 10:15:00 PM 15.52 59.936 0.98 8.02 91.88 8.17
5/12/2021 10:30:00 PM 15.37 59.666 0.98 8.02 91.61 8.13
5/12/2021 10:45:00 PM 15.22 59.396 0.982 8.01 92.47 8.12
5/12/2021 11:00:00 PM 15.07 59.126 0.985 8 92.48 8.08
5/12/2021 11:15:00 PM 14.92 58.856 0.99 7.99 91.4 8.06
5/12/2021 11:30:00 PM 14.78 58.604 0.995 7.99 91.13 8.06
5/12/2021 11:45:00 PM 14.65 58.37 0.999 7.98 88.18 8.04
5/13/2021 12:00:00 AM 14.51 58.118 1.005 7.97 91.24 8.01
5/13/2021 12:15:00 AM 14.39 57.902 1.009 7.97 91.87 8.02
5/13/2021 12:30:00 AM 14.26 57.668 1.013 7.97 88.84 8.03
5/13/2021 12:45:00 AM 14.14 57.452 1.016 7.96 83.64 8.04
5/13/2021 1:00:00 AM 14.02 57.236 1.017 7.96 93.62 8.07
5/13/2021 1:15:00 AM 13.9 57.02 1.017 7.96 88.56 8.07
5/13/2021 1:30:00 AM 13.79 56.822 1.019 7.96 84.52 8.1
5/13/2021 1:45:00 AM 13.68 56.624 1.02 7.96 86.27 8.12
5/13/2021 2:00:00 AM 13.57 56.426 0.998 7.96 92.39 8.15
5/13/2021 2:15:00 AM 13.47 56.246 1.021 7.96 90.04 8.16
5/13/2021 2:30:00 AM 13.37 56.066 1.022 7.96 91.93 8.18
5/13/2021 2:45:00 AM 13.27 55.886 1.024 7.96 94.03 8.2
5/13/2021 3:00:00 AM 13.18 55.724 1.025 7.96 92.24 8.23
5/13/2021 3:15:00 AM 13.08 55.544 1.025 7.96 89.84 8.24
5/13/2021 3:30:00 AM 12.99 55.382 1.025 7.96 91.3 8.26
5/13/2021 3:45:00 AM 12.9 55.22 1.021 7.96 89.68 8.26
5/13/2021 4:00:00 AM 12.8 55.04 1.017 7.97 88.09 8.31
5/13/2021 4:15:00 AM 12.71 54.878 1.012 7.97 87.48 8.34
5/13/2021 4:30:00 AM 12.62 54.716 1.006 7.97 81.59 8.35
5/13/2021 4:45:00 AM 12.53 54.554 1.001 7.97 88.8 8.39
5/13/2021 5:00:00 AM 12.45 54.41 0.994 7.98 89.49 8.42
5/13/2021 5:15:00 AM 12.36 54.248 0.986 7.98 89.74 8.46
5/13/2021 5:30:00 AM 12.28 54.104 0.977 7.98 89.52 8.46
5/13/2021 5:45:00 AM 12.19 53.942 0.969 7.98 87.83 8.53
5/13/2021 6:00:00 AM 12.11 53.798 0.961 7.99 90.05 8.58
5/13/2021 6:15:00 AM 12.03 53.654 0.952 7.99 90.58 8.63
5/13/2021 6:30:00 AM 11.95 53.51 0.944 8 85.93 8.69
5/13/2021 6:45:00 AM 11.88 53.384 0.936 8 79.92 8.77
5/13/2021 7:00:00 AM 11.82 53.276 0.929 8.01 85.13 8.85
5/13/2021 7:15:00 AM 11.78 53.204 0.924 8.02 88.43 8.94
5/13/2021 7:30:00 AM 11.74 53.132 0.918 8.02 88.8 9.04
5/13/2021 7:45:00 AM 11.72 53.096 0.911 8.03 87.42 9.13
5/13/2021 8:00:00 AM 11.71 53.078 0.905 8.04 90.43 9.24
5/13/2021 8:15:00 AM 11.75 53.15 0.9 8.05 88.58 9.39
5/13/2021 8:30:00 AM 11.8 53.24 0.896 8.06 88.49 9.52
5/13/2021 8:45:00 AM 11.87 53.366 0.894 8.08 84.22 9.67
5/13/2021 9:00:00 AM 11.96 53.528 0.895 8.09 86.93 9.81
5/13/2021 9:15:00 AM 12.07 53.726 0.897 8.1 88.4 9.96
5/13/2021 9:30:00 AM 12.19 53.942 0.9 8.11 71.56 10.09
5/13/2021 9:45:00 AM 12.34 54.212 0.904 8.13 97.09 10.22
5/13/2021 10:00:00 AM 12.5 54.5 0.909 8.14 89.62 10.36
5/13/2021 10:15:00 AM 12.67 54.806 0.913 8.15 81.14 10.48
5/13/2021 10:30:00 AM 12.85 55.13 0.917 8.17 87.39 10.63
5/13/2021 10:45:00 AM 13.04 55.472 0.918 8.18 88.89 10.74
5/13/2021 11:00:00 AM 13.24 55.832 0.915 8.19 89.03 10.86
5/13/2021 11:15:00 AM 13.46 56.228 0.918 8.21 87.8 10.98
5/13/2021 11:30:00 AM 13.71 56.678 0.92 8.23 88.55 11.08
5/13/2021 11:45:00 AM 13.99 57.182 0.925 8.24 81.66 11.18
5/13/2021 12:00:00 PM 14.25 57.65 0.934 8.25 83.18 11.21
5/13/2021 12:15:00 PM 14.52 58.136 0.95 8.26 83.87 11.16
5/13/2021 12:30:00 PM 14.84 58.712 0.969 8.27 81.62 11.31
5/13/2021 12:45:00 PM 15.09 59.162 0.991 8.28 87.98 11.25
5/13/2021 1:00:00 PM 15.49 59.882 1.01 8.29 86.2 11.35
5/13/2021 1:15:00 PM 15.68 60.224 1.025 8.29 86.96 11.19
5/13/2021 1:30:00 PM 16.04 60.872 1.035 8.31 86.41 11.32
5/13/2021 1:45:00 PM 16.17 61.106 1.044 8.3 87.63 11.12
5/13/2021 2:00:00 PM 16.48 61.664 1.054 8.32 94.24 11.3
5/13/2021 2:15:00 PM 16.77 62.186 1.062 8.34 89.62 11.52
5/13/2021 2:30:00 PM 16.91 62.438 1.073 8.34 87.08 11.28
5/13/2021 2:45:00 PM 17.02 62.636 1.082 8.32 87.41 10.98
5/13/2021 3:00:00 PM 17.18 62.924 1.088 8.32 83.73 10.9
5/13/2021 3:15:00 PM 17.39 63.302 1.09 8.34 90.28 11.08
5/13/2021 3:30:00 PM 17.49 63.482 1.091 8.34 79.13 11.03
5/13/2021 3:45:00 PM 17.64 63.752 1.09 8.34 86.58 11.01
5/13/2021 4:00:00 PM 17.76 63.968 1.089 8.34 83.91 10.88
5/13/2021 4:15:00 PM 17.89 64.202 1.087 8.33 81.86 10.72
5/13/2021 4:30:00 PM 17.97 64.346 1.084 8.33 82.57 10.65
5/13/2021 4:45:00 PM 18 64.4 1.079 8.32 84.36 10.52
5/13/2021 5:00:00 PM 17.98 64.364 1.073 8.31 82.49 10.33
5/13/2021 5:15:00 PM 17.95 64.31 1.064 8.3 83.69 10.17
5/13/2021 5:30:00 PM 17.91 64.238 1.053 8.29 79.47 9.99
5/13/2021 5:45:00 PM 17.86 64.148 1.041 8.28 81.19 9.87
5/13/2021 6:00:00 PM 17.79 64.022 1.029 8.28 82.05 9.78
5/13/2021 6:15:00 PM 17.69 63.842 1.021 8.26 81.32 9.64
5/13/2021 6:30:00 PM 17.61 63.698 1.014 8.25 86.44 9.55
5/13/2021 6:45:00 PM 17.52 63.536 1.01 8.24 89.02 9.46
5/13/2021 7:00:00 PM 17.44 63.392 1.007 8.23 86.89 9.31
5/13/2021 7:15:00 PM 17.38 63.284 1.006 8.21 86.08 9.16
5/13/2021 7:30:00 PM 17.31 63.158 1.005 8.2 84.65 9.06
5/13/2021 7:45:00 PM 17.25 63.05 1.004 8.18 87.91 8.92
5/13/2021 8:00:00 PM 17.16 62.888 1.003 8.16 87.29 8.8
5/13/2021 8:15:00 PM 17.06 62.708 1.002 8.15 91.53 8.69
5/13/2021 8:30:00 PM 16.94 62.492 1.002 8.13 92.54 8.57
5/13/2021 8:45:00 PM 16.81 62.258 1.003 8.12 102.14 8.47
5/13/2021 9:00:00 PM 16.66 61.988 0.995 8.1 98.29 8.39
5/13/2021 9:15:00 PM 16.51 61.718 1.003 8.09 104.6 8.27
5/13/2021 9:30:00 PM 16.36 61.448 1.004 8.08 101.42 8.17
5/13/2021 9:45:00 PM 16.22 61.196 0.78 8.07 100.99 8.23
5/13/2021 10:00:00 PM 16.08 60.944 1.003 8.06 104.76 8.13
5/13/2021 10:15:00 PM 15.94 60.692 1.004 8.04 100.27 8.16
5/13/2021 10:30:00 PM 15.8 60.44 1.005 8.03 94.36 8.12
5/13/2021 10:45:00 PM 15.67 60.206 1.008 8.02 100.02 8.08
5/13/2021 11:00:00 PM 15.53 59.954 1.012 8.02 96.21 8.05
5/13/2021 11:15:00 PM 15.4 59.72 1.015 8.01 93.48 7.94
5/13/2021 11:30:00 PM 15.28 59.504 1.017 8 85.87 8.01
5/13/2021 11:45:00 PM 15.15 59.27 1.019 8 86.5 7.98
5/14/2021 12:00:00 AM 15.04 59.072 1.021 7.99 78.42 7.97
5/14/2021 12:15:00 AM 14.92 58.856 1.022 7.98 84.17 7.95
5/14/2021 12:30:00 AM 14.8 58.64 1.022 7.98 85.7 7.95
5/14/2021 12:45:00 AM 14.69 58.442 1.023 7.97 82.78 7.95
5/14/2021 1:00:00 AM 14.57 58.226 1.023 7.97 79.71 7.92
5/14/2021 1:15:00 AM 14.46 58.028 1.024 7.97 79.13 7.95
5/14/2021 1:30:00 AM 14.36 57.848 1.025 7.96 83.57 7.96
5/14/2021 1:45:00 AM 14.25 57.65 1.025 7.96 79.77 7.97
5/14/2021 2:00:00 AM 14.15 57.47 1.026 7.96 80.19 7.98
5/14/2021 2:15:00 AM 14.05 57.29 1.026 7.96 80.63 8
5/14/2021 2:30:00 AM 13.95 57.11 1.026 7.96 83.79 8.01
5/14/2021 2:45:00 AM 13.85 56.93 1.025 7.96 78.24 8.02
5/14/2021 3:00:00 AM 13.75 56.75 1.023 7.96 76.51 8.06
5/14/2021 3:15:00 AM 13.66 56.588 1.022 7.96 75.83 8.08
5/14/2021 3:30:00 AM 13.56 56.408 1.021 7.96 82.42 8.11
5/14/2021 3:45:00 AM 13.47 56.246 1.017 7.96 80.59 8.12
5/14/2021 4:00:00 AM 13.38 56.084 1.015 7.96 77.75 8.15
5/14/2021 4:15:00 AM 13.29 55.922 1.01 7.96 75.62 8.18
5/14/2021 4:30:00 AM 13.2 55.76 1.005 7.96 69.33 8.21
5/14/2021 4:45:00 AM 13.12 55.616 1 7.96 76.35 8.23
5/14/2021 5:00:00 AM 13.03 55.454 0.991 7.97 76.22 8.26
5/14/2021 5:15:00 AM 12.94 55.292 0.982 7.97 76.09 8.29
5/14/2021 5:30:00 AM 12.85 55.13 0.973 7.97 75.04 8.33
5/14/2021 5:45:00 AM 12.77 54.986 0.964 7.97 82.67 8.37
5/14/2021 6:00:00 AM 12.68 54.824 0.955 7.97 75.77 8.39
5/14/2021 6:15:00 AM 12.6 54.68 0.945 7.98 74.03 8.46
5/14/2021 6:30:00 AM 12.52 54.536 0.935 7.98 75.32 8.51
5/14/2021 6:45:00 AM 12.45 54.41 0.926 7.99 75.31 8.59
5/14/2021 7:00:00 AM 12.39 54.302 0.916 7.99 74.8 8.66
5/14/2021 7:15:00 AM 12.34 54.212 0.907 8 74.08 8.76
5/14/2021 7:30:00 AM 12.3 54.14 0.88 8.01 73.31 8.85
5/14/2021 7:45:00 AM 12.27 54.086 0.889 8.02 74.29 8.96
5/14/2021 8:00:00 AM 12.27 54.086 0.884 8.02 74.13 9.08
5/14/2021 8:15:00 AM 12.29 54.122 0.878 8.04 65.13 9.21
5/14/2021 8:30:00 AM 12.34 54.212 0.874 8.05 74.77 9.38
5/14/2021 8:45:00 AM 12.4 54.32 0.873 8.06 72.36 9.5
5/14/2021 9:00:00 AM 12.48 54.464 0.874 8.07 72.16 9.68
5/14/2021 9:15:00 AM 12.59 54.662 0.877 8.09 73.44 9.81
5/14/2021 9:30:00 AM 12.71 54.878 0.881 8.1 73.77 9.93
5/14/2021 9:45:00 AM 12.86 55.148 0.886 8.11 70.23 10.08
5/14/2021 10:00:00 AM 13.04 55.472 0.892 8.12 72.72 10.2
5/14/2021 10:15:00 AM 13.21 55.778 0.897 8.14 71.22 10.35
5/14/2021 10:30:00 AM 13.39 56.102 0.901 8.15 70.08 10.48
5/14/2021 10:45:00 AM 13.58 56.444 0.902 8.16 77.48 10.62
5/14/2021 11:00:00 AM 13.78 56.804 0.905 8.18 76.48 10.74
5/14/2021 11:15:00 AM 14 57.2 0.907 8.19 79.9 10.85
5/14/2021 11:30:00 AM 14.24 57.632 0.91 8.21 86.39 10.95
5/14/2021 11:45:00 AM 14.51 58.118 0.914 8.23 82.75 11.07
5/14/2021 12:00:00 PM 14.78 58.604 0.922 8.24 80.15 11.12
5/14/2021 12:15:00 PM 15.12 59.216 0.934 8.25 80.78 11.2
5/14/2021 12:30:00 PM 15.5 59.9 0.95 8.27 78.48 11.35
5/14/2021 12:45:00 PM 15.9 60.62 0.966 8.29 85.02 11.47
5/14/2021 1:00:00 PM 16.32 61.376 0.979 8.3 85.01 11.54
5/14/2021 1:15:00 PM 16.65 61.97 0.989 8.31 83.55 11.53
5/14/2021 1:30:00 PM 17.01 62.618 0.996 8.32 85.77 11.54
5/14/2021 1:45:00 PM 17.36 63.248 0.999 8.33 83.57 11.57
5/14/2021 2:00:00 PM 17.65 63.77 1 8.34 85.13 11.55
5/14/2021 2:15:00 PM 17.9 64.22 0.998 8.35 83.18 11.52
5/14/2021 2:30:00 PM 18.13 64.634 0.994 8.36 97.53 11.49
5/14/2021 2:45:00 PM 18.19 64.742 0.991 8.35 84.18 11.23
5/14/2021 3:00:00 PM 18.15 64.67 0.99 8.32 87.8 10.72
5/14/2021 3:15:00 PM 18.22 64.796 0.99 8.32 85.54 10.71
5/14/2021 3:30:00 PM 18.23 64.814 0.991 8.32 85.92 10.68
5/14/2021 3:45:00 PM 18.32 64.976 0.994 8.32 86.93 10.65
5/14/2021 4:00:00 PM 18.41 65.138 0.997 8.31 94.06 10.56
5/14/2021 4:15:00 PM 18.59 65.462 1 8.32 89.47 10.5
5/14/2021 4:30:00 PM 18.67 65.606 1.003 8.31 90.41 10.36
5/14/2021 4:45:00 PM 18.72 65.696 1.006 8.3 90.53 10.27
5/14/2021 5:00:00 PM 18.72 65.696 1.008 8.29 89.95 10.15
5/14/2021 5:15:00 PM 18.67 65.606 1.011 8.28 86.87 9.88
5/14/2021 5:30:00 PM 18.65 65.57 1.012 8.27 87.13 9.79
5/14/2021 5:45:00 PM 18.61 65.498 1.011 8.26 85.4 9.75
5/14/2021 6:00:00 PM 18.55 65.39 1.011 8.24 96.25 9.57
5/14/2021 6:15:00 PM 18.5 65.3 1.011 8.23 94.9 9.45
5/14/2021 6:30:00 PM 18.46 65.228 1.01 8.22 95.87 9.33
5/14/2021 6:45:00 PM 18.42 65.156 1.01 8.21 94.02 9.17
5/14/2021 7:00:00 PM 18.37 65.066 1.011 8.19 94.37 9.02
5/14/2021 7:15:00 PM 18.33 64.994 1.012 8.18 92.19 8.89
5/14/2021 7:30:00 PM 18.26 64.868 0.988 8.16 95.1 8.74
5/14/2021 7:45:00 PM 18.19 64.742 0.854 8.15 92.29 8.61
5/14/2021 8:00:00 PM 18.08 64.544 1.011 8.13 91.96 8.5
5/14/2021 8:15:00 PM 17.97 64.346 1.011 8.12 94.02 8.36
5/14/2021 8:30:00 PM 17.84 64.112 1.012 8.1 93.97 8.26
5/14/2021 8:45:00 PM 17.69 63.842 1.012 8.08 92.1 8.16
5/14/2021 9:00:00 PM 17.55 63.59 1.013 8.07 95.81 8.07
5/14/2021 9:15:00 PM 17.4 63.32 1.013 8.06 94.11 7.99
5/14/2021 9:30:00 PM 17.25 63.05 1.013 8.04 92.72 7.9
5/14/2021 9:45:00 PM 17.1 62.78 1.014 8.03 96.01 7.86
5/14/2021 10:00:00 PM 16.96 62.528 1.015 8.02 91.44 7.82
5/14/2021 10:15:00 PM 16.81 62.258 1.016 8.01 95.53 7.74
5/14/2021 10:30:00 PM 16.68 62.024 1.018 8 91.41 7.72
5/14/2021 10:45:00 PM 16.53 61.754 0.926 7.99 96.07 7.63
5/14/2021 11:00:00 PM 16.4 61.52 1.017 7.98 92.37 7.63
5/14/2021 11:15:00 PM 16.25 61.25 1.018 7.97 96.63 7.62
5/14/2021 11:30:00 PM 16.11 60.998 0.743 7.97 95.66 7.57
5/14/2021 11:45:00 PM 15.96 60.728 1.021 7.96 97.63 7.56
5/15/2021 12:00:00 AM 15.82 60.476 1.024 7.96 98.85 7.56
5/15/2021 12:15:00 AM 15.68 60.224 1.028 7.95 97.83 7.56
5/15/2021 12:30:00 AM 15.54 59.972 1.03 7.95 97.85 7.53
5/15/2021 12:45:00 AM 15.4 59.72 1.031 7.94 98.8 7.57
5/15/2021 1:00:00 AM 15.26 59.468 1.031 7.94 96.33 7.59
5/15/2021 1:15:00 AM 15.13 59.234 0.928 7.94 97.91 7.61
5/15/2021 1:30:00 AM 15 59 1.029 7.94 100.07 7.62
5/15/2021 1:45:00 AM 14.88 58.784 1.028 7.94 98.71 7.6
5/15/2021 2:00:00 AM 14.76 58.568 1.028 7.93 97.95 7.67
5/15/2021 2:15:00 AM 14.64 58.352 0.802 7.93 99.29 7.7
5/15/2021 2:30:00 AM 14.53 58.154 1.026 7.93 101.03 7.72
5/15/2021 2:45:00 AM 14.42 57.956 1.025 7.93 94.84 7.71
5/15/2021 3:00:00 AM 14.31 57.758 1.023 7.93 87.97 7.77
5/15/2021 3:15:00 AM 14.2 57.56 1.022 7.94 85.36 7.78
5/15/2021 3:30:00 AM 14.09 57.362 1.022 7.94 85.3 7.84
5/15/2021 3:45:00 AM 13.99 57.182 1.022 7.94 84.56 7.87
5/15/2021 4:00:00 AM 13.89 57.002 1.022 7.94 80.54 7.9
5/15/2021 4:15:00 AM 13.8 56.84 1.021 7.94 80.65 7.92
5/15/2021 4:30:00 AM 13.71 56.678 1.002 7.94 87.59 7.95
5/15/2021 4:45:00 AM 13.61 56.498 1.015 7.94 81.46 7.99
5/15/2021 5:00:00 AM 13.52 56.336 1.011 7.95 87.6 8.02
5/15/2021 5:15:00 AM 13.43 56.174 1.008 7.95 85.01 8.05
5/15/2021 5:30:00 AM 13.34 56.012 1.001 7.95 85.62 8.08
5/15/2021 5:45:00 AM 13.26 55.868 0.997 7.95 82.92 8.11
5/15/2021 6:00:00 AM 13.17 55.706 0.998 7.95 88.53 8.15
5/15/2021 6:15:00 AM 13.09 55.562 0.995 7.96 74.13 8.2
5/15/2021 6:30:00 AM 13.02 55.436 0.992 7.96 84.55 8.26
5/15/2021 6:45:00 AM 12.96 55.328 0.988 7.96 84.56 8.32
5/15/2021 7:00:00 AM 12.91 55.238 0.984 7.97 85.08 8.41
5/15/2021 7:15:00 AM 12.86 55.148 0.979 7.98 86.14 8.49
5/15/2021 7:30:00 AM 12.82 55.076 0.972 7.98 85.85 8.59
5/15/2021 7:45:00 AM 12.79 55.022 0.965 7.99 81.66 8.69
5/15/2021 8:00:00 AM 12.78 55.004 0.957 8 79.04 8.81
5/15/2021 8:15:00 AM 12.8 55.04 0.949 8.01 85.04 8.97
5/15/2021 8:30:00 AM 12.84 55.112 0.941 8.03 86.54 9.12
5/15/2021 8:45:00 AM 12.9 55.22 0.933 8.04 83.71 9.3
5/15/2021 9:00:00 AM 12.97 55.346 0.928 8.06 81.63 9.45
5/15/2021 9:15:00 AM 13.07 55.526 0.924 8.07 85.39 9.62
5/15/2021 9:30:00 AM 13.18 55.724 0.923 8.08 89.07 9.77
5/15/2021 9:45:00 AM 13.32 55.976 0.924 8.1 88.51 9.93
5/15/2021 10:00:00 AM 13.47 56.246 0.926 8.12 81.6 10.08
5/15/2021 10:15:00 AM 13.63 56.534 0.928 8.13 81.18 10.24
5/15/2021 10:30:00 AM 13.81 56.858 0.93 8.15 84.18 10.39
5/15/2021 10:45:00 AM 13.99 57.182 0.93 8.16 80.7 10.53
5/15/2021 11:00:00 AM 14.18 57.524 0.929 8.18 84.67 10.66
5/15/2021 11:15:00 AM 14.38 57.884 0.928 8.19 87.13 10.77
5/15/2021 11:30:00 AM 14.6 58.28 0.924 8.21 83.5 10.9
5/15/2021 11:45:00 AM 14.85 58.73 0.921 8.23 90.9 11.01
5/15/2021 12:00:00 PM 15.12 59.216 0.913 8.25 81.48 11.11
5/15/2021 12:15:00 PM 15.44 59.792 0.924 8.26 84.84 11.24
5/15/2021 12:30:00 PM 15.73 60.314 0.933 8.28 82.61 11.29
5/15/2021 12:45:00 PM 15.92 60.656 0.946 8.28 78.11 11.13
5/15/2021 1:00:00 PM 16.35 61.43 0.962 8.3 82.58 11.39
5/15/2021 1:15:00 PM 16.6 61.88 0.981 8.31 81.47 11.4
5/15/2021 1:30:00 PM 16.75 62.15 1 8.3 82.17 11.06
5/15/2021 1:45:00 PM 16.95 62.51 1.018 8.29 88.84 10.93
5/15/2021 2:00:00 PM 17.17 62.906 1.034 8.31 87.29 11.11
5/15/2021 2:15:00 PM 17.33 63.194 1.048 8.33 84.85 11.23
5/15/2021 2:30:00 PM 17.5 63.5 1.059 8.33 82.5 11.22
5/15/2021 2:45:00 PM 17.74 63.932 1.066 8.34 85.06 11.26
5/15/2021 3:00:00 PM 17.92 64.256 1.071 8.34 85.1 11.17
5/15/2021 3:15:00 PM 18.02 64.436 1.076 8.33 85.69 10.89
5/15/2021 3:30:00 PM 18.1 64.58 1.08 8.31 84.87 10.6
5/15/2021 3:45:00 PM 18.16 64.688 1.083 8.3 89.27 10.34
5/15/2021 4:00:00 PM 18.18 64.724 1.087 8.28 86.31 10.09
5/15/2021 4:15:00 PM 18.22 64.796 1.088 8.28 83.97 10.1
5/15/2021 4:30:00 PM 18.26 64.868 1.088 8.28 83.23 10.14
5/15/2021 4:45:00 PM 18.32 64.976 1.089 8.28 77.71 10.11
5/15/2021 5:00:00 PM 18.38 65.084 1.089 8.28 85.68 10.03
5/15/2021 5:15:00 PM 18.4 65.12 1.09 8.27 87.79 9.92
5/15/2021 5:30:00 PM 18.42 65.156 1.09 8.26 82.96 9.87
5/15/2021 5:45:00 PM 18.39 65.102 1.089 8.26 82.68 9.76
5/15/2021 6:00:00 PM 18.35 65.03 1.088 8.25 80.88 9.67
5/15/2021 6:15:00 PM 18.29 64.922 1.086 8.24 77.32 9.63
5/15/2021 6:30:00 PM 18.19 64.742 1.085 8.23 82.91 9.49
5/15/2021 6:45:00 PM 18.06 64.508 1.083 8.21 85.38 9.35
5/15/2021 7:00:00 PM 17.97 64.346 1.083 8.2 83.01 9.22
5/15/2021 7:15:00 PM 17.86 64.148 1.084 8.18 78.04 9.08
5/15/2021 7:30:00 PM 17.77 63.986 1.084 8.17 81.32 8.93
5/15/2021 7:45:00 PM 17.7 63.86 1.082 8.15 82.56 8.8
5/15/2021 8:00:00 PM 17.63 63.734 1.079 8.14 79.19 8.69
5/15/2021 8:15:00 PM 17.54 63.572 1.076 8.13 92.47 8.59
5/15/2021 8:30:00 PM 17.43 63.374 1.074 8.12 77.89 8.52
5/15/2021 8:45:00 PM 17.31 63.158 1.074 8.11 85.14 8.45
5/15/2021 9:00:00 PM 17.19 62.942 1.075 8.09 73.98 8.38
5/15/2021 9:15:00 PM 17.07 62.726 1.076 8.08 77.67 8.3
5/15/2021 9:30:00 PM 16.95 62.51 1.074 8.07 68.34 8.24
5/15/2021 9:45:00 PM 16.83 62.294 1.071 8.06 72.42 8.18
5/15/2021 10:00:00 PM 16.72 62.096 1.066 8.05 71.07 8.12
5/15/2021 10:15:00 PM 16.61 61.898 1.062 8.04 68.6 8.07
5/15/2021 10:30:00 PM 16.5 61.7 1.058 8.03 72.04 8
5/15/2021 10:45:00 PM 16.39 61.502 1.056 8.02 71.31 7.95
5/15/2021 11:00:00 PM 16.28 61.304 1.054 8.01 71.19 7.89
5/15/2021 11:15:00 PM 16.18 61.124 1.054 8.01 69.64 7.86
5/15/2021 11:30:00 PM 16.08 60.944 1.055 8 72.54 7.8
5/15/2021 11:45:00 PM 15.99 60.782 1.057 7.99 73.11 7.75
5/16/2021 12:00:00 AM 15.9 60.62 1.058 7.98 70.17 7.73
5/16/2021 12:15:00 AM 15.81 60.458 1.06 7.98 63.45 7.7
5/16/2021 12:30:00 AM 15.73 60.314 1.059 7.97 70.35 7.68
5/16/2021 12:45:00 AM 15.64 60.152 1.057 7.96 68.96 7.65
5/16/2021 1:00:00 AM 15.55 59.99 1.062 7.96 66.01 7.65
5/16/2021 1:15:00 AM 15.46 59.828 1.059 7.96 68.87 7.64
5/16/2021 1:30:00 AM 15.37 59.666 1.06 7.95 69.03 7.65
5/16/2021 1:45:00 AM 15.29 59.522 1.06 7.95 67.16 7.66
5/16/2021 2:00:00 AM 15.2 59.36 1.06 7.95 70.11 7.68
5/16/2021 2:15:00 AM 15.11 59.198 1.059 7.95 73.06 7.69
5/16/2021 2:30:00 AM 15.02 59.036 1.058 7.95 72.23 7.7
5/16/2021 2:45:00 AM 14.93 58.874 1.056 7.95 69.86 7.71
5/16/2021 3:00:00 AM 14.85 58.73 1.056 7.95 71.52 7.73
5/16/2021 3:15:00 AM 14.76 58.568 1.056 7.94 70.69 7.75
5/16/2021 3:30:00 AM 14.68 58.424 1.055 7.95 70.05 7.75
5/16/2021 3:45:00 AM 14.6 58.28 1.053 7.95 74.12 7.77
5/16/2021 4:00:00 AM 14.52 58.136 1.051 7.95 69.25 7.79
5/16/2021 4:15:00 AM 14.45 58.01 1.047 7.95 72.19 7.82
5/16/2021 4:30:00 AM 14.37 57.866 1.043 7.95 71.48 7.83
5/16/2021 4:45:00 AM 14.3 57.74 1.038 7.95 68.49 7.84
5/16/2021 5:00:00 AM 14.22 57.596 1.034 7.95 73.14 7.88
5/16/2021 5:15:00 AM 14.15 57.47 1.029 7.95 71.37 7.89
5/16/2021 5:30:00 AM 14.08 57.344 1.023 7.95 69.12 7.91
5/16/2021 5:45:00 AM 14 57.2 1.017 7.96 71.39 7.94
5/16/2021 6:00:00 AM 13.93 57.074 1.01 7.96 68.09 7.98
5/16/2021 6:15:00 AM 13.87 56.966 1.002 7.96 71.74 8.02
5/16/2021 6:30:00 AM 13.81 56.858 0.993 7.97 72.91 8.09
5/16/2021 6:45:00 AM 13.76 56.768 0.985 7.97 70.18 8.19
5/16/2021 7:00:00 AM 13.72 56.696 0.976 7.98 68.7 8.3
5/16/2021 7:15:00 AM 13.69 56.642 0.969 7.99 72.16 8.41
5/16/2021 7:30:00 AM 13.67 56.606 0.962 8 71.36 8.56
5/16/2021 7:45:00 AM 13.67 56.606 0.956 8.01 68.72 8.73
5/16/2021 8:00:00 AM 13.68 56.624 0.952 8.02 72.95 8.86
5/16/2021 8:15:00 AM 13.7 56.66 0.948 8.04 74.49 9.03
5/16/2021 8:30:00 AM 13.74 56.732 0.945 8.05 69.14 9.21
5/16/2021 8:45:00 AM 13.77 56.786 0.942 8.06 70.53 9.31
5/16/2021 9:00:00 AM 13.8 56.84 0.94 8.07 71.8 9.41
5/16/2021 9:15:00 AM 13.86 56.948 0.94 8.08 74.86 9.55
5/16/2021 9:30:00 AM 13.91 57.038 0.94 8.09 75.52 9.63
5/16/2021 9:45:00 AM 13.96 57.128 0.94 8.1 74.75 9.76
5/16/2021 10:00:00 AM 14.03 57.254 0.938 8.11 73.94 9.88
5/16/2021 10:15:00 AM 14.07 57.326 0.936 8.12 74.33 9.93
5/16/2021 10:30:00 AM 14.11 57.398 0.932 8.13 75.89 9.93
5/16/2021 10:45:00 AM 14.15 57.47 0.928 8.13 73.35 9.97
5/16/2021 11:00:00 AM 14.19 57.542 0.923 8.15 73.35 10.09
5/16/2021 11:15:00 AM 14.25 57.65 0.918 8.16 73.62 10.25
5/16/2021 11:30:00 AM 14.33 57.794 0.913 8.18 73.76 10.42
5/16/2021 11:45:00 AM 14.43 57.974 0.906 8.2 75.21 10.55
5/16/2021 12:00:00 PM 14.54 58.172 0.897 8.22 72.42 10.64
5/16/2021 12:15:00 PM 14.68 58.424 0.893 8.24 74.19 10.75
5/16/2021 12:30:00 PM 14.81 58.658 0.894 8.25 74.5 10.84
5/16/2021 12:45:00 PM 14.96 58.928 0.9 8.27 67.14 10.99
5/16/2021 1:00:00 PM 15.12 59.216 0.912 8.28 73.93 11.06
5/16/2021 1:15:00 PM 15.24 59.432 0.927 8.28 74.92 10.96
5/16/2021 1:30:00 PM 15.42 59.756 0.942 8.29 75.98 10.98
5/16/2021 1:45:00 PM 15.54 59.972 0.958 8.29 74.49 10.95
5/16/2021 2:00:00 PM 15.68 60.224 0.973 8.29 77.55 10.93
5/16/2021 2:15:00 PM 15.87 60.566 0.988 8.3 74.87 11.12
5/16/2021 2:30:00 PM 16.04 60.872 1 8.31 76.46 11.22
5/16/2021 2:45:00 PM 16.18 61.124 1.011 8.32 76.26 11.19
5/16/2021 3:00:00 PM 16.34 61.412 1.019 8.32 76.36 11.12
5/16/2021 3:15:00 PM 16.41 61.538 1.026 8.3 74.6 10.83
5/16/2021 3:30:00 PM 16.45 61.61 1.032 8.28 73.11 10.48
5/16/2021 3:45:00 PM 16.43 61.574 1.036 8.26 78.26 10.24
5/16/2021 4:00:00 PM 16.41 61.538 1.039 8.25 75.81 10.1
5/16/2021 4:15:00 PM 16.37 61.466 1.042 8.24 73.83 9.95
5/16/2021 4:30:00 PM 16.35 61.43 1.045 8.23 75.28 9.81
5/16/2021 4:45:00 PM 16.35 61.43 1.047 8.22 71.38 9.72
5/16/2021 5:00:00 PM 16.37 61.466 1.048 8.22 78.29 9.67
5/16/2021 5:15:00 PM 16.39 61.502 1.048 8.21 70.19 9.64
5/16/2021 5:30:00 PM 16.41 61.538 1.047 8.21 72.86 9.57
5/16/2021 5:45:00 PM 16.4 61.52 1.047 8.21 79.19 9.54
5/16/2021 6:00:00 PM 16.4 61.52 1.047 8.21 71.95 9.5
5/16/2021 6:15:00 PM 16.39 61.502 1.048 8.2 74.63 9.46
5/16/2021 6:30:00 PM 16.37 61.466 1.047 8.2 70.67 9.43
5/16/2021 6:45:00 PM 16.36 61.448 1.046 8.19 70.79 9.33
5/16/2021 7:00:00 PM 16.34 61.412 1.045 8.18 71.2 9.25
5/16/2021 7:15:00 PM 16.3 61.34 1.044 8.17 71.67 9.13
5/16/2021 7:30:00 PM 16.26 61.268 1.045 8.15 70.97 9
5/16/2021 7:45:00 PM 16.2 61.16 1.045 8.14 72.71 8.89
5/16/2021 8:00:00 PM 16.12 61.016 1.045 8.12 68.78 8.75
5/16/2021 8:15:00 PM 16.04 60.872 1.044 8.11 67.82 8.64
5/16/2021 8:30:00 PM 15.96 60.728 1.043 8.09 73.12 8.54
5/16/2021 8:45:00 PM 15.88 60.584 1.042 8.08 70.86 8.44
5/16/2021 9:00:00 PM 15.81 60.458 1.043 8.06 71.39 8.36
5/16/2021 9:15:00 PM 15.74 60.332 1.051 8.05 70.99 8.29
5/16/2021 9:30:00 PM 15.67 60.206 1.053 8.05 72.45 8.23
5/16/2021 9:45:00 PM 15.6 60.08 1.055 8.04 68.86 8.21
5/16/2021 10:00:00 PM 15.53 59.954 1.054 8.04 67.61 8.14
5/16/2021 10:15:00 PM 15.46 59.828 1.053 8.03 71.14 8.16
5/16/2021 10:30:00 PM 15.38 59.684 1.053 8.03 72.53 8.1
5/16/2021 10:45:00 PM 15.3 59.54 1.055 8.02 69.95 8.11
5/16/2021 11:00:00 PM 15.22 59.396 1.057 8.02 72 8.12
5/16/2021 11:15:00 PM 15.14 59.252 1.058 8.01 72.43 8.11
5/16/2021 11:30:00 PM 15.05 59.09 1.059 8.01 72.22 8.07
5/16/2021 11:45:00 PM 14.96 58.928 1.062 8 69.42 8.05
5/17/2021 12:00:00 AM 14.88 58.784 1.064 8 70.42 8.04
5/17/2021 12:15:00 AM 14.8 58.64 1.066 7.99 72.64 8.02
5/17/2021 12:30:00 AM 14.72 58.496 1.068 7.99 71.07 7.98
5/17/2021 12:45:00 AM 14.65 58.37 1.07 7.99 68.61 8
5/17/2021 1:00:00 AM 14.58 58.244 1.072 7.98 69.22 7.98
5/17/2021 1:15:00 AM 14.52 58.136 1.074 7.98 71.22 7.97
5/17/2021 1:30:00 AM 14.45 58.01 1.074 7.98 68.17 7.97
5/17/2021 1:45:00 AM 14.38 57.884 1.075 7.98 67.77 7.97
5/17/2021 2:00:00 AM 14.31 57.758 1.074 7.97 67.62 7.96
5/17/2021 2:15:00 AM 14.24 57.632 1.074 7.97 66.34 7.94
5/17/2021 2:30:00 AM 14.17 57.506 1.073 7.97 66.39 7.93
5/17/2021 2:45:00 AM 14.1 57.38 1.073 7.97 62.18 7.96
5/17/2021 3:00:00 AM 14.03 57.254 1.072 7.97 63.17 8
5/17/2021 3:15:00 AM 13.96 57.128 1.071 7.97 61.15 8.03
5/17/2021 3:30:00 AM 13.9 57.02 1.069 7.97 64.29 8.04
5/17/2021 3:45:00 AM 13.83 56.894 1.064 7.97 63.62 8.04
5/17/2021 4:00:00 AM 13.76 56.768 1.059 7.97 63.2 8.07
5/17/2021 4:15:00 AM 13.68 56.624 1.053 7.97 63.61 8.1
5/17/2021 4:30:00 AM 13.61 56.498 1.046 7.97 60.46 8.11
5/17/2021 4:45:00 AM 13.54 56.372 1.04 7.97 63.92 8.12
5/17/2021 5:00:00 AM 13.47 56.246 1.032 7.98 63.14 8.14
5/17/2021 5:15:00 AM 13.4 56.12 1.025 7.98 64 8.16
5/17/2021 5:30:00 AM 13.33 55.994 1.016 7.98 66.68 8.2
5/17/2021 5:45:00 AM 13.26 55.868 1.008 7.98 67.32 8.24
5/17/2021 6:00:00 AM 13.19 55.742 1 7.98 65.49 8.26
5/17/2021 6:15:00 AM 13.13 55.634 0.991 7.99 62.01 8.31
5/17/2021 6:30:00 AM 13.07 55.526 0.983 7.99 51.77 8.36
5/17/2021 6:45:00 AM 13.01 55.418 0.964 7.99 63.09 8.44
5/17/2021 7:00:00 AM 12.96 55.328 0.964 8 63.08 8.53
5/17/2021 7:15:00 AM 12.93 55.274 0.958 8.01 63.38 8.62
5/17/2021 7:30:00 AM 12.91 55.238 0.949 8.02 63.09 8.76
5/17/2021 7:45:00 AM 12.9 55.22 0.941 8.03 65.81 8.86
5/17/2021 8:00:00 AM 12.9 55.22 0.932 8.04 58.47 9.04
5/17/2021 8:15:00 AM 12.92 55.256 0.924 8.05 64.62 9.16
5/17/2021 8:30:00 AM 12.97 55.346 0.917 8.06 64.46 9.33
5/17/2021 8:45:00 AM 13.02 55.436 0.912 8.07 64.33 9.46
5/17/2021 9:00:00 AM 13.08 55.544 0.909 8.08 65.43 9.59
5/17/2021 9:15:00 AM 13.17 55.706 0.907 8.1 64.09 9.75
5/17/2021 9:30:00 AM 13.28 55.904 0.907 8.11 63.58 9.91
5/17/2021 9:45:00 AM 13.41 56.138 0.909 8.12 63.6 10.02
5/17/2021 10:00:00 AM 13.55 56.39 0.911 8.14 62.71 10.19
5/17/2021 10:15:00 AM 13.68 56.624 0.912 8.15 55.76 10.34
5/17/2021 10:30:00 AM 13.84 56.912 0.91 8.17 64.12 10.5
5/17/2021 10:45:00 AM 13.99 57.182 0.909 8.19 63.58 10.65
5/17/2021 11:00:00 AM 14.13 57.434 0.907 8.2 62.34 10.77
5/17/2021 11:15:00 AM 14.3 57.74 0.906 8.22 54.14 10.88
5/17/2021 11:30:00 AM 14.49 58.082 0.904 8.24 62.61 11.03
5/17/2021 11:45:00 AM 14.68 58.424 0.905 8.26 65.47 11.13
5/17/2021 12:00:00 PM 14.87 58.766 0.908 8.27 62.7 11.22
5/17/2021 12:15:00 PM 15.15 59.27 0.915 8.29 61.74 11.32
5/17/2021 12:30:00 PM 15.4 59.72 0.927 8.3 64.1 11.36
5/17/2021 12:45:00 PM 15.66 60.188 0.942 8.31 62.79 11.44
5/17/2021 1:00:00 PM 15.86 60.548 0.959 8.31 63.27 11.32
5/17/2021 1:15:00 PM 16.07 60.926 0.974 8.31 66.46 11.21
5/17/2021 1:30:00 PM 16.28 61.304 0.988 8.32 69.74 11.12
5/17/2021 1:45:00 PM 16.58 61.844 0.999 8.34 78.06 11.36
5/17/2021 2:00:00 PM 16.84 62.312 1.006 8.35 73.73 11.49
5/17/2021 2:15:00 PM 17.04 62.672 1.011 8.36 76.41 11.42
5/17/2021 2:30:00 PM 17.35 63.23 1.014 8.37 76.71 11.43
5/17/2021 2:45:00 PM 17.64 63.752 1.015 8.38 76.04 11.46
5/17/2021 3:00:00 PM 17.83 64.094 1.015 8.38 67.8 11.32
5/17/2021 3:15:00 PM 17.95 64.31 1.015 8.37 72.9 11.1
5/17/2021 3:30:00 PM 18.03 64.454 1.016 8.35 67.16 10.79
5/17/2021 3:45:00 PM 18.1 64.58 1.018 8.34 75.49 10.65
5/17/2021 4:00:00 PM 18.12 64.616 1.02 8.34 75.85 10.61
5/17/2021 4:15:00 PM 18.18 64.724 1.023 8.33 84.08 10.52
5/17/2021 4:30:00 PM 18.26 64.868 1.024 8.33 74.08 10.47
5/17/2021 4:45:00 PM 18.33 64.994 1.025 8.32 73.95 10.32
5/17/2021 5:00:00 PM 18.4 65.12 1.024 8.32 79.54 10.18
5/17/2021 5:15:00 PM 18.43 65.174 1.023 8.31 72.8 10.03
5/17/2021 5:30:00 PM 18.45 65.21 1.022 8.3 76.92 9.92
5/17/2021 5:45:00 PM 18.42 65.156 1.02 8.28 73.18 9.76
5/17/2021 6:00:00 PM 18.38 65.084 1.018 8.27 74.04 9.63
5/17/2021 6:15:00 PM 18.33 64.994 1.015 8.26 73.28 9.53
5/17/2021 6:30:00 PM 18.29 64.922 1.012 8.25 77.97 9.41
5/17/2021 6:45:00 PM 18.25 64.85 1.01 8.23 66.94 9.26
5/17/2021 7:00:00 PM 18.19 64.742 1.01 8.22 75.64 9.12
5/17/2021 7:15:00 PM 18.12 64.616 1.01 8.2 70.64 8.98
5/17/2021 7:30:00 PM 18.03 64.454 1.01 8.18 74.34 8.85
5/17/2021 7:45:00 PM 17.91 64.238 1.01 8.16 78.02 8.69
5/17/2021 8:00:00 PM 17.78 64.004 1.007 8.14 69.87 8.56
5/17/2021 8:15:00 PM 17.62 63.716 1.005 8.12 77.1 8.45
5/17/2021 8:30:00 PM 17.47 63.446 1.004 8.11 77.56 8.36
5/17/2021 8:45:00 PM 17.32 63.176 0.998 8.1 77.05 8.27
5/17/2021 9:00:00 PM 17.18 62.924 0.992 8.09 67.06 8.21
5/17/2021 9:15:00 PM 17.05 62.69 0.988 8.07 71.07 8.17
5/17/2021 9:30:00 PM 16.93 62.474 0.984 8.07 75.86 8.13
5/17/2021 9:45:00 PM 16.82 62.276 0.983 8.06 71.87 8.1
5/17/2021 10:00:00 PM 16.72 62.096 0.982 8.05 75.19 8.06
5/17/2021 10:15:00 PM 16.62 61.916 0.984 8.04 68.51 8.03
5/17/2021 10:30:00 PM 16.51 61.718 0.986 8.04 72.84 7.99
5/17/2021 10:45:00 PM 16.39 61.502 0.853 8.03 72.58 7.97
5/17/2021 11:00:00 PM 16.26 61.268 0.988 8.02 74.74 7.93
5/17/2021 11:15:00 PM 16.14 61.052 0.991 8.01 68 7.9
5/17/2021 11:30:00 PM 16.01 60.818 0.994 8 70.04 7.86
5/17/2021 11:45:00 PM 15.89 60.602 0.992 7.99 75.48 7.83
5/18/2021 12:00:00 AM 15.77 60.386 1.002 7.99 74.89 7.81
5/18/2021 12:15:00 AM 15.65 60.17 1.007 7.98 75.59 7.78
5/18/2021 12:30:00 AM 15.54 59.972 1.012 7.98 75.29 7.78
5/18/2021 12:45:00 AM 15.43 59.774 1.014 7.97 74.02 7.75
5/18/2021 1:00:00 AM 15.33 59.594 1.017 7.97 75.99 7.74
5/18/2021 1:15:00 AM 15.23 59.414 1.021 7.97 78.83 7.75
5/18/2021 1:30:00 AM 15.13 59.234 1.024 7.96 77.29 7.75
5/18/2021 1:45:00 AM 15.04 59.072 1.028 7.96 76.46 7.76
5/18/2021 2:00:00 AM 14.94 58.892 1.032 7.96 78.27 7.71
5/18/2021 2:15:00 AM 14.84 58.712 1.033 7.95 75.63 7.74
5/18/2021 2:30:00 AM 14.75 58.55 0.909 7.95 74.58 7.76
5/18/2021 2:45:00 AM 14.67 58.406 1.038 7.95 76.82 7.78
5/18/2021 3:00:00 AM 14.58 58.244 1.023 7.95 73.51 7.8
5/18/2021 3:15:00 AM 14.5 58.1 1.043 7.95 77.81 7.78
5/18/2021 3:30:00 AM 14.42 57.956 1.045 7.96 78.09 7.84
5/18/2021 3:45:00 AM 14.35 57.83 1.047 7.96 76.14 7.84
5/18/2021 4:00:00 AM 14.26 57.668 1.048 7.96 77.21 7.85
5/18/2021 4:15:00 AM 14.19 57.542 1.046 7.96 60.76 7.87
5/18/2021 4:30:00 AM 14.12 57.416 1.044 7.96 61.49 7.9
5/18/2021 4:45:00 AM 14.04 57.272 1.04 7.96 59.11 7.92
5/18/2021 5:00:00 AM 13.97 57.146 1.036 7.96 61.14 7.94
5/18/2021 5:15:00 AM 13.89 57.002 1.029 7.96 60.57 7.97
5/18/2021 5:30:00 AM 13.82 56.876 1.023 7.96 59.35 8
5/18/2021 5:45:00 AM 13.74 56.732 1.015 7.97 60.32 8.02
5/18/2021 6:00:00 AM 13.67 56.606 1.006 7.97 60.3 8.05
5/18/2021 6:15:00 AM 13.59 56.462 0.996 7.97 57.68 8.1
5/18/2021 6:30:00 AM 13.51 56.318 0.986 7.97 57.39 8.13
5/18/2021 6:45:00 AM 13.45 56.21 0.976 7.98 56.94 8.25
5/18/2021 7:00:00 AM 13.39 56.102 0.966 7.99 56.63 8.34
5/18/2021 7:15:00 AM 13.35 56.03 0.956 7.99 45.31 8.44
5/18/2021 7:30:00 AM 13.31 55.958 0.949 8 22.66 8.53
5/18/2021 7:45:00 AM 13.29 55.922 0.942 8.01 22.3 8.64
5/18/2021 8:00:00 AM 13.29 55.922 0.938 8.02 22.13 8.75
5/18/2021 8:15:00 AM 13.31 55.958 0.933 8.03 21.94 8.89
5/18/2021 8:30:00 AM 13.36 56.048 0.928 8.04 21.55 9.04
5/18/2021 8:45:00 AM 13.41 56.138 0.923 8.05 21.46 9.19
5/18/2021 9:00:00 AM 13.48 56.264 0.92 8.07 21.54 9.33
5/18/2021 9:15:00 AM 13.58 56.444 0.918 8.08 21.75 9.5
5/18/2021 9:30:00 AM 13.69 56.642 0.917 8.09 21.89 9.61
5/18/2021 9:45:00 AM 13.82 56.876 0.916 8.11 21.19 9.78
5/18/2021 10:00:00 AM 13.97 57.146 0.917 8.12 22.35 9.9
5/18/2021 10:15:00 AM 14.12 57.416 0.919 8.13 22.4 10.04
5/18/2021 10:30:00 AM 14.29 57.722 0.92 8.14 22.46 10.18
5/18/2021 10:45:00 AM 14.47 58.046 0.922 8.16 22.56 10.29
5/18/2021 11:00:00 AM 14.65 58.37 0.924 8.17 22.59 10.43
5/18/2021 11:15:00 AM 14.85 58.73 0.925 8.19 22.98 10.54
5/18/2021 11:30:00 AM 15.07 59.126 0.925 8.2 22.62 10.68
5/18/2021 11:45:00 AM 15.33 59.594 0.928 8.22 22.37 10.82
5/18/2021 12:00:00 PM 15.62 60.116 0.935 8.24 22.3 10.93
5/18/2021 12:15:00 PM 15.93 60.674 0.948 8.26 22.38 11.04
5/18/2021 12:30:00 PM 16.27 61.286 0.967 8.27 22.38 11.12
5/18/2021 12:45:00 PM 16.63 61.934 0.998 8.28 22.2 11.19
5/18/2021 1:00:00 PM 17.01 62.618 1.031 8.29 21.99 11.24
5/18/2021 1:15:00 PM 17.39 63.302 1.062 8.3 22.08 11.29
5/18/2021 1:30:00 PM 17.77 63.986 1.088 8.31 22.12 11.3
5/18/2021 1:45:00 PM 18.13 64.634 1.109 8.32 22.3 11.32
5/18/2021 2:00:00 PM 18.45 65.21 1.121 8.33 22.29 11.35
5/18/2021 2:15:00 PM 18.74 65.732 1.127 8.33 22.88 11.3
5/18/2021 2:30:00 PM 18.99 66.182 1.129 8.34 22.43 11.22
5/18/2021 2:45:00 PM 19.22 66.596 1.128 8.34 22.21 11.15
5/18/2021 3:00:00 PM 19.41 66.938 1.125 8.35 22.32 11.07
5/18/2021 3:15:00 PM 19.56 67.208 1.12 8.35 22.15 10.92
5/18/2021 3:30:00 PM 19.69 67.442 1.115 8.35 22.08 10.84
5/18/2021 3:45:00 PM 19.79 67.622 1.082 8.34 22.21 10.7
5/18/2021 4:00:00 PM 19.87 67.766 1.099 8.34 22.35 10.57
5/18/2021 4:15:00 PM 19.95 67.91 1.093 8.34 22.05 10.44
5/18/2021 4:30:00 PM 20 68 1.088 8.33 22.64 10.3
5/18/2021 4:45:00 PM 20.05 68.09 1.079 8.33 22.71 10.16
5/18/2021 5:00:00 PM 20.08 68.144 1.07 8.32 22.71 10.02
5/18/2021 5:15:00 PM 20.08 68.144 1.062 8.32 21.92 9.86
5/18/2021 5:30:00 PM 20.07 68.126 1.055 8.31 23.1 9.72
5/18/2021 5:45:00 PM 20.04 68.07201 1.05 8.3 22.6 9.55
5/18/2021 6:00:00 PM 19.99 67.982 1.047 8.28 22.75 9.41
5/18/2021 6:15:00 PM 19.92 67.856 1.042 8.27 22.75 9.27
5/18/2021 6:30:00 PM 19.84 67.712 1.037 8.26 126.68 9.09
5/18/2021 6:45:00 PM 19.75 67.55 1.02 8.24 12.88 8.95
5/18/2021 7:00:00 PM 19.67 67.406 1.029 8.22 81.61 8.83
5/18/2021 7:15:00 PM 19.57 67.226 1.03 8.21 5.68 8.71
5/18/2021 7:30:00 PM 19.46 67.028 1.031 8.19 6.08 8.57
5/18/2021 7:45:00 PM 19.35 66.83 1.032 8.18 6.47 8.43
5/18/2021 8:00:00 PM 19.23 66.614 1.033 8.16 5.61 8.31
5/18/2021 8:15:00 PM 19.11 66.398 1.034 8.14 5.92 8.19
5/18/2021 8:30:00 PM 18.98 66.164 1.034 8.13 6.16 8.08
5/18/2021 8:45:00 PM 18.85 65.93 1.035 8.12 6.6 7.98
5/18/2021 9:00:00 PM 18.72 65.696 1.035 8.1 6.58 7.91
5/18/2021 9:15:00 PM 18.58 65.444 1.036 8.09 6.62 7.82
5/18/2021 9:30:00 PM 18.44 65.192 1.037 8.08 7.2 7.79
5/18/2021 9:45:00 PM 18.3 64.94 1.037 8.07 6.96 7.74
5/18/2021 10:00:00 PM 18.16 64.688 1.037 8.06 7.46 7.69
5/18/2021 10:15:00 PM 18.01 64.418 1.039 8.05 7.49 7.66
5/18/2021 10:30:00 PM 17.87 64.166 1.042 8.04 7.7 7.62
5/18/2021 10:45:00 PM 17.72 63.896 1.046 8.03 8.05 7.57
5/18/2021 11:00:00 PM 17.56 63.608 1.051 8.01 7.62 7.55
5/18/2021 11:15:00 PM 17.4 63.32 1.054 8.01 8.02 7.5
5/18/2021 11:30:00 PM 17.25 63.05 1.057 8 8.34 7.48
5/18/2021 11:45:00 PM 17.09 62.762 1.06 7.99 9.07 7.47
5/19/2021 12:00:00 AM 16.95 62.51 1.065 7.98 9.31 7.43
5/19/2021 12:15:00 AM 16.81 62.258 1.07 7.97 8.64 7.43
5/19/2021 12:30:00 AM 16.67 62.006 1.075 7.97 8.73 7.39
5/19/2021 12:45:00 AM 16.54 61.772 1.079 7.96 8.33 7.42
5/19/2021 1:00:00 AM 16.41 61.538 1.082 7.96 8.11 7.42
5/19/2021 1:15:00 AM 16.29 61.322 1.084 7.96 8.41 7.41
5/19/2021 1:30:00 AM 16.18 61.124 1.087 7.95 8.62 7.42
5/19/2021 1:45:00 AM 16.06 60.908 1.088 7.95 9.54 7.43
5/19/2021 2:00:00 AM 15.96 60.728 1.091 7.95 8.78 7.41
5/19/2021 2:15:00 AM 15.86 60.548 1.094 7.95 8.95 7.43
5/19/2021 2:30:00 AM 15.76 60.368 1.098 7.94 8.52 7.42
5/19/2021 2:45:00 AM 15.66 60.188 1.101 7.94 8.4 7.45
5/19/2021 3:00:00 AM 15.57 60.026 1.103 7.94 9.41 7.47
5/19/2021 3:15:00 AM 15.48 59.864 1.104 7.94 8.48 7.46
5/19/2021 3:30:00 AM 15.39 59.702 1.106 7.94 9 7.5
5/19/2021 3:45:00 AM 15.3 59.54 1.106 7.94 9.39 7.52
5/19/2021 4:00:00 AM 15.22 59.396 1.104 7.94 8.65 7.55
5/19/2021 4:15:00 AM 15.13 59.234 1.101 7.94 8.77 7.58
5/19/2021 4:30:00 AM 15.04 59.072 1.096 7.94 8.25 7.6
5/19/2021 4:45:00 AM 14.96 58.928 1.088 7.95 8.49 7.63
5/19/2021 5:00:00 AM 14.87 58.766 1.079 7.95 8.66 7.66
5/19/2021 5:15:00 AM 14.78 58.604 1.069 7.95 9.77 7.68
5/19/2021 5:30:00 AM 14.7 58.46 1.057 7.95 8.63 7.72
5/19/2021 5:45:00 AM 14.61 58.298 1.045 7.95 8.33 7.77
5/19/2021 6:00:00 AM 14.52 58.136 1.033 7.96 8.24 7.81
5/19/2021 6:15:00 AM 14.43 57.974 1.021 7.96 8.13 7.87
5/19/2021 6:30:00 AM 14.35 57.83 1.009 7.97 8.1 7.9
5/19/2021 6:45:00 AM 14.28 57.704 0.998 7.97 7.98 8.02
5/19/2021 7:00:00 AM 14.22 57.596 0.986 7.98 8.1 8.1
5/19/2021 7:15:00 AM 14.16 57.488 0.976 7.98 7.56 8.2
5/19/2021 7:30:00 AM 14.12 57.416 0.942 7.99 7.73 8.32
5/19/2021 7:45:00 AM 14.09 57.362 0.958 8 7.79 8.42
5/19/2021 8:00:00 AM 14.08 57.344 0.949 8.01 7.33 8.54
5/19/2021 8:15:00 AM 14.09 57.362 0.941 8.02 6.87 8.68
5/19/2021 8:30:00 AM 14.12 57.416 0.935 8.03 6.97 8.84
5/19/2021 8:45:00 AM 14.17 57.506 0.928 8.05 6.86 9
5/19/2021 9:00:00 AM 14.23 57.614 0.923 8.06 6.88 9.15
5/19/2021 9:15:00 AM 14.31 57.758 0.92 8.08 7.2 9.31
5/19/2021 9:30:00 AM 14.41 57.938 0.919 8.09 7.29 9.45
5/19/2021 9:45:00 AM 14.53 58.154 0.919 8.1 7.18 9.59
5/19/2021 10:00:00 AM 14.67 58.406 0.922 8.11 7.16 9.73
5/19/2021 10:15:00 AM 14.82 58.676 0.926 8.12 6.95 9.89
5/19/2021 10:30:00 AM 14.98 58.964 0.932 8.13 6.92 10.02
5/19/2021 10:45:00 AM 15.15 59.27 0.934 8.15 6.77 10.18
5/19/2021 11:00:00 AM 15.33 59.594 0.934 8.17 6.44 10.31
5/19/2021 11:15:00 AM 15.52 59.936 0.933 8.18 6.66 10.43
5/19/2021 11:30:00 AM 15.73 60.314 0.932 8.2 6.57 10.55
5/19/2021 11:45:00 AM 15.97 60.746 0.931 8.22 6.41 10.66
5/19/2021 12:00:00 PM 16.24 61.232 0.934 8.24 6.31 10.78
5/19/2021 12:15:00 PM 16.53 61.754 0.94 8.25 6.31 10.88
5/19/2021 12:30:00 PM 16.84 62.312 0.95 8.27 6.52 10.99
5/19/2021 12:45:00 PM 17.16 62.888 0.968 8.28 6.23 11.07
5/19/2021 1:00:00 PM 17.51 63.518 0.99 8.3 6.29 11.13
5/19/2021 1:15:00 PM 17.86 64.148 1.014 8.31 6.71 11.19
5/19/2021 1:30:00 PM 18.22 64.796 1.036 8.32 6.41 11.25
5/19/2021 1:45:00 PM 18.55 65.39 1.053 8.33 6.04 11.25
5/19/2021 2:00:00 PM 18.88 65.984 1.065 8.34 5.91 11.26
5/19/2021 2:15:00 PM 19.17 66.506 1.072 8.34 6.09 11.23
5/19/2021 2:30:00 PM 19.42 66.956 1.075 8.35 6.04 11.17
5/19/2021 2:45:00 PM 19.65 67.37 1.077 8.35 6.09 11.09
5/19/2021 3:00:00 PM 19.85 67.73 1.081 8.35 5.95 10.99
5/19/2021 3:15:00 PM 20.03 68.054 1.089 8.35 5.94 10.88
5/19/2021 3:30:00 PM 20.19 68.342 1.101 8.35 6.22 10.75
5/19/2021 3:45:00 PM 20.33 68.594 1.112 8.34 5.93 10.61
5/19/2021 4:00:00 PM 20.45 68.81 1.123 8.33 5.87 10.45
5/19/2021 4:15:00 PM 20.56 69.008 1.13 8.33 5.88 10.33
5/19/2021 4:30:00 PM 20.66 69.188 1.136 8.32 5.94 10.2
5/19/2021 4:45:00 PM 20.74 69.332 1.139 8.32 5.98 10.06
5/19/2021 5:00:00 PM 20.79 69.422 1.14 8.31 5.77 9.89
5/19/2021 5:15:00 PM 20.81 69.458 1.14 8.3 6.19 9.72
5/19/2021 5:30:00 PM 20.82 69.476 1.137 8.29 6.35 9.59
5/19/2021 5:45:00 PM 20.81 69.458 1.133 8.28 6.16 9.43
5/19/2021 6:00:00 PM 20.79 69.422 1.129 8.27 6.35 9.34
5/19/2021 6:15:00 PM 20.73 69.314 1.124 8.26 5.9 9.17
5/19/2021 6:30:00 PM 20.67 69.206 1.117 8.25 6.32 8.95
5/19/2021 6:45:00 PM 20.61 69.098 1.109 8.24 6.24 8.89
5/19/2021 7:00:00 PM 20.54 68.972 1.099 8.22 5.84 8.76
5/19/2021 7:15:00 PM 20.46 68.828 1.089 8.21 5.84 8.61
5/19/2021 7:30:00 PM 20.37 68.666 1.081 8.19 5.97 8.47
5/19/2021 7:45:00 PM 20.27 68.486 1.074 8.18 5.54 8.33
5/19/2021 8:00:00 PM 20.17 68.306 1.069 8.16 5.65 8.2
5/19/2021 8:15:00 PM 20.07 68.126 1.07 8.15 5.51 8.05
5/19/2021 8:30:00 PM 19.96 67.92799 1.07 8.13 6.4 7.92
5/19/2021 8:45:00 PM 19.84 67.712 1.069 8.11 6.62 7.81
5/19/2021 9:00:00 PM 19.71 67.478 1.07 8.1 7.01 7.72
5/19/2021 9:15:00 PM 19.58 67.244 1.07 8.09 6.93 7.65
5/19/2021 9:30:00 PM 19.44 66.992 1.069 8.07 7.45 7.57
5/19/2021 9:45:00 PM 19.3 66.74 1.072 8.06 7.19 7.51
5/19/2021 10:00:00 PM 19.15 66.47 1.076 8.05 8.45 7.45
5/19/2021 10:15:00 PM 19 66.2 1.08 8.04 7.66 7.42
5/19/2021 10:30:00 PM 18.85 65.93 1.085 8.03 7.66 7.37
5/19/2021 10:45:00 PM 18.71 65.67799 1.089 8.02 7.75 7.34
5/19/2021 11:00:00 PM 18.56 65.408 1.092 8.01 8.41 7.28
5/19/2021 11:15:00 PM 18.41 65.138 1.095 8 7.85 7.25
5/19/2021 11:30:00 PM 18.26 64.868 1.097 7.99 8.38 7.21
5/19/2021 11:45:00 PM 18.12 64.616 1.098 7.98 8.45 7.19
5/20/2021 12:00:00 AM 17.99 64.382 1.099 7.97 8.19 7.16
5/20/2021 12:15:00 AM 17.85 64.13 1.1 7.96 8.58 7.14
5/20/2021 12:30:00 AM 17.72 63.896 1.1 7.96 8.72 7.13
5/20/2021 12:45:00 AM 17.59 63.662 1.101 7.95 8.43 7.08
5/20/2021 1:00:00 AM 17.46 63.428 1.101 7.95 8.34 7.11
5/20/2021 1:15:00 AM 17.33 63.194 1.101 7.94 8.63 7.1
5/20/2021 1:30:00 AM 17.21 62.978 1.102 7.94 8.61 7.09
5/20/2021 1:45:00 AM 17.09 62.762 1.103 7.93 8.84 7.1
5/20/2021 2:00:00 AM 16.97 62.546 1.102 7.93 8.89 7.11
5/20/2021 2:15:00 AM 16.86 62.348 1.103 7.93 9.23 7.12
5/20/2021 2:30:00 AM 16.76 62.168 1.103 7.93 9.37 7.15
5/20/2021 2:45:00 AM 16.65 61.97 1.103 7.93 9.34 7.08
5/20/2021 3:00:00 AM 16.55 61.79 1.103 7.93 9.26 7.19
5/20/2021 3:15:00 AM 16.44 61.592 1.104 7.93 8.51 7.18
5/20/2021 3:30:00 AM 16.35 61.43 1.105 7.93 8.51 7.22
5/20/2021 3:45:00 AM 16.25 61.25 1.105 7.93 8.74 7.21
5/20/2021 4:00:00 AM 16.16 61.088 1.106 7.93 8.87 7.24
5/20/2021 4:15:00 AM 16.07 60.926 1.105 7.93 8.72 7.21
5/20/2021 4:30:00 AM 15.98 60.764 1.104 7.93 8.82 7.3
5/20/2021 4:45:00 AM 15.89 60.602 1.101 7.93 8.67 7.33
5/20/2021 5:00:00 AM 15.81 60.458 1.097 7.93 8.45 7.37
5/20/2021 5:15:00 AM 15.72 60.296 1.093 7.93 8.59 7.4
5/20/2021 5:30:00 AM 15.64 60.152 1.086 7.94 8.27 7.41
5/20/2021 5:45:00 AM 15.55 59.99 1.08 7.94 8.67 7.38
5/20/2021 6:00:00 AM 15.47 59.846 1.071 7.94 8.83 7.34
5/20/2021 6:15:00 AM 15.39 59.702 1.062 7.94 8.6 7.54
5/20/2021 6:30:00 AM 15.3 59.54 1.051 7.95 8.32 7.53
5/20/2021 6:45:00 AM 15.23 59.414 1.04 7.95 7.76 7.71
5/20/2021 7:00:00 AM 15.16 59.288 1.028 7.96 7.8 7.81
5/20/2021 7:15:00 AM 15.11 59.198 1.018 7.97 7.75 7.93
5/20/2021 7:30:00 AM 15.07 59.126 1.007 7.98 7.14 8.04
5/20/2021 7:45:00 AM 15.03 59.054 0.998 7.98 7.14 8.14
5/20/2021 8:00:00 AM 15 59 0.989 7.99 7.57 8.24
5/20/2021 8:15:00 AM 15.01 59.018 0.98 8.01 7.29 8.44
5/20/2021 8:30:00 AM 15.03 59.054 0.973 8.02 6.97 8.6
5/20/2021 8:45:00 AM 15.06 59.108 0.966 8.03 7.3 8.77
5/20/2021 9:00:00 AM 15.11 59.198 0.96 8.04 7.37 8.93
5/20/2021 9:15:00 AM 15.18 59.324 0.957 8.06 6.97 9.09
5/20/2021 9:30:00 AM 15.27 59.486 0.955 8.07 6.92 9.27
5/20/2021 9:45:00 AM 15.36 59.648 0.956 8.09 6.93 9.44
5/20/2021 10:00:00 AM 15.46 59.828 0.957 8.11 7.42 9.6
5/20/2021 10:15:00 AM 15.59 60.062 0.961 8.12 7.47 9.79
5/20/2021 10:30:00 AM 15.73 60.314 0.966 8.14 7.07 9.96
5/20/2021 10:45:00 AM 15.88 60.584 0.971 8.15 6.86 10.11
5/20/2021 11:00:00 AM 16.05 60.89 0.975 8.17 7.34 10.26
5/20/2021 11:15:00 AM 16.24 61.232 0.975 8.19 7.24 10.4
5/20/2021 11:30:00 AM 16.44 61.592 0.975 8.2 7.31 10.54
5/20/2021 11:45:00 AM 16.65 61.97 0.977 8.22 6.9 10.66
5/20/2021 12:00:00 PM 16.89 62.402 0.974 8.24 5.64 10.81
5/20/2021 12:15:00 PM 17.15 62.87 0.978 8.26 5.44 10.94
5/20/2021 12:30:00 PM 17.36 63.248 0.986 8.27 5.45 10.94
5/20/2021 12:45:00 PM 17.67 63.806 1.001 8.29 5.58 11.07
5/20/2021 1:00:00 PM 17.97 64.346 1.022 8.31 5.61 11.16
5/20/2021 1:15:00 PM 18.27 64.886 1.045 8.32 5.75 11.24
5/20/2021 1:30:00 PM 18.57 65.426 1.068 8.33 5.59 11.29
5/20/2021 1:45:00 PM 18.93 66.074 1.087 8.34 5.63 11.33
5/20/2021 2:00:00 PM 19.23 66.614 1.103 8.35 5.89 11.36
5/20/2021 2:15:00 PM 19.49 67.082 1.118 8.36 5.75 11.31
5/20/2021 2:30:00 PM 19.75 67.55 1.133 8.37 5.96 11.26
5/20/2021 2:45:00 PM 19.98 67.964 1.147 8.37 5.74 11.18
5/20/2021 3:00:00 PM 20.2 68.36 1.159 8.37 5.89 11.06
5/20/2021 3:15:00 PM 20.37 68.666 1.166 8.37 5.99 10.92
5/20/2021 3:30:00 PM 20.53 68.954 1.17 8.36 6.14 10.79
5/20/2021 3:45:00 PM 20.66 69.188 1.173 8.36 6.57 10.66
5/20/2021 4:00:00 PM 20.78 69.404 1.173 8.35 6.46 10.52
5/20/2021 4:15:00 PM 20.88 69.584 1.173 8.35 6.58 10.37
5/20/2021 4:30:00 PM 20.96 69.728 1.172 8.34 5.9 10.23
5/20/2021 4:45:00 PM 21.02 69.836 1.171 8.34 5.56 10.1
5/20/2021 5:00:00 PM 21.05 69.89 1.17 8.33 5.92 9.93
5/20/2021 5:15:00 PM 21.06 69.908 1.168 8.32 5.91 9.75
5/20/2021 5:30:00 PM 21.04 69.872 1.164 8.31 5.66 9.6
5/20/2021 5:45:00 PM 21 69.8 1.155 8.3 5.51 9.43
5/20/2021 6:00:00 PM 20.94 69.692 1.142 8.29 5.92 9.27
5/20/2021 6:15:00 PM 20.87 69.566 1.129 8.28 5.71 9.1
5/20/2021 6:30:00 PM 20.79 69.422 1.117 8.26 5.59 8.95
5/20/2021 6:45:00 PM 20.69 69.242 1.108 8.25 6.15 8.77
5/20/2021 7:00:00 PM 20.6 69.08 1.101 8.23 5.62 8.63
5/20/2021 7:15:00 PM 20.49 68.882 1.097 8.22 5.8 8.49
5/20/2021 7:30:00 PM 20.37 68.666 1.094 8.2 5.57 8.34
5/20/2021 7:45:00 PM 20.27 68.486 1.093 8.19 5.54 8.21
5/20/2021 8:00:00 PM 20.16 68.288 1.092 8.17 5.65 8.09
5/20/2021 8:15:00 PM 20.06 68.108 1.091 8.15 5.7 7.97
5/20/2021 8:30:00 PM 19.94 67.892 1.09 8.14 5.72 7.86
5/20/2021 8:45:00 PM 19.82 67.676 1.089 8.12 6.28 7.77
5/20/2021 9:00:00 PM 19.71 67.478 1.089 8.11 6.72 7.67
5/20/2021 9:15:00 PM 19.58 67.244 1.089 8.1 6.99 7.6
5/20/2021 9:30:00 PM 19.44 66.992 1.088 8.08 7.11 7.54
5/20/2021 9:45:00 PM 19.3 66.74 1.089 8.07 7.47 7.49
5/20/2021 10:00:00 PM 19.16 66.488 1.09 8.06 7.65 7.45
5/20/2021 10:15:00 PM 19.01 66.218 1.091 8.05 7.93 7.41
5/20/2021 10:30:00 PM 18.85 65.93 1.092 8.04 7.74 7.36
5/20/2021 10:45:00 PM 18.69 65.642 1.095 8.03 7.62 7.33
5/20/2021 11:00:00 PM 18.51 65.318 1.098 8.02 7.69 7.32
5/20/2021 11:15:00 PM 18.34 65.012 1.102 8.01 8.12 7.27
5/20/2021 11:30:00 PM 18.17 64.706 1.107 8 8.49 7.24
5/20/2021 11:45:00 PM 18 64.4 1.112 7.99 8.7 7.22
5/21/2021 12:00:00 AM 17.83 64.094 1.117 7.99 8.83 7.2
5/21/2021 12:15:00 AM 17.67 63.806 1.12 7.98 8.92 7.18
5/21/2021 12:30:00 AM 17.51 63.518 1.123 7.97 9.56 7.18
5/21/2021 12:45:00 AM 17.36 63.248 1.126 7.97 19.26 7.18
5/21/2021 1:00:00 AM 17.21 62.978 1.129 7.96 10.33 7.18
5/21/2021 1:15:00 AM 17.06 62.708 1.132 7.96 9.97 7.19
5/21/2021 1:30:00 AM 16.92 62.456 1.136 7.96 10.12 7.2
5/21/2021 1:45:00 AM 16.78 62.204 1.141 7.96 10.32 7.22
5/21/2021 2:00:00 AM 16.65 61.97 1.145 7.95 9.33 7.23
5/21/2021 2:15:00 AM 16.51 61.718 1.148 7.95 9.91 7.25
5/21/2021 2:30:00 AM 16.39 61.502 1.151 7.95 9.69 7.27
5/21/2021 2:45:00 AM 16.26 61.268 1.153 7.95 9.38 7.29
5/21/2021 3:00:00 AM 16.14 61.052 1.154 7.95 9.98 7.32
5/21/2021 3:15:00 AM 16.03 60.854 1.155 7.95 9.79 7.34
5/21/2021 3:30:00 AM 15.91 60.638 1.155 7.95 9.92 7.38
5/21/2021 3:45:00 AM 15.8 60.44 1.154 7.95 9.54 7.4
5/21/2021 4:00:00 AM 15.69 60.242 1.152 7.96 9.89 7.42
5/21/2021 4:15:00 AM 15.59 60.062 1.149 7.96 10.94 7.45
5/21/2021 4:30:00 AM 15.49 59.882 1.145 7.96 10.45 7.48
5/21/2021 4:45:00 AM 15.39 59.702 1.141 7.96 10.75 7.51
5/21/2021 5:00:00 AM 15.29 59.522 1.136 7.96 11.79 7.55
5/21/2021 5:15:00 AM 15.19 59.342 1.13 7.96 11.7 7.58
5/21/2021 5:30:00 AM 15.09 59.162 1.124 7.96 11.63 7.61
5/21/2021 5:45:00 AM 15 59 1.117 7.97 11.55 7.64
5/21/2021 6:00:00 AM 14.91 58.838 1.108 7.97 10.26 7.68
5/21/2021 6:15:00 AM 14.82 58.676 1.098 7.97 9.79 7.74
5/21/2021 6:30:00 AM 14.74 58.532 1.088 7.97 10.13 7.82
5/21/2021 6:45:00 AM 14.65 58.37 1.076 7.98 9.58 7.89
5/21/2021 7:00:00 AM 14.59 58.262 1.064 7.99 9.92 7.99
5/21/2021 7:15:00 AM 14.52 58.136 1.052 7.99 8.89 8.09
5/21/2021 7:30:00 AM 14.47 58.046 1.039 8 9.11 8.2
5/21/2021 7:45:00 AM 14.43 57.974 1.027 8.01 9.31 8.32
5/21/2021 8:00:00 AM 14.4 57.92 1.016 8.02 8.21 8.45
5/21/2021 8:15:00 AM 14.4 57.92 1.006 8.03 8.57 8.6
5/21/2021 8:30:00 AM 14.42 57.956 0.999 8.05 8.87 8.76
5/21/2021 8:45:00 AM 14.46 58.028 0.993 8.06 8.39 8.93
5/21/2021 9:00:00 AM 14.5 58.1 0.988 8.08 7.52 9.09
5/21/2021 9:15:00 AM 14.57 58.226 0.984 8.09 7.44 9.25
5/21/2021 9:30:00 AM 14.64 58.352 0.98 8.1 8.28 9.4
5/21/2021 9:45:00 AM 14.74 58.532 0.98 8.12 8.04 9.56
5/21/2021 10:00:00 AM 14.85 58.73 0.981 8.13 8.22 9.71
5/21/2021 10:15:00 AM 14.97 58.946 0.982 8.14 8.51 9.87
5/21/2021 10:30:00 AM 15.1 59.18 0.982 8.16 8.32 10.02
5/21/2021 10:45:00 AM 15.24 59.432 0.983 8.17 8.12 10.16
5/21/2021 11:00:00 AM 15.4 59.72 0.984 8.18 7.59 10.29
5/21/2021 11:15:00 AM 15.56 60.008 0.983 8.2 7.65 10.41
5/21/2021 11:30:00 AM 15.74 60.332 0.981 8.21 7.63 10.54
5/21/2021 11:45:00 AM 15.94 60.692 0.978 8.23 8.06 10.69
5/21/2021 12:00:00 PM 16.16 61.088 0.975 8.25 8.15 10.82
5/21/2021 12:15:00 PM 16.42 61.556 0.974 8.27 8.27 10.96
5/21/2021 12:30:00 PM 16.69 62.042 0.978 8.29 7.84 11.08
5/21/2021 12:45:00 PM 16.97 62.546 0.986 8.31 8.05 11.17
5/21/2021 1:00:00 PM 17.28 63.104 1 8.32 9.34 11.25
5/21/2021 1:15:00 PM 17.6 63.68 1.018 8.34 9.79 11.32
5/21/2021 1:30:00 PM 17.93 64.274 1.04 8.35 8.13 11.38
5/21/2021 1:45:00 PM 18.25 64.85 1.061 8.36 7.63 11.4
5/21/2021 2:00:00 PM 18.56 65.408 1.078 8.37 7.83 11.39
5/21/2021 2:15:00 PM 18.84 65.912 1.091 8.37 7.43 11.38
5/21/2021 2:30:00 PM 19.1 66.38 1.099 8.38 7.82 11.31
5/21/2021 2:45:00 PM 19.34 66.812 1.103 8.39 7.77 11.24
5/21/2021 3:00:00 PM 19.55 67.19 1.106 8.39 7.73 11.12
5/21/2021 3:15:00 PM 19.74 67.532 1.108 8.39 7.49 11.01
5/21/2021 3:30:00 PM 19.9 67.82 1.11 8.38 7.32 10.89
5/21/2021 3:45:00 PM 20.05 68.09 1.112 8.38 7.54 10.75
5/21/2021 4:00:00 PM 20.18 68.324 1.113 8.38 7.14 10.63
5/21/2021 4:15:00 PM 20.29 68.522 1.115 8.37 7.23 10.49
5/21/2021 4:30:00 PM 20.4 68.72 1.115 8.37 7.47 10.35
5/21/2021 4:45:00 PM 20.49 68.882 1.116 8.36 7.32 10.21
5/21/2021 5:00:00 PM 20.56 69.008 1.118 8.35 7.08 10.06
5/21/2021 5:15:00 PM 20.61 69.098 1.119 8.34 7.04 9.91
5/21/2021 5:30:00 PM 20.64 69.152 1.12 8.33 7.1 9.75
5/21/2021 5:45:00 PM 20.65 69.17 1.12 8.32 6.98 9.59
5/21/2021 6:00:00 PM 20.65 69.17 1.119 8.31 6.95 9.44
5/21/2021 6:15:00 PM 20.62 69.116 1.118 8.3 7.79 9.28
5/21/2021 6:30:00 PM 20.58 69.044 1.117 8.28 7.23 9.12
5/21/2021 6:45:00 PM 20.54 68.972 1.117 8.27 7.07 8.99
5/21/2021 7:00:00 PM 20.49 68.882 1.116 8.26 7.17 8.83
5/21/2021 7:15:00 PM 20.42 68.756 1.116 8.24 6.91 8.68
5/21/2021 7:30:00 PM 20.35 68.63 1.117 8.22 6.87 8.53
5/21/2021 7:45:00 PM 20.27 68.486 1.118 8.2 7.03 8.37
5/21/2021 8:00:00 PM 20.19 68.342 1.118 8.18 7.27 8.22
5/21/2021 8:15:00 PM 20.1 68.18 1.118 8.16 7.18 8.08
5/21/2021 8:30:00 PM 20.01 68.018 1.118 8.15 7.17 7.95
5/21/2021 8:45:00 PM 19.91 67.838 1.117 8.13 7.7 7.84
5/21/2021 9:00:00 PM 19.8 67.64 1.116 8.12 7.89 7.74
5/21/2021 9:15:00 PM 19.69 67.442 1.115 8.1 9.41 7.66
5/21/2021 9:30:00 PM 19.57 67.226 1.115 8.09 8.82 7.6
5/21/2021 9:45:00 PM 19.45 67.01 1.115 8.08 7.91 7.54
5/21/2021 10:00:00 PM 19.33 66.794 1.116 8.07 8.09 7.47
5/21/2021 10:15:00 PM 19.2 66.56 1.117 8.06 7.59 7.41
5/21/2021 10:30:00 PM 19.07 66.326 1.118 8.05 7.72 7.36
5/21/2021 10:45:00 PM 18.95 66.11 1.119 8.04 8.09 7.33
5/21/2021 11:00:00 PM 18.82 65.876 1.121 8.03 7.72 7.28
5/21/2021 11:15:00 PM 18.69 65.642 1.123 8.02 8.43 7.24
5/21/2021 11:30:00 PM 18.55 65.39 1.126 8.01 8.14 7.21
5/21/2021 11:45:00 PM 18.43 65.174 1.128 8 8.44 7.16
5/22/2021 12:00:00 AM 18.29 64.922 1.13 7.99 8.64 7.14
5/22/2021 12:15:00 AM 18.16 64.688 1.133 7.99 8.77 7.11
5/22/2021 12:30:00 AM 18.03 64.454 1.135 7.98 9.18 7.09
5/22/2021 12:45:00 AM 17.9 64.22 1.136 7.97 9.03 7.08
5/22/2021 1:00:00 AM 17.77 63.986 1.137 7.97 9.26 7.07
5/22/2021 1:15:00 AM 17.65 63.77 1.137 7.96 9.48 7.07
5/22/2021 1:30:00 AM 17.53 63.554 1.136 7.96 9.51 7.08
5/22/2021 1:45:00 AM 17.41 63.338 1.135 7.96 9.4 7.08
5/22/2021 2:00:00 AM 17.3 63.14 1.133 7.96 9.63 7.09
5/22/2021 2:15:00 AM 17.19 62.942 1.132 7.95 10.65 7.11
5/22/2021 2:30:00 AM 17.09 62.762 1.131 7.95 10.05 7.1
5/22/2021 2:45:00 AM 16.98 62.564 1.131 7.95 10.28 7.12
5/22/2021 3:00:00 AM 16.88 62.384 1.13 7.95 10.39 7.14
5/22/2021 3:15:00 AM 16.78 62.204 1.13 7.95 10.24 7.16
5/22/2021 3:30:00 AM 16.69 62.042 1.13 7.95 9.68 7.17
5/22/2021 3:45:00 AM 16.6 61.88 1.13 7.95 9.86 7.19
5/22/2021 4:00:00 AM 16.51 61.718 1.13 7.95 10.01 7.21
5/22/2021 4:15:00 AM 16.42 61.556 1.13 7.95 10.28 7.24
5/22/2021 4:30:00 AM 16.34 61.412 1.129 7.95 10.85 7.25
5/22/2021 4:45:00 AM 16.27 61.286 1.128 7.95 11.48 7.27
5/22/2021 5:00:00 AM 16.19 61.142 1.126 7.95 11.22 7.29
5/22/2021 5:15:00 AM 16.11 60.998 1.123 7.95 11.3 7.31
5/22/2021 5:30:00 AM 16.03 60.854 1.12 7.95 11.09 7.31
5/22/2021 5:45:00 AM 15.95 60.71 1.115 7.95 10.48 7.35
5/22/2021 6:00:00 AM 15.88 60.584 1.11 7.95 10.26 7.36
5/22/2021 6:15:00 AM 15.81 60.458 1.105 7.95 11.04 7.42
5/22/2021 6:30:00 AM 15.74 60.332 1.099 7.96 10.61 7.5
5/22/2021 6:45:00 AM 15.69 60.242 1.091 7.96 10.94 7.56
5/22/2021 7:00:00 AM 15.64 60.152 1.082 7.97 10.49 7.66
5/22/2021 7:15:00 AM 15.59 60.062 1.072 7.98 9.72 7.75
5/22/2021 7:30:00 AM 15.56 60.008 1.061 7.99 9.58 7.9
5/22/2021 7:45:00 AM 15.54 59.972 1.05 8 9.38 8.05
5/22/2021 8:00:00 AM 15.52 59.936 1.038 8.01 9.45 8.18
5/22/2021 8:15:00 AM 15.53 59.954 1.028 8.02 9.22 8.36
5/22/2021 8:30:00 AM 15.57 60.026 1.017 8.04 9.33 8.63
5/22/2021 8:45:00 AM 15.61 60.098 1.008 8.06 9.52 8.84
5/22/2021 9:00:00 AM 15.66 60.188 1 8.08 9.28 9.05
5/22/2021 9:15:00 AM 15.72 60.296 0.993 8.09 9.03 9.19
5/22/2021 9:30:00 AM 15.78 60.404 0.988 8.11 8.96 9.3
5/22/2021 9:45:00 AM 15.87 60.566 0.985 8.13 8.78 9.52
5/22/2021 10:00:00 AM 15.96 60.728 0.985 8.14 8.96 9.69
5/22/2021 10:15:00 AM 16.06 60.908 0.987 8.16 9.33 9.84
5/22/2021 10:30:00 AM 16.18 61.124 0.989 8.17 8.7 9.99
5/22/2021 10:45:00 AM 16.29 61.322 0.992 8.19 8.87 10.11
5/22/2021 11:00:00 AM 16.44 61.592 0.995 8.2 9.2 10.23
5/22/2021 11:15:00 AM 16.6 61.88 0.996 8.21 9.22 10.38
5/22/2021 11:30:00 AM 16.7 62.06 0.996 8.23 8.88 10.47
5/22/2021 11:45:00 AM 16.86 62.348 0.995 8.24 8.65 10.6
5/22/2021 12:00:00 PM 17.02 62.636 0.993 8.26 8.55 10.67
5/22/2021 12:15:00 PM 17.21 62.978 0.991 8.28 8.44 10.82
5/22/2021 12:30:00 PM 17.43 63.374 0.99 8.3 8.32 10.99
5/22/2021 12:45:00 PM 17.67 63.806 0.989 8.32 8.46 11.12
5/22/2021 1:00:00 PM 17.97 64.346 0.989 8.34 8.47 11.22
5/22/2021 1:15:00 PM 18.27 64.886 0.991 8.36 8.81 11.28
5/22/2021 1:30:00 PM 18.53 65.354 0.995 8.37 8.83 11.3
5/22/2021 1:45:00 PM 18.75 65.75 1.003 8.38 8.61 11.28
5/22/2021 2:00:00 PM 18.91 66.038 1.016 8.38 8.89 11.15
5/22/2021 2:15:00 PM 19.05 66.29 1.031 8.38 9.13 11
5/22/2021 2:30:00 PM 19.18 66.524 1.048 8.37 10.05 10.87
5/22/2021 2:45:00 PM 19.29 66.722 1.065 8.37 9.75 10.81
5/22/2021 3:00:00 PM 19.41 66.938 1.081 8.37 9.92 10.76
5/22/2021 3:15:00 PM 19.56 67.208 1.095 8.38 9.63 10.71
5/22/2021 3:30:00 PM 19.69 67.442 1.109 8.37 9.41 10.58
5/22/2021 3:45:00 PM 19.8 67.64 1.121 8.36 9.82 10.4
5/22/2021 4:00:00 PM 19.93 67.874 1.133 8.36 8.96 10.35
5/22/2021 4:15:00 PM 20.02 68.036 1.142 8.35 9 10.2
5/22/2021 4:30:00 PM 20.08 68.144 1.15 8.35 8.93 10.01
5/22/2021 4:45:00 PM 20.15 68.27 1.157 8.34 8.9 10
5/22/2021 5:00:00 PM 20.18 68.324 1.161 8.33 8.52 9.85
5/22/2021 5:15:00 PM 20.21 68.378 1.162 8.32 9 9.68
5/22/2021 5:30:00 PM 20.25 68.45 1.158 8.32 8.52 9.58
5/22/2021 5:45:00 PM 20.28 68.504 1.151 8.3 8.74 9.4
5/22/2021 6:00:00 PM 20.29 68.522 1.142 8.29 8.89 9.24
5/22/2021 6:15:00 PM 20.29 68.522 1.134 8.28 8.83 9.13
5/22/2021 6:30:00 PM 20.27 68.486 1.129 8.27 8.79 9.02
5/22/2021 6:45:00 PM 20.22 68.396 1.125 8.25 8.58 8.9
5/22/2021 7:00:00 PM 20.15 68.27 1.122 8.24 8.62 8.75
5/22/2021 7:15:00 PM 20.09 68.162 1.122 8.22 8.33 8.6
5/22/2021 7:30:00 PM 20.02 68.036 1.123 8.21 8.52 8.46
5/22/2021 7:45:00 PM 19.95 67.91 1.125 8.19 8.25 8.31
5/22/2021 8:00:00 PM 19.88 67.784 1.128 8.17 8.49 8.14
5/22/2021 8:15:00 PM 19.79 67.622 1.131 8.15 8.5 8
5/22/2021 8:30:00 PM 19.71 67.478 1.134 8.13 8.78 7.87
5/22/2021 8:45:00 PM 19.62 67.316 1.136 8.12 9.22 7.75
5/22/2021 9:00:00 PM 19.54 67.172 1.137 8.1 9.63 7.64
5/22/2021 9:15:00 PM 19.46 67.028 1.137 8.09 10.11 7.53
5/22/2021 9:30:00 PM 19.36 66.848 1.135 8.08 10.42 7.49
5/22/2021 9:45:00 PM 19.28 66.704 1.132 8.06 9.95 7.44
5/22/2021 10:00:00 PM 19.19 66.542 1.129 8.05 10.13 7.37
5/22/2021 10:15:00 PM 19.1 66.38 1.126 8.04 9.96 7.32
5/22/2021 10:30:00 PM 19 66.2 1.125 8.04 10.04 7.28
5/22/2021 10:45:00 PM 18.9 66.02 1.043 8.03 9.72 7.26
5/22/2021 11:00:00 PM 18.81 65.858 1.128 8.02 9.75 7.21
5/22/2021 11:15:00 PM 18.71 65.67799 1.133 8.01 9.97 7.16
5/22/2021 11:30:00 PM 18.61 65.498 1.138 8 10.59 7.11
5/22/2021 11:45:00 PM 18.51 65.318 1.144 7.99 9.74 7.06
5/23/2021 12:00:00 AM 18.41 65.138 1.15 7.99 9.3 7.05
5/23/2021 12:15:00 AM 18.32 64.976 1.155 7.98 9.6 7
5/23/2021 12:30:00 AM 18.22 64.796 1.158 7.97 9.77 6.95
5/23/2021 12:45:00 AM 18.13 64.634 1.159 7.97 9.81 6.96
5/23/2021 1:00:00 AM 18.04 64.472 1.159 7.96 9.53 6.94
5/23/2021 1:15:00 AM 17.96 64.328 1.159 7.96 9.48 6.93
5/23/2021 1:30:00 AM 17.88 64.184 1.16 7.95 9.71 6.93
5/23/2021 1:45:00 AM 17.8 64.04 1.161 7.95 9.42 6.92
5/23/2021 2:00:00 AM 17.73 63.914 1.162 7.94 9.64 6.93
5/23/2021 2:15:00 AM 17.66 63.788 1.162 7.94 9.61 6.92
5/23/2021 2:30:00 AM 17.6 63.68 1.162 7.94 9.64 6.9
5/23/2021 2:45:00 AM 17.53 63.554 1.161 7.94 9.41 6.93
5/23/2021 3:00:00 AM 17.47 63.446 1.159 7.94 9.3 6.93
5/23/2021 3:15:00 AM 17.41 63.338 1.157 7.93 9.57 6.96
5/23/2021 3:30:00 AM 17.35 63.23 1.155 7.93 9.89 6.96
5/23/2021 3:45:00 AM 17.29 63.122 1.154 7.93 9.72 6.96
5/23/2021 4:00:00 AM 17.23 63.014 1.153 7.93 9.43 6.99
5/23/2021 4:15:00 AM 17.17 62.906 1.151 7.93 9.76 6.99
5/23/2021 4:30:00 AM 17.12 62.816 1.149 7.93 10.04 7.01
5/23/2021 4:45:00 AM 17.06 62.708 1.147 7.93 10.13 7.01
5/23/2021 5:00:00 AM 17.01 62.618 1.144 7.93 10.18 7.02
5/23/2021 5:15:00 AM 16.95 62.51 1.14 7.93 10.33 7.05
5/23/2021 5:30:00 AM 16.9 62.42 1.136 7.93 9.81 7.07
5/23/2021 5:45:00 AM 16.85 62.33 1.133 7.93 9.8 7.09
5/23/2021 6:00:00 AM 16.8 62.24 1.128 7.93 9.59 7.12
5/23/2021 6:15:00 AM 16.75 62.15 1.122 7.93 9.26 7.15
5/23/2021 6:30:00 AM 16.7 62.06 1.114 7.94 9.39 7.2
5/23/2021 6:45:00 AM 16.65 61.97 1.104 7.94 9.23 7.25
5/23/2021 7:00:00 AM 16.61 61.898 1.094 7.95 9.01 7.34
5/23/2021 7:15:00 AM 16.56 61.808 1.084 7.95 9.22 7.43
5/23/2021 7:30:00 AM 16.53 61.754 1.074 7.96 8.86 7.51
5/23/2021 7:45:00 AM 16.5 61.7 1.065 7.97 9.17 7.61
5/23/2021 8:00:00 AM 16.5 61.7 1.055 7.98 8.58 7.73
5/23/2021 8:15:00 AM 16.5 61.7 1.046 7.99 8.7 7.83
5/23/2021 8:30:00 AM 16.53 61.754 1.038 8 8.47 8.02
5/23/2021 8:45:00 AM 16.58 61.844 1.031 8.02 8.63 8.2
5/23/2021 9:00:00 AM 16.63 61.934 1.025 8.04 8.28 8.37
5/23/2021 9:15:00 AM 16.69 62.042 1.02 8.05 9.78 8.53
5/23/2021 9:30:00 AM 16.77 62.186 1.016 8.07 8.79 8.71
5/23/2021 9:45:00 AM 16.86 62.348 1.013 8.08 8.59 8.87
5/23/2021 10:00:00 AM 16.98 62.564 1.012 8.1 9.12 9.02
5/23/2021 10:15:00 AM 17.1 62.78 1.012 8.12 8.94 9.21
5/23/2021 10:30:00 AM 17.25 63.05 1.012 8.13 9.17 9.35
5/23/2021 10:45:00 AM 17.4 63.32 1.011 8.15 9.3 9.5
5/23/2021 11:00:00 AM 17.55 63.59 1.009 8.16 8.68 9.63
5/23/2021 11:15:00 AM 17.72 63.896 1.008 8.18 8.83 9.74
5/23/2021 11:30:00 AM 17.89 64.202 1.006 8.19 8.6 9.89
5/23/2021 11:45:00 AM 18.06 64.508 1.003 8.21 9.22 10
5/23/2021 12:00:00 PM 18.25 64.85 0.999 8.22 10.2 10.12
5/23/2021 12:15:00 PM 18.47 65.246 0.995 8.24 9.97 10.28
5/23/2021 12:30:00 PM 18.68 65.624 0.989 8.26 9.74 10.36
5/23/2021 12:45:00 PM 18.88 65.984 0.984 8.28 9.7 10.43
5/23/2021 1:00:00 PM 19.11 66.398 0.98 8.29 11.26 10.48
5/23/2021 1:15:00 PM 19.36 66.848 0.98 8.31 11.64 10.56
5/23/2021 1:30:00 PM 19.65 67.37 0.983 8.33 12.74 10.74
5/23/2021 1:45:00 PM 19.91 67.838 0.991 8.35 9.58 10.82
5/23/2021 2:00:00 PM 20.12 68.216 1.004 8.35 9.19 10.74
5/23/2021 2:15:00 PM 20.36 68.648 1.022 8.36 9.17 10.71
5/23/2021 2:30:00 PM 20.52 68.936 1.044 8.36 9.19 10.54
5/23/2021 2:45:00 PM 20.76 69.368 1.067 8.36 9.09 10.54
5/23/2021 3:00:00 PM 20.95 69.71 1.09 8.36 9.26 10.48
5/23/2021 3:15:00 PM 21.18 70.124 1.111 8.37 9.06 10.46
5/23/2021 3:30:00 PM 21.33 70.394 1.129 8.36 9.17 10.27
5/23/2021 3:45:00 PM 21.49 70.682 1.144 8.36 9.05 10.16
5/23/2021 4:00:00 PM 21.6 70.88 1.154 8.35 8.71 9.96
5/23/2021 4:15:00 PM 21.74 71.132 1.162 8.34 8.18 9.85
5/23/2021 4:30:00 PM 21.79 71.222 1.167 8.34 8.33 9.72
5/23/2021 4:45:00 PM 21.85 71.33 1.171 8.33 8.65 9.56
5/23/2021 5:00:00 PM 21.9 71.42 1.174 8.32 9.01 9.44
5/23/2021 5:15:00 PM 21.94 71.492 1.176 8.31 9.17 9.29
5/23/2021 5:30:00 PM 21.98 71.564 1.177 8.3 9.16 9.16
5/23/2021 5:45:00 PM 22.01 71.618 1.178 8.29 8.58 9.01
5/23/2021 6:00:00 PM 22.02 71.636 1.179 8.28 8.78 8.85
5/23/2021 6:15:00 PM 22 71.6 1.179 8.27 8.5 8.72
5/23/2021 6:30:00 PM 21.96 71.528 1.179 8.26 8.81 8.55
5/23/2021 6:45:00 PM 21.89 71.402 1.178 8.24 8.92 8.39
5/23/2021 7:00:00 PM 21.82 71.276 1.178 8.22 8.54 8.24
5/23/2021 7:15:00 PM 21.74 71.132 1.177 8.21 8.58 8.11
5/23/2021 7:30:00 PM 21.66 70.988 1.178 8.19 8.71 7.98
5/23/2021 7:45:00 PM 21.58 70.844 1.178 8.17 9.06 7.83
5/23/2021 8:00:00 PM 21.49 70.682 1.178 8.16 8.9 7.67
5/23/2021 8:15:00 PM 21.41 70.538 1.179 8.14 8.92 7.56
5/23/2021 8:30:00 PM 21.33 70.394 1.178 8.12 9.09 7.42
5/23/2021 8:45:00 PM 21.25 70.25 1.175 8.11 9.68 7.3
5/23/2021 9:00:00 PM 21.17 70.106 1.173 8.1 10.24 7.19
5/23/2021 9:15:00 PM 21.08 69.944 1.171 8.08 11.01 7.1
5/23/2021 9:30:00 PM 20.99 69.782 1.169 8.07 11.21 7.05
5/23/2021 9:45:00 PM 20.89 69.602 1.167 8.06 11.07 6.98
5/23/2021 10:00:00 PM 20.78 69.404 1.166 8.05 11.61 6.93
5/23/2021 10:15:00 PM 20.67 69.206 1.165 8.04 11.45 6.88
5/23/2021 10:30:00 PM 20.54 68.972 1.163 8.03 11.09 6.85
5/23/2021 10:45:00 PM 20.42 68.756 1.161 8.02 10.42 6.81
5/23/2021 11:00:00 PM 20.29 68.522 1.16 8.01 11.48 6.77
5/23/2021 11:15:00 PM 20.17 68.306 1.16 8 11.42 6.72
5/23/2021 11:30:00 PM 20.04 68.07201 1.161 7.99 11.6 6.7
5/23/2021 11:45:00 PM 19.92 67.856 1.162 7.98 11.78 6.67
5/24/2021 12:00:00 AM 19.79 67.622 1.165 7.97 11.31 6.66
5/24/2021 12:15:00 AM 19.67 67.406 1.168 7.97 11.44 6.62
5/24/2021 12:30:00 AM 19.55 67.19 1.173 7.96 11.85 6.58
5/24/2021 12:45:00 AM 19.44 66.992 1.177 7.96 12.13 6.56
5/24/2021 1:00:00 AM 19.33 66.794 1.181 7.95 10.63 6.58
5/24/2021 1:15:00 AM 19.22 66.596 1.184 7.95 11.2 6.54
5/24/2021 1:30:00 AM 19.12 66.416 1.186 7.95 12.14 6.53
5/24/2021 1:45:00 AM 19.02 66.236 1.188 7.94 13.66 6.54
5/24/2021 2:00:00 AM 18.92 66.056 1.19 7.94 16.48 6.54
5/24/2021 2:15:00 AM 18.82 65.876 1.192 7.94 11.64 6.55
5/24/2021 2:30:00 AM 18.72 65.696 1.192 7.94 12.98 6.56
5/24/2021 2:45:00 AM 18.63 65.534 1.193 7.93 12.74 6.56
5/24/2021 3:00:00 AM 18.54 65.372 1.192 7.93 12.24 6.58
5/24/2021 3:15:00 AM 18.45 65.21 1.193 7.93 12.73 6.58
5/24/2021 3:30:00 AM 18.37 65.066 1.192 7.93 13.2 6.59
5/24/2021 3:45:00 AM 18.29 64.922 1.193 7.93 12.99 6.64
5/24/2021 4:00:00 AM 18.21 64.778 1.192 7.93 12.51 6.63
5/24/2021 4:15:00 AM 18.14 64.652 1.191 7.93 14.21 6.64
5/24/2021 4:30:00 AM 18.07 64.526 1.189 7.93 13.87 6.66
5/24/2021 4:45:00 AM 18 64.4 1.186 7.93 14.42 6.68
5/24/2021 5:00:00 AM 17.92 64.256 1.181 7.93 13.73 6.7
5/24/2021 5:15:00 AM 17.84 64.112 1.174 7.93 13.61 6.71
5/24/2021 5:30:00 AM 17.77 63.986 1.166 7.93 14.73 6.74
5/24/2021 5:45:00 AM 17.69 63.842 1.158 7.93 14.27 6.76
5/24/2021 6:00:00 AM 17.6 63.68 1.149 7.94 14.2 6.83
5/24/2021 6:15:00 AM 17.53 63.554 1.139 7.94 13.86 6.88
5/24/2021 6:30:00 AM 17.45 63.41 1.128 7.95 14.93 6.95
5/24/2021 6:45:00 AM 17.36 63.248 1.116 7.95 14.82 6.99
5/24/2021 7:00:00 AM 17.28 63.104 1.104 7.95 12.42 7.05
5/24/2021 7:15:00 AM 17.2 62.96 1.092 7.96 14.09 7.08
5/24/2021 7:30:00 AM 17.12 62.816 1.081 7.96 13.42 7.15
5/24/2021 7:45:00 AM 17.03 62.654 1.07 7.97 13.06 7.24
5/24/2021 8:00:00 AM 16.95 62.51 1.059 7.97 13.33 7.22
5/24/2021 8:15:00 AM 16.87 62.366 1.048 7.98 12.1 7.31
5/24/2021 8:30:00 AM 16.79 62.222 1.038 7.98 12.26 7.37
5/24/2021 8:45:00 AM 16.72 62.096 1.028 7.99 12.63 7.43
5/24/2021 9:00:00 AM 16.65 61.97 1.019 7.99 12.63 7.52
5/24/2021 9:15:00 AM 16.59 61.862 1.012 8 12.42 7.61
5/24/2021 9:30:00 AM 16.52 61.736 1.005 8.01 12.45 7.7
5/24/2021 9:45:00 AM 16.46 61.628 1.001 8.01 13.6 7.79
5/24/2021 10:00:00 AM 16.4 61.52 0.999 8.02 11.8 7.84
5/24/2021 10:15:00 AM 16.35 61.43 1.001 8.02 11.87 7.89
5/24/2021 10:30:00 AM 16.32 61.376 1.005 8.03 13.62 8.08
5/24/2021 10:45:00 AM 16.3 61.34 1.012 8.04 14.08 8.12
5/24/2021 11:00:00 AM 16.28 61.304 1.02 8.05 13.22 8.23
5/24/2021 11:15:00 AM 16.29 61.322 1.029 8.06 12.14 8.42
5/24/2021 11:30:00 AM 16.3 61.34 1.037 8.07 12.12 8.55
5/24/2021 11:45:00 AM 16.29 61.322 1.042 8.08 9.96 8.55
5/24/2021 12:00:00 PM 16.29 61.322 1.044 8.08 12.09 8.56
5/24/2021 12:15:00 PM 16.28 61.304 1.044 8.09 12.26 8.61
5/24/2021 12:30:00 PM 16.26 61.268 1.042 8.09 13.06 8.64
5/24/2021 12:45:00 PM 16.22 61.196 1.041 8.09 12.89 8.65
5/24/2021 1:00:00 PM 16.19 61.142 1.043 8.1 13.34 8.67
5/24/2021 1:15:00 PM 16.17 61.106 1.05 8.1 12.84 8.74
5/24/2021 1:30:00 PM 16.15 61.07 1.063 8.1 12.48 8.7
5/24/2021 1:45:00 PM 16.15 61.07 1.08 8.1 12.66 8.68
5/24/2021 2:00:00 PM 16.15 61.07 1.1 8.1 14.32 8.64
5/24/2021 2:15:00 PM 16.17 61.106 1.12 8.1 13.19 8.61
5/24/2021 2:30:00 PM 16.18 61.124 1.137 8.1 12.57 8.67
5/24/2021 2:45:00 PM 16.21 61.178 1.15 8.11 12.34 8.71
5/24/2021 3:00:00 PM 16.23 61.214 1.158 8.11 12.44 8.8
5/24/2021 3:15:00 PM 16.24 61.232 1.164 8.11 12.7 8.77
5/24/2021 3:30:00 PM 16.26 61.268 1.166 8.12 12.87 8.78
5/24/2021 3:45:00 PM 16.28 61.304 1.168 8.12 12.38 8.87
5/24/2021 4:00:00 PM 16.29 61.322 1.169 8.13 12.11 8.93
5/24/2021 4:15:00 PM 16.3 61.34 1.17 8.14 14.56 8.98
5/24/2021 4:30:00 PM 16.31 61.358 1.171 8.14 13.6 9.03
5/24/2021 4:45:00 PM 16.33 61.394 1.172 8.14 11.8 8.98
5/24/2021 5:00:00 PM 16.33 61.394 1.173 8.14 12.2 8.96
5/24/2021 5:15:00 PM 16.34 61.412 1.175 8.14 11.89 8.9
5/24/2021 5:30:00 PM 16.33 61.394 1.176 8.14 14 8.89
5/24/2021 5:45:00 PM 16.32 61.376 1.178 8.14 12.12 8.89
5/24/2021 6:00:00 PM 16.31 61.358 1.178 8.14 13.12 8.83
5/24/2021 6:15:00 PM 16.3 61.34 1.177 8.14 12.92 8.83
5/24/2021 6:30:00 PM 16.28 61.304 1.176 8.14 12.32 8.79
5/24/2021 6:45:00 PM 16.26 61.268 1.173 8.13 13.3 8.76
5/24/2021 7:00:00 PM 16.24 61.232 1.171 8.13 12.72 8.68
5/24/2021 7:15:00 PM 16.21 61.178 1.169 8.13 11.87 8.62
5/24/2021 7:30:00 PM 16.18 61.124 1.167 8.12 12.62 8.53
5/24/2021 7:45:00 PM 16.15 61.07 1.166 8.11 12.47 8.47
5/24/2021 8:00:00 PM 16.11 60.998 1.167 8.11 12.39 8.38
5/24/2021 8:15:00 PM 16.08 60.944 1.168 8.1 12.45 8.33
5/24/2021 8:30:00 PM 16.04 60.872 1.171 8.09 12.66 8.27
5/24/2021 8:45:00 PM 16.01 60.818 1.177 8.09 13.18 8.22
5/24/2021 9:00:00 PM 15.99 60.782 1.182 8.08 13.29 8.18
5/24/2021 9:15:00 PM 15.96 60.728 1.185 8.08 15.13 8.15
5/24/2021 9:30:00 PM 15.94 60.692 1.185 8.08 12.25 8.1
5/24/2021 9:45:00 PM 15.91 60.638 1.181 8.07 13.69 8.05
5/24/2021 10:00:00 PM 15.87 60.566 1.171 8.07 13.67 8.08
5/24/2021 10:15:00 PM 15.83 60.494 1.172 8.07 13.48 8
5/24/2021 10:30:00 PM 15.79 60.422 1.165 8.07 12.94 8.06
5/24/2021 10:45:00 PM 15.75 60.35 1.159 8.06 13.57 8.04
5/24/2021 11:00:00 PM 15.71 60.278 1.153 8.06 12.76 8.02
5/24/2021 11:15:00 PM 15.67 60.206 1.151 8.06 13.81 7.99
5/24/2021 11:30:00 PM 15.64 60.152 1.151 8.05 12.94 7.97
5/24/2021 11:45:00 PM 15.61 60.098 1.153 8.05 12.64 7.92
5/25/2021 12:00:00 AM 15.58 60.044 1.155 8.04 13.19 7.92
5/25/2021 12:15:00 AM 15.55 59.99 1.158 8.04 14.32 7.86
5/25/2021 12:30:00 AM 15.52 59.936 1.163 8.03 15.62 7.85
5/25/2021 12:45:00 AM 15.49 59.882 1.168 8.02 14.29 7.82
5/25/2021 1:00:00 AM 15.46 59.828 1.175 8.02 14.55 7.78
5/25/2021 1:15:00 AM 15.44 59.792 1.182 8.02 14.68 7.76
5/25/2021 1:30:00 AM 15.42 59.756 1.188 8.01 15.14 7.74
5/25/2021 1:45:00 AM 15.39 59.702 1.192 8.01 15.55 7.72
5/25/2021 2:00:00 AM 15.37 59.666 1.196 8 20.05 7.71
5/25/2021 2:15:00 AM 15.35 59.63 1.199 8 15.72 7.69
5/25/2021 2:30:00 AM 15.33 59.594 1.201 8 17.12 7.69
5/25/2021 2:45:00 AM 15.31 59.558 1.204 8 18.39 7.67
5/25/2021 3:00:00 AM 15.29 59.522 1.206 7.99 19.06 7.64
5/25/2021 3:15:00 AM 15.27 59.486 1.208 7.99 20.29 7.64
5/25/2021 3:30:00 AM 15.25 59.45 1.208 7.99 22.43 7.6
5/25/2021 3:45:00 AM 15.23 59.414 1.208 7.99 21.81 7.61
5/25/2021 4:00:00 AM 15.21 59.378 1.208 7.99 19.01 7.59
5/25/2021 4:15:00 AM 15.19 59.342 1.207 7.98 20.91 7.6
5/25/2021 4:30:00 AM 15.17 59.306 1.205 7.99 22.65 7.62
5/25/2021 4:45:00 AM 15.14 59.252 1.203 7.99 22.26 7.63
5/25/2021 5:00:00 AM 15.12 59.216 1.2 7.99 24.84 7.65
5/25/2021 5:15:00 AM 15.1 59.18 1.196 7.99 20.52 7.64
5/25/2021 5:30:00 AM 15.08 59.144 1.19 7.99 21.81 7.66
5/25/2021 5:45:00 AM 15.06 59.108 1.182 7.99 21.94 7.66
5/25/2021 6:00:00 AM 15.03 59.054 1.174 7.99 22.23 7.69
5/25/2021 6:15:00 AM 15.01 59.018 1.165 7.99 21.84 7.72
5/25/2021 6:30:00 AM 14.99 58.982 1.154 8 23.95 7.75
5/25/2021 6:45:00 AM 14.97 58.946 1.143 8 22.94 7.85
5/25/2021 7:00:00 AM 14.95 58.91 1.129 8.01 25.28 7.93
5/25/2021 7:15:00 AM 14.93 58.874 1.116 8.02 23.47 8.04
5/25/2021 7:30:00 AM 14.92 58.856 1.103 8.03 22.41 8.11
5/25/2021 7:45:00 AM 14.91 58.838 1.091 8.04 22.4 8.27
5/25/2021 8:00:00 AM 14.91 58.838 1.079 8.05 22.74 8.41
5/25/2021 8:15:00 AM 14.91 58.838 1.067 8.07 22.32 8.58
5/25/2021 8:30:00 AM 14.91 58.838 1.056 8.08 22.02 8.75
5/25/2021 8:45:00 AM 14.93 58.874 1.045 8.1 22.8 8.95
5/25/2021 9:00:00 AM 14.96 58.928 1.035 8.11 22.53 9.07
5/25/2021 9:15:00 AM 14.99 58.982 1.024 8.13 30.07 9.28
5/25/2021 9:30:00 AM 15.02 59.036 1.017 8.14 22.44 9.38
5/25/2021 9:45:00 AM 15.05 59.09 1.01 8.15 26.62 9.43
5/25/2021 10:00:00 AM 15.08 59.144 1.006 8.16 18.75 9.52
5/25/2021 10:15:00 AM 15.11 59.198 1.006 8.16 30.56 9.57
5/25/2021 10:30:00 AM 15.13 59.234 1.009 8.17 37.46 9.62
5/25/2021 10:45:00 AM 15.17 59.306 1.014 8.17 35.14 9.68
5/25/2021 11:00:00 AM 15.22 59.396 1.02 8.18 32.57 9.79
5/25/2021 11:15:00 AM 15.29 59.522 1.026 8.2 39.79 9.89
5/25/2021 11:30:00 AM 15.38 59.684 1.029 8.21 33.76 10.08
5/25/2021 11:45:00 AM 15.48 59.864 1.03 8.23 21.11 10.23
5/25/2021 12:00:00 PM 15.58 60.044 1.028 8.25 27.63 10.37
5/25/2021 12:15:00 PM 15.68 60.224 1.027 8.26 27.86 10.45
5/25/2021 12:30:00 PM 15.77 60.386 1.027 8.27 30.45 10.45
5/25/2021 12:45:00 PM 15.88 60.584 1.031 8.29 26.63 10.57
5/25/2021 1:00:00 PM 16.01 60.818 1.043 8.3 18.17 10.71
5/25/2021 1:15:00 PM 16.14 61.052 1.061 8.31 23.49 10.8
5/25/2021 1:30:00 PM 16.3 61.34 1.087 8.32 22.5 10.84
5/25/2021 1:45:00 PM 16.52 61.736 1.119 8.33 19.28 10.93
5/25/2021 2:00:00 PM 16.74 62.132 1.153 8.34 15.13 11.01
5/25/2021 2:15:00 PM 16.95 62.51 1.18 8.35 16.15 11
5/25/2021 2:30:00 PM 17.11 62.798 1.198 8.35 19.38 10.94
5/25/2021 2:45:00 PM 17.28 63.104 1.205 8.35 15.71 10.87
5/25/2021 3:00:00 PM 17.38 63.284 1.204 8.35 15.35 10.76
5/25/2021 3:15:00 PM 17.44 63.392 1.201 8.35 16.14 10.66
5/25/2021 3:30:00 PM 17.52 63.536 1.196 8.35 15.2 10.56
5/25/2021 3:45:00 PM 17.65 63.77 1.191 8.35 21.29 10.57
5/25/2021 4:00:00 PM 17.8 64.04 1.186 8.36 24.05 10.53
5/25/2021 4:15:00 PM 17.97 64.346 1.182 8.36 19.31 10.52
5/25/2021 4:30:00 PM 18.12 64.616 1.181 8.37 23.28 10.48
5/25/2021 4:45:00 PM 18.25 64.85 1.184 8.37 33.8 10.39
5/25/2021 5:00:00 PM 18.38 65.084 1.19 8.36 20.79 10.24
5/25/2021 5:15:00 PM 18.48 65.264 1.198 8.36 22.61 10.08
5/25/2021 5:30:00 PM 18.57 65.426 1.205 8.35 23.04 9.99
5/25/2021 5:45:00 PM 18.65 65.57 1.211 8.34 22.31 9.84
5/25/2021 6:00:00 PM 18.7 65.66 1.215 8.33 21.05 9.7
5/25/2021 6:15:00 PM 18.73 65.714 1.219 8.32 20.1 9.31
5/25/2021 6:30:00 PM 18.75 65.75 1.219 8.31 57.77 9.28
5/25/2021 6:45:00 PM 18.75 65.75 1.216 8.3 11.94 9.25
5/25/2021 7:00:00 PM 18.75 65.75 1.212 8.29 13.94 9.11
5/25/2021 7:15:00 PM 18.73 65.714 1.208 8.27 13.18 8.91
5/25/2021 7:30:00 PM 18.72 65.696 1.204 8.26 13.16 8.82
5/25/2021 7:45:00 PM 18.69 65.642 1.199 8.24 14.56 8.68
5/25/2021 8:00:00 PM 18.66 65.588 1.191 8.23 14.79 8.47
5/25/2021 8:15:00 PM 18.62 65.516 1.18 8.21 12.97 8.38
5/25/2021 8:30:00 PM 18.57 65.426 1.167 8.2 14.87 8.27
5/25/2021 8:45:00 PM 18.53 65.354 1.154 8.18 13.14 8.13
5/25/2021 9:00:00 PM 18.47 65.246 1.144 8.17 14.22 8.04
5/25/2021 9:15:00 PM 18.42 65.156 1.136 8.15 11.88 7.96
5/25/2021 9:30:00 PM 18.37 65.066 1.13 8.14 10.81 7.87
5/25/2021 9:45:00 PM 18.31 64.958 1.126 8.13 11.78 7.83
5/25/2021 10:00:00 PM 18.25 64.85 1.122 8.12 13.48 7.77
5/25/2021 10:15:00 PM 18.18 64.724 1.121 8.11 12.58 7.73
5/25/2021 10:30:00 PM 18.11 64.598 1.121 8.1 16.52 7.63
5/25/2021 10:45:00 PM 18.03 64.454 1.123 8.08 16.47 7.58
5/25/2021 11:00:00 PM 17.95 64.31 1.128 8.07 13.2 7.55
5/25/2021 11:15:00 PM 17.87 64.166 1.133 8.06 13.1 7.51
5/25/2021 11:30:00 PM 17.78 64.004 1.139 8.05 13.13 7.37
5/25/2021 11:45:00 PM 17.7 63.86 1.146 8.04 9.35 7.39
5/26/2021 12:00:00 AM 17.62 63.716 1.153 8.03 10.4 7.35
5/26/2021 12:15:00 AM 17.54 63.572 1.159 8.03 9.84 7.27
5/26/2021 12:30:00 AM 17.46 63.428 1.165 8.02 10.15 7.27
5/26/2021 12:45:00 AM 17.38 63.284 1.169 8.01 9.57 7.22
5/26/2021 1:00:00 AM 17.31 63.158 1.172 8.01 10.7 7.22
5/26/2021 1:15:00 AM 17.24 63.032 1.175 8 11.44 7.17
5/26/2021 1:30:00 AM 17.17 62.906 1.177 7.99 16.83 7.17
5/26/2021 1:45:00 AM 17.1 62.78 1.181 7.99 11.78 7.14
5/26/2021 2:00:00 AM 17.04 62.672 1.184 7.99 11.14 7.14
5/26/2021 2:15:00 AM 16.99 62.582 1.187 7.98 11.4 7.12
5/26/2021 2:30:00 AM 16.94 62.492 1.19 7.98 11.66 7.12
5/26/2021 2:45:00 AM 16.89 62.402 1.191 7.98 11.35 7.12
5/26/2021 3:00:00 AM 16.84 62.312 1.192 7.97 11.6 7.11
5/26/2021 3:15:00 AM 16.8 62.24 1.193 7.97 11.46 7.14
5/26/2021 3:30:00 AM 16.76 62.168 1.193 7.97 11.84 7.13
5/26/2021 3:45:00 AM 16.72 62.096 1.193 7.97 12.18 7.13
5/26/2021 4:00:00 AM 16.68 62.024 1.193 7.97 11.39 7.14
5/26/2021 4:15:00 AM 16.64 61.952 1.192 7.97 11.34 7.14
5/26/2021 4:30:00 AM 16.6 61.88 1.191 7.96 11.42 7.09
5/26/2021 4:45:00 AM 16.56 61.808 1.189 7.96 13.5 7.15
5/26/2021 5:00:00 AM 16.53 61.754 1.186 7.96 13.01 7.16
5/26/2021 5:15:00 AM 16.49 61.682 1.183 7.96 11.48 7.15
5/26/2021 5:30:00 AM 16.45 61.61 1.179 7.96 11.62 7.18
5/26/2021 5:45:00 AM 16.42 61.556 1.173 7.96 11.54 7.16
5/26/2021 6:00:00 AM 16.38 61.484 1.166 7.96 11.31 7.21
5/26/2021 6:15:00 AM 16.34 61.412 1.158 7.96 11.58 7.24
5/26/2021 6:30:00 AM 16.3 61.34 1.147 7.96 11.47 7.28
5/26/2021 6:45:00 AM 16.26 61.268 1.136 7.96 11.42 7.35
5/26/2021 7:00:00 AM 16.22 61.196 1.123 7.97 11.56 7.4
5/26/2021 7:15:00 AM 16.19 61.142 1.11 7.97 11.37 7.5
5/26/2021 7:30:00 AM 16.16 61.088 1.097 7.98 11.48 7.6
5/26/2021 7:45:00 AM 16.14 61.052 1.085 7.99 11.99 7.7
5/26/2021 8:00:00 AM 16.12 61.016 1.073 7.99 11.59 7.84
5/26/2021 8:15:00 AM 16.11 60.998 1.062 8 11.9 7.9
5/26/2021 8:30:00 AM 16.11 60.998 1.051 8.02 11.93 8.07
5/26/2021 8:45:00 AM 16.11 60.998 1.04 8.03 11.64 8.18
5/26/2021 9:00:00 AM 16.11 60.998 1.028 8.04 13.21 8.3
5/26/2021 9:15:00 AM 16.12 61.016 1.017 8.05 17.37 8.41
5/26/2021 9:30:00 AM 16.12 61.016 1.008 8.06 11.25 8.53
5/26/2021 9:45:00 AM 16.12 61.016 1.001 8.07 11.36 8.6
5/26/2021 10:00:00 AM 16.15 61.07 0.996 8.08 11.58 8.82
5/26/2021 10:15:00 AM 16.23 61.214 0.994 8.11 10.45 9.13
5/26/2021 10:30:00 AM 16.33 61.394 0.995 8.12 11.71 9.28
5/26/2021 10:45:00 AM 16.47 61.646 0.996 8.14 11.32 9.5
5/26/2021 11:00:00 AM 16.64 61.952 0.999 8.16 10.99 9.65
5/26/2021 11:15:00 AM 16.85 62.33 1.001 8.18 11.13 9.82
5/26/2021 11:30:00 AM 17.06 62.708 1.002 8.2 11.93 9.96
5/26/2021 11:45:00 AM 17.25 63.05 1.002 8.22 10.78 10.08
5/26/2021 12:00:00 PM 17.46 63.428 1.001 8.23 11.08 10.21
5/26/2021 12:15:00 PM 17.68 63.824 1.002 8.25 11.27 10.34
5/26/2021 12:30:00 PM 17.91 64.238 1.005 8.27 10.97 10.44
5/26/2021 12:45:00 PM 18.15 64.67 1.012 8.29 10.37 10.55
5/26/2021 1:00:00 PM 18.4 65.12 1.023 8.3 10.29 10.6
5/26/2021 1:15:00 PM 18.66 65.588 1.03 8.31 10.4 10.63
5/26/2021 1:30:00 PM 18.93 66.074 1.065 8.32 10.68 10.73
5/26/2021 1:45:00 PM 19.22 66.596 1.093 8.33 10.92 10.79
5/26/2021 2:00:00 PM 19.45 67.01 1.117 8.34 10.54 10.74
5/26/2021 2:15:00 PM 19.55 67.19 1.137 8.33 10.44 10.38
5/26/2021 2:30:00 PM 19.72 67.496 1.149 8.32 10.19 10.27
5/26/2021 2:45:00 PM 19.84 67.712 1.155 8.33 11.26 10.25
5/26/2021 3:00:00 PM 19.96 67.92799 1.157 8.33 11.67 10.16
5/26/2021 3:15:00 PM 20.14 68.252 1.157 8.34 13.22 10.19
5/26/2021 3:30:00 PM 20.29 68.522 1.158 8.34 11.81 10.16
5/26/2021 3:45:00 PM 20.47 68.846 1.161 8.35 11.41 10.14
5/26/2021 4:00:00 PM 20.61 69.098 1.167 8.35 10.84 10.01
5/26/2021 4:15:00 PM 20.74 69.332 1.175 8.34 11.96 9.83
5/26/2021 4:30:00 PM 20.82 69.476 1.183 8.32 10.96 9.42
5/26/2021 4:45:00 PM 20.84 69.512 1.179 8.3 13.42 8.95
5/26/2021 5:00:00 PM 20.83 69.494 1.177 8.27 14.08 8.57
5/26/2021 5:15:00 PM 20.83 69.494 1.167 8.24 21.65 8.23
5/26/2021 5:30:00 PM 20.75 69.35 1.167 8.21 24.88 7.99
5/26/2021 5:45:00 PM 20.67 69.206 1.168 8.2 18 7.91
5/26/2021 6:00:00 PM 20.65 69.17 1.164 8.19 14.85 7.99
5/26/2021 6:15:00 PM 20.65 69.17 1.157 8.18 15.32 7.85
5/26/2021 6:30:00 PM 20.66 69.188 1.152 8.17 15.51 7.79
5/26/2021 6:45:00 PM 20.67 69.206 1.143 8.15 24.33 7.63
5/26/2021 7:00:00 PM 20.68 69.224 1.134 8.13 32.46 7.51
5/26/2021 7:15:00 PM 20.64 69.152 1.127 8.11 13.77 7.31
5/26/2021 7:30:00 PM 20.54 68.972 1.113 8.09 32.34 7.3
5/26/2021 7:45:00 PM 20.43 68.774 1.084 8.07 24.39 7.26
5/26/2021 8:00:00 PM 20.35 68.63 1.067 8.05 24.04 7.26
5/26/2021 8:15:00 PM 20.24 68.432 1.064 8.03 26.15 7.12
5/26/2021 8:30:00 PM 20.1 68.18 1.066 8.01 27.25 7.03
5/26/2021 8:45:00 PM 19.93 67.874 1.066 7.99 16.27 6.95
5/26/2021 9:00:00 PM 19.77 67.586 1.065 7.98 19.45 6.81
5/26/2021 9:15:00 PM 19.62 67.316 1.064 7.96 13.45 6.73
5/26/2021 9:30:00 PM 19.5 67.1 1.062 7.94 13.29 6.65
5/26/2021 9:45:00 PM 19.42 66.956 1.045 7.94 13.09 6.57
5/26/2021 10:00:00 PM 19.37 66.866 0.995 7.93 18.66 6.63
5/26/2021 10:15:00 PM 19.47 67.046 0.906 7.92 17.57 6.6
5/26/2021 10:30:00 PM 19.32 66.776 0.899 7.91 17.23 6.52
5/26/2021 10:45:00 PM 19.17 66.506 0.876 7.89 19.36 6.48
5/26/2021 11:00:00 PM 19.06 66.308 0.842 7.87 23.42 6.42
5/26/2021 11:15:00 PM 19 66.2 0.817 7.85 25.91 6.37
5/26/2021 11:30:00 PM 19.03 66.254 0.798 7.81 42.68 6.24
5/26/2021 11:45:00 PM 19.1 66.38 0.787 7.76 76.7 6.12
5/27/2021 12:00:00 AM 19.1 66.38 0.801 7.72 83.06 6.07
5/27/2021 12:15:00 AM 18.95 66.11 0.848 7.69 81.05 5.94
5/27/2021 12:30:00 AM 18.72 65.696 0.869 7.68 62.61 6.04
5/27/2021 12:45:00 AM 18.65 65.57 0.822 7.68 49.06 6.13
5/27/2021 1:00:00 AM 18.63 65.534 0.726 7.67 48.25 6.24
5/27/2021 1:15:00 AM 18.62 65.516 0.638 7.66 38.52 6.25
5/27/2021 1:30:00 AM 18.64 65.552 0.574 7.65 34.4 6.28
5/27/2021 1:45:00 AM 18.69 65.642 0.533 7.64 30.93 6.23
5/27/2021 2:00:00 AM 18.76 65.768 0.509 7.63 28.52 6.16
5/27/2021 2:15:00 AM 18.82 65.876 0.496 7.62 25.43 6.05
5/27/2021 2:30:00 AM 18.87 65.966 0.49 7.61 22.18 5.97
5/27/2021 2:45:00 AM 18.92 66.056 0.492 7.61 21.66 5.91
5/27/2021 3:00:00 AM 18.96 66.128 0.498 7.6 22.28 5.83
5/27/2021 3:15:00 AM 18.98 66.164 0.507 7.59 19.09 5.76
5/27/2021 3:30:00 AM 18.98 66.164 0.516 7.59 17.77 5.74
5/27/2021 3:45:00 AM 18.97 66.146 0.526 7.59 18.49 5.7
5/27/2021 4:00:00 AM 18.95 66.11 0.535 7.58 18.5 5.64
5/27/2021 4:15:00 AM 18.91 66.038 0.546 7.58 18.28 5.65
5/27/2021 4:30:00 AM 18.87 65.966 0.555 7.59 17.82 5.57
5/27/2021 4:45:00 AM 18.81 65.858 0.565 7.59 16.95 5.59
5/27/2021 5:00:00 AM 18.75 65.75 0.576 7.59 18 5.56
5/27/2021 5:15:00 AM 18.67 65.606 0.587 7.59 17.76 5.59
5/27/2021 5:30:00 AM 18.58 65.444 0.597 7.6 16.13 5.63
5/27/2021 5:45:00 AM 18.49 65.282 0.607 7.6 14.69 5.65
5/27/2021 6:00:00 AM 18.4 65.12 0.616 7.61 17.63 5.69
5/27/2021 6:15:00 AM 18.3 64.94 0.624 7.62 14.76 5.74
5/27/2021 6:30:00 AM 18.2 64.76 0.632 7.63 15.93 5.78
5/27/2021 6:45:00 AM 18.1 64.58 0.639 7.63 17.6 5.82
5/27/2021 7:00:00 AM 18.01 64.418 0.648 7.64 15.2 5.94
5/27/2021 7:15:00 AM 17.93 64.274 0.658 7.65 13.46 6.03
5/27/2021 7:30:00 AM 17.85 64.13 0.669 7.66 13.57 6.12
5/27/2021 7:45:00 AM 17.78 64.004 0.682 7.68 12.56 6.22
5/27/2021 8:00:00 AM 17.72 63.896 0.694 7.69 11.78 6.28
5/27/2021 8:15:00 AM 17.67 63.806 0.707 7.71 12.75 6.45
5/27/2021 8:30:00 AM 17.63 63.734 0.72 7.73 13.04 6.67
5/27/2021 8:45:00 AM 17.6 63.68 0.735 7.76 11.66 6.84
5/27/2021 9:00:00 AM 17.57 63.626 0.752 7.78 11.01 7.03
5/27/2021 9:15:00 AM 17.56 63.608 0.769 7.8 11.23 7.2
5/27/2021 9:30:00 AM 17.55 63.59 0.788 7.83 12.97 7.47
5/27/2021 9:45:00 AM 17.55 63.59 0.807 7.85 14.75 7.68
5/27/2021 10:00:00 AM 17.55 63.59 0.826 7.87 10.37 7.89
5/27/2021 10:15:00 AM 17.6 63.68 0.843 7.9 10.87 8.14
5/27/2021 10:30:00 AM 17.63 63.734 0.857 7.92 9.72 8.27
5/27/2021 10:45:00 AM 17.69 63.842 0.868 7.94 11.44 8.48
5/27/2021 11:00:00 AM 17.7 63.86 0.876 7.96 8.53 8.64
5/27/2021 11:15:00 AM 17.76 63.968 0.882 7.98 9.45 8.74
5/27/2021 11:30:00 AM 17.87 64.166 0.886 8 8.13 8.94
5/27/2021 11:45:00 AM 17.91 64.238 0.89 8.02 9.25 9.04
5/27/2021 12:00:00 PM 18.05 64.49 0.898 8.04 7.61 9.25
5/27/2021 12:15:00 PM 18.24 64.832 0.907 8.07 7.86 9.42
5/27/2021 12:30:00 PM 18.44 65.192 0.922 8.09 7.88 9.57
5/27/2021 12:45:00 PM 18.64 65.552 0.94 8.11 8.66 9.69
5/27/2021 1:00:00 PM 18.9 66.02 0.962 8.13 7.99 9.81
5/27/2021 1:15:00 PM 19.16 66.488 0.982 8.16 7.54 9.89
5/27/2021 1:30:00 PM 19.42 66.956 1.002 8.18 8 10
5/27/2021 1:45:00 PM 19.59 67.262 1.018 8.19 7.86 9.96
5/27/2021 2:00:00 PM 19.79 67.622 1.028 8.2 7.77 9.96
5/27/2021 2:15:00 PM 19.97 67.946 1.033 8.21 7.17 9.98
5/27/2021 2:30:00 PM 20.15 68.27 1.036 8.21 9.27 9.9
5/27/2021 2:45:00 PM 20.33 68.594 1.038 8.22 7.91 9.88
5/27/2021 3:00:00 PM 20.49 68.882 1.04 8.22 11.67 9.83
5/27/2021 3:15:00 PM 20.63 69.134 1.043 8.23 12.34 9.71
5/27/2021 3:30:00 PM 20.74 69.332 1.045 8.23 7.87 9.58
5/27/2021 3:45:00 PM 20.85 69.53 1.048 8.23 8.35 9.63
5/27/2021 4:00:00 PM 20.95 69.71 1.05 8.23 10.8 9.55
5/27/2021 4:15:00 PM 21.01 69.818 1.055 8.23 8.51 9.44
5/27/2021 4:30:00 PM 21.05 69.89 1.062 8.22 7.71 9.34
5/27/2021 4:45:00 PM 21.08 69.944 1.071 8.22 7.73 9.24
5/27/2021 5:00:00 PM 21.09 69.962 1.082 8.21 7.44 9.15
5/27/2021 5:15:00 PM 21.09 69.962 1.092 8.2 7.72 9.03
5/27/2021 5:30:00 PM 21.04 69.872 1.1 8.19 7.55 8.8
5/27/2021 5:45:00 PM 21 69.8 1.107 8.18 7.17 8.67
5/27/2021 6:00:00 PM 20.96 69.728 1.112 8.17 7.84 8.59
5/27/2021 6:15:00 PM 20.94 69.692 1.116 8.17 7.69 8.55
5/27/2021 6:30:00 PM 20.86 69.548 1.119 8.15 7.46 8.39
5/27/2021 6:45:00 PM 20.75 69.35 1.121 8.13 7.13 8.18
5/27/2021 7:00:00 PM 20.68 69.224 1.122 8.13 7.67 8.15
5/27/2021 7:15:00 PM 20.61 69.098 1.124 8.12 7.56 8.04
5/27/2021 7:30:00 PM 20.52 68.936 1.124 8.1 7.23 7.92
5/27/2021 7:45:00 PM 20.42 68.756 1.123 8.09 8.05 7.79
5/27/2021 8:00:00 PM 20.33 68.594 1.12 8.08 7.48 7.7
5/27/2021 8:15:00 PM 20.22 68.396 1.114 8.07 7.7 7.62
5/27/2021 8:30:00 PM 20.09 68.162 1.107 8.06 7.91 7.48
5/27/2021 8:45:00 PM 19.95 67.91 1.1 8.05 7.95 7.39
5/27/2021 9:00:00 PM 19.8 67.64 1.092 8.04 8.33 7.31
5/27/2021 9:15:00 PM 19.65 67.37 1.085 8.03 8.33 7.23
5/27/2021 9:30:00 PM 19.51 67.118 1.079 8.02 9.19 7.19
5/27/2021 9:45:00 PM 19.37 66.866 1.076 8.01 9.06 7.15
5/27/2021 10:00:00 PM 19.24 66.632 1.076 8 9.44 7.12
5/27/2021 10:15:00 PM 19.12 66.416 1.079 7.99 9.44 7.04
5/27/2021 10:30:00 PM 19 66.2 1.083 7.99 9.95 7.03
5/27/2021 10:45:00 PM 18.87 65.966 1.087 7.98 9.8 7
5/27/2021 11:00:00 PM 18.75 65.75 1.09 7.97 10.7 6.94
5/27/2021 11:15:00 PM 18.64 65.552 1.092 7.96 11.01 6.94
5/27/2021 11:30:00 PM 18.52 65.336 1.095 7.96 10.93 6.88
5/27/2021 11:45:00 PM 18.41 65.138 1.098 7.95 11.08 6.84
5/28/2021 12:00:00 AM 18.3 64.94 1.101 7.95 10.75 6.84
5/28/2021 12:15:00 AM 18.2 64.76 1.103 7.94 11.05 6.81
5/28/2021 12:30:00 AM 18.1 64.58 1.103 7.94 11.13 6.8
5/28/2021 12:45:00 AM 18 64.4 1.105 7.93 11.03 6.79
5/28/2021 1:00:00 AM 17.91 64.238 1.107 7.93 11.4 6.77
5/28/2021 1:15:00 AM 17.81 64.058 1.111 7.93 11.47 6.78
5/28/2021 1:30:00 AM 17.71 63.878 1.114 7.92 11.75 6.77
5/28/2021 1:45:00 AM 17.61 63.698 1.115 7.92 11.12 6.78
5/28/2021 2:00:00 AM 17.52 63.536 1.114 7.92 11.02 6.78
5/28/2021 2:15:00 AM 17.42 63.356 1.113 7.92 11.65 6.78
5/28/2021 2:30:00 AM 17.33 63.194 1.113 7.92 11.56 6.78
5/28/2021 2:45:00 AM 17.25 63.05 1.114 7.92 11.23 6.8
5/28/2021 3:00:00 AM 17.17 62.906 1.116 7.92 11.37 6.8
5/28/2021 3:15:00 AM 17.09 62.762 1.118 7.92 10.98 6.82
5/28/2021 3:30:00 AM 17.02 62.636 1.117 7.92 11.39 6.84
5/28/2021 3:45:00 AM 16.95 62.51 1.117 7.92 12 6.86
5/28/2021 4:00:00 AM 16.89 62.402 1.116 7.92 10.9 6.88
5/28/2021 4:15:00 AM 16.83 62.294 1.116 7.92 11.57 6.85
5/28/2021 4:30:00 AM 16.76 62.168 1.116 7.92 11.31 6.9
5/28/2021 4:45:00 AM 16.71 62.078 1.116 7.92 11.68 6.89
5/28/2021 5:00:00 AM 16.64 61.952 1.113 7.92 11.32 6.94
5/28/2021 5:15:00 AM 16.58 61.844 1.109 7.92 11.46 6.96
5/28/2021 5:30:00 AM 16.51 61.718 1.104 7.93 11.46 6.99
5/28/2021 5:45:00 AM 16.44 61.592 1.098 7.93 10.93 7
5/28/2021 6:00:00 AM 16.37 61.466 1.093 7.93 10.82 7.05
5/28/2021 6:15:00 AM 16.29 61.322 1.086 7.93 10.47 7.08
5/28/2021 6:30:00 AM 16.22 61.196 1.079 7.94 10.35 7.15
5/28/2021 6:45:00 AM 16.14 61.052 1.068 7.95 10.15 7.24
5/28/2021 7:00:00 AM 16.07 60.926 1.057 7.95 9.85 7.32
5/28/2021 7:15:00 AM 16.01 60.818 1.046 7.96 9.45 7.43
5/28/2021 7:30:00 AM 15.97 60.746 1.037 7.97 9.44 7.56
5/28/2021 7:45:00 AM 15.92 60.656 1.028 7.98 9.21 7.62
5/28/2021 8:00:00 AM 15.88 60.584 1.019 7.99 9.12 7.77
5/28/2021 8:15:00 AM 15.85 60.53 1.009 8 8.92 7.96
5/28/2021 8:30:00 AM 15.84 60.512 0.999 8.02 9.39 8.16
5/28/2021 8:45:00 AM 15.82 60.476 0.991 8.03 9.08 8.3
5/28/2021 9:00:00 AM 15.8 60.44 0.984 8.04 9.01 8.39
5/28/2021 9:15:00 AM